Provisional Data: Susquehanna River near Danville, PA


Please select a monitoring station.
Please select start date.
Please select start date.

<
Toggle Unit: C/F Toggle Unit: C/F
Sample Time Temperature (C) Temperature (F) Specific Conductivity (mS/cm) pH   Turbidity (NTU+) DO (mg/L)
6/22/2021 12:00:00 AM 26.25 79.25 0.321 8.03 0.93 6.72
6/22/2021 12:15:00 AM 26.25 79.25 0.321 8.02 0.83 6.64
6/22/2021 12:30:00 AM 26.23 79.214 0.321 8.01 0.85 6.58
6/22/2021 12:45:00 AM 26.22 79.196 0.321 7.99 0.87 6.49
6/22/2021 1:00:00 AM 26.2 79.16 0.321 7.99 0.88 6.42
6/22/2021 1:15:00 AM 26.2 79.16 0.321 7.97 1.03 6.35
6/22/2021 1:30:00 AM 26.18 79.124 0.321 7.96 0.84 6.29
6/22/2021 1:45:00 AM 26.17 79.106 0.322 7.95 0.8 6.21
6/22/2021 2:00:00 AM 26.15 79.07 0.322 7.93 0.83 6.13
6/22/2021 2:15:00 AM 26.14 79.052 0.322 7.92 0.89 6.06
6/22/2021 2:30:00 AM 26.12 79.016 0.322 7.91 0.78 5.98
6/22/2021 2:45:00 AM 26.12 79.016 0.322 7.89 0.79 5.91
6/22/2021 3:00:00 AM 26.09 78.962 0.322 7.89 0.72 5.87
6/22/2021 3:15:00 AM 26.08 78.944 0.322 7.88 0.78 5.82
6/22/2021 3:30:00 AM 26.07 78.926 0.322 7.87 0.76 5.74
6/22/2021 3:45:00 AM 26.07 78.926 0.322 7.85 0.92 5.66
6/22/2021 4:00:00 AM 26.06 78.908 0.322 7.84 0.75 5.59
6/22/2021 4:15:00 AM 26.03 78.854 0.322 7.84 0.75 5.54
6/22/2021 4:30:00 AM 26.01 78.818 0.322 7.84 0.71 5.47
6/22/2021 4:45:00 AM 26 78.8 0.322 7.83 0.67 5.42
6/22/2021 5:00:00 AM 25.98 78.764 0.323 7.82 0.63 5.34
6/22/2021 5:15:00 AM 25.99 78.782 0.323 7.79 0.66 5.25
6/22/2021 5:30:00 AM 25.97 78.746 0.323 7.78 0.85 5.14
6/22/2021 5:45:00 AM 25.97 78.746 0.323 7.78 0.67 5.09
6/22/2021 6:00:00 AM 25.13 77.234 0 7.62 0.74 8.53
6/22/2021 6:15:00 AM 24.12 75.416 0 7.6 0.74 8.73
6/22/2021 6:30:00 AM 23.71 74.67799 0 7.64 0.75 8.81
6/22/2021 6:45:00 AM 23.4 74.12 0 7.67 0.82 8.87
6/22/2021 7:00:00 AM 23.18 73.724 0 7.66 0.76 8.93
6/22/2021 7:15:00 AM 23.04 73.472 0 7.65 0.77 8.94
6/22/2021 7:30:00 AM 22.95 73.31 0 7.76 0.8 8.97
6/22/2021 7:45:00 AM 22.86 73.148 0 7.68 0.81 8.98
6/22/2021 8:00:00 AM 22.8 73.04 0 7.68 0.81 9
6/22/2021 8:15:00 AM 22.77 72.986 0 7.68 0.85 9.01
6/22/2021 8:30:00 AM 22.72 72.896 0 7.7 0.84 9.02
6/22/2021 8:45:00 AM 22.68 72.824 0 7.69 0.86 9.04
6/22/2021 9:00:00 AM 22.62 72.716 0 7.7 0.84 9.04
6/22/2021 9:15:00 AM 22.55 72.59 0 7.76 0.78 9.06
6/22/2021 9:30:00 AM 22.46 72.42799 0 7.71 0.85 9.08
6/22/2021 9:45:00 AM 22.39 72.302 0 7.71 0.81 9.09
6/22/2021 10:00:00 AM 22.31 72.158 0 7.74 0.94 9.1
6/22/2021 10:15:00 AM 22.25 72.05 0 7.78 0.79 9.12
6/22/2021 10:30:00 AM 22.19 71.942 0 7.73 0.84 9.12
6/22/2021 10:45:00 AM 22.15 71.87 0 7.76 0.84 9.14
6/22/2021 11:00:00 AM 22.11 71.798 0 7.77 0.85 9.15
6/22/2021 11:15:00 AM 22.08 71.744 0 7.72 0.81 9.15
6/22/2021 11:30:00 AM 22.05 71.69 0 7.72 0.89 9.16
6/22/2021 11:45:00 AM 22.02 71.636 0 7.72 0.92 9.16
6/22/2021 12:00:00 PM 21.99 71.582 0 7.82 0.79 9.17
6/22/2021 12:15:00 PM 21.96 71.528 0 7.82 0.87 9.17
6/22/2021 12:30:00 PM 21.93 71.474 0 7.74 0.85 9.18
6/22/2021 12:45:00 PM 21.89 71.402 0 7.82 0.87 9.19
6/22/2021 1:00:00 PM 21.88 71.384 0 7.82 0.85 9.19
6/22/2021 1:15:00 PM 21.77 71.186 0 7.78 0.89 9.2
6/22/2021 1:30:00 PM 21.78 71.204 0 7.82 0.77 9.21
6/22/2021 1:45:00 PM 21.81 71.258 0 7.84 0.83 9.2
6/22/2021 2:00:00 PM 21.79 71.222 0 7.75 0.87 9.21
6/22/2021 2:15:00 PM 21.74 71.132 0 7.83 0.86 9.22
6/22/2021 2:30:00 PM 24.52 76.136 0.323 7.99 1.28 6.56
6/22/2021 2:45:00 PM 24.52 76.136 0.324 8.02 1.33 6.78
6/22/2021 3:00:00 PM 24.51 76.118 0.324 8.06 1.29 6.92
6/22/2021 3:15:00 PM 24.52 76.136 0.324 8.07 1.36 7.03
6/22/2021 3:30:00 PM 24.51 76.118 0.324 8.07 1.21 7.01
6/22/2021 3:45:00 PM 24.51 76.118 0.324 8.06 1.13 6.99
6/22/2021 4:00:00 PM 24.51 76.118 0.324 8.05 1.27 6.97
6/22/2021 4:15:00 PM 24.51 76.118 0.324 8.05 1.22 6.93
6/22/2021 4:30:00 PM 24.49 76.082 0.324 8.04 1.1 6.89
6/22/2021 4:45:00 PM 24.5 76.1 0.324 8.04 1.07 6.84
6/22/2021 5:00:00 PM 24.49 76.082 0.324 8.03 1.08 6.82
6/22/2021 5:15:00 PM 24.49 76.082 0.324 8.03 1.13 6.76
6/22/2021 5:30:00 PM 24.49 76.082 0.324 8.03 0.94 6.73
6/22/2021 5:45:00 PM 24.47 76.046 0.324 8.02 0.89 6.68
6/22/2021 6:00:00 PM 24.47 76.046 0.324 8.02 1 6.65
6/22/2021 6:15:00 PM 24.47 76.046 0.325 8.01 0.94 6.61
6/22/2021 6:30:00 PM 24.47 76.046 0.325 8 0.9 6.56
6/22/2021 6:45:00 PM 24.46 76.028 0.325 8 0.92 6.54
6/22/2021 7:00:00 PM 24.45 76.01 0.325 7.99 0.88 6.5
6/22/2021 7:15:00 PM 24.44 75.992 0.325 7.99 0.88 6.47
6/22/2021 7:30:00 PM 24.45 76.01 0.325 7.98 0.8 6.43
6/22/2021 7:45:00 PM 24.43 75.974 0.325 7.99 0.87 6.38
6/22/2021 8:00:00 PM 24.43 75.974 0.325 7.97 0.81 6.35
6/22/2021 8:15:00 PM 24.42 75.956 0.325 7.97 0.82 6.32
6/22/2021 8:30:00 PM 24.41 75.938 0.325 7.97 0.75 6.28
6/22/2021 8:45:00 PM 24.41 75.938 0.325 7.96 0.77 6.23
6/22/2021 9:00:00 PM 24.4 75.92 0.325 7.96 0.74 6.2
6/22/2021 9:15:00 PM 24.4 75.92 0.325 7.95 0.72 6.17
6/22/2021 9:30:00 PM 24.39 75.902 0.325 7.94 0.73 6.14
6/22/2021 9:45:00 PM 24.38 75.884 0.325 7.94 0.74 6.1
6/22/2021 10:00:00 PM 24.38 75.884 0.325 7.94 0.7 6.05
6/22/2021 10:15:00 PM 24.36 75.848 0.325 7.93 0.71 6.01
6/22/2021 10:30:00 PM 24.36 75.848 0.325 7.93 0.67 5.96
6/22/2021 10:45:00 PM 24.35 75.83 0.325 7.92 0.73 5.91
6/22/2021 11:00:00 PM 24.34 75.812 0.325 7.92 0.69 5.89
6/22/2021 11:15:00 PM 24.33 75.794 0.325 7.91 0.71 5.84
6/22/2021 11:30:00 PM 24.32 75.776 0.326 7.9 0.67 5.81
6/22/2021 11:45:00 PM 24.32 75.776 0.326 7.9 0.71 5.77
6/23/2021 12:00:00 AM 24.31 75.758 0.326 7.9 0.68 5.73
6/23/2021 12:15:00 AM 24.31 75.758 0.326 7.89 0.71 5.68
6/23/2021 12:30:00 AM 24.3 75.74 0.326 7.88 0.68 5.64
6/23/2021 12:45:00 AM 24.29 75.722 0.326 7.88 0.88 5.59
6/23/2021 1:00:00 AM 24.28 75.704 0.326 7.87 0.65 5.54
6/23/2021 1:15:00 AM 24.28 75.704 0.326 7.87 0.67 5.5
6/23/2021 1:30:00 AM 24.26 75.668 0.326 7.86 0.67 5.45
6/23/2021 1:45:00 AM 24.25 75.65 0.326 7.86 0.6 5.41
6/23/2021 2:00:00 AM 24.24 75.632 0.326 7.86 0.62 5.38
6/23/2021 2:15:00 AM 24.22 75.596 0.326 7.85 0.64 5.35
6/23/2021 2:30:00 AM 24.22 75.596 0.326 7.85 0.68 5.31
6/23/2021 2:45:00 AM 24.21 75.578 0.326 7.84 0.68 5.26
6/23/2021 3:00:00 AM 24.21 75.578 0.326 7.84 0.61 5.21
6/23/2021 3:15:00 AM 24.2 75.56 0.326 7.83 0.69 5.17
6/23/2021 3:30:00 AM 24.19 75.542 0.326 7.83 0.65 5.12
6/23/2021 3:45:00 AM 24.18 75.524 0.326 7.82 0.62 5.06
6/23/2021 4:00:00 AM 24.16 75.488 0.326 7.82 0.61 5.04
6/23/2021 4:15:00 AM 24.16 75.488 0.327 7.81 0.61 4.99
6/23/2021 4:30:00 AM 24.14 75.452 0.327 7.8 0.64 4.95
6/23/2021 4:45:00 AM 24.13 75.434 0.327 7.8 0.59 4.91
6/23/2021 5:00:00 AM 24.12 75.416 0.327 7.8 0.61 4.88
6/23/2021 5:15:00 AM 24.11 75.398 0.327 7.79 0.6 4.83
6/23/2021 5:30:00 AM 24.11 75.398 0.327 7.79 0.63 4.78
6/23/2021 5:45:00 AM 24.09 75.362 0.327 7.78 0.69 4.74
6/23/2021 6:00:00 AM 23.92 75.056 0 7.66 0.91 8.51
6/23/2021 6:15:00 AM 22.14 71.852 0 7.64 0.92 9.15
6/23/2021 6:30:00 AM 20.99 69.782 0 7.67 0.9 9.4
6/23/2021 6:45:00 AM 20.35 68.63 0 7.73 0.87 9.53
6/23/2021 7:00:00 AM 19.98 67.964 0 7.67 0.91 9.61
6/23/2021 7:15:00 AM 19.81 67.658 0 7.66 0.86 9.65
6/23/2021 7:30:00 AM 19.72 67.496 0 7.68 0.88 9.67
6/23/2021 7:45:00 AM 19.68 67.424 0 7.66 0.89 9.68
6/23/2021 8:00:00 AM 19.65 67.37 0 7.74 0.9 9.69
6/23/2021 8:15:00 AM 19.65 67.37 0 7.67 0.86 9.7
6/23/2021 8:30:00 AM 19.67 67.406 0 7.66 0.84 9.69
6/23/2021 8:45:00 AM 19.71 67.478 0 7.67 0.83 9.69
6/23/2021 9:00:00 AM 19.79 67.622 0 7.67 0.88 9.67
6/23/2021 9:15:00 AM 19.96 67.92799 0 7.67 0.89 9.65
6/23/2021 9:30:00 AM 19.85 67.73 0 7.77 0.84 9.66
6/23/2021 9:45:00 AM 19.67 67.406 0 7.7 0.91 9.7
6/23/2021 10:00:00 AM 19.67 67.406 0 7.73 0.91 9.7
6/23/2021 10:15:00 AM 19.81 67.658 0 7.71 0.84 9.68
6/23/2021 10:30:00 AM 19.94 67.892 0 7.84 0.89 9.66
6/23/2021 10:45:00 AM 19.9 67.82 0 7.79 0.92 9.66
6/23/2021 11:00:00 AM 20 68 0 7.9 0.95 9.65
6/23/2021 11:15:00 AM 20.15 68.27 0 7.81 0.95 9.62
6/23/2021 11:30:00 AM 20.27 68.486 0 7.79 0.83 9.6
6/23/2021 11:45:00 AM 20.34 68.612 0 7.79 0.91 9.58
6/23/2021 12:00:00 PM 20.41 68.738 0 7.8 0.92 9.57
6/23/2021 12:15:00 PM 20.5 68.9 0 7.79 0.85 9.56
6/23/2021 12:30:00 PM 20.57 69.026 0 7.89 0.85 9.55
6/23/2021 12:45:00 PM 20.67 69.206 0 7.81 0.84 9.53
6/23/2021 1:00:00 PM 20.76 69.368 0 7.87 0.84 9.51
6/23/2021 1:15:00 PM 20.8 69.44 0 7.85 0.9 9.5
6/23/2021 1:30:00 PM 20.85 69.53 0 7.88 0.87 9.5
6/23/2021 1:45:00 PM 20.87 69.566 0 7.89 0.86 9.49
6/23/2021 2:00:00 PM 20.84 69.512 0 7.97 0.85 9.49
6/23/2021 2:15:00 PM 20.78 69.404 0 7.93 0.93 9.5
6/23/2021 2:30:00 PM 23.35 74.03 0.33 8.41 2.02 9.61
6/23/2021 2:45:00 PM 23.5 74.3 0.33 8.42 2.18 9.63
6/23/2021 3:00:00 PM 23.55 74.39 0.33 8.42 1.93 9.59
6/23/2021 3:15:00 PM 23.57 74.426 0.33 8.41 1.68 9.52
6/23/2021 3:30:00 PM 23.57 74.426 0.33 8.4 1.61 9.45
6/23/2021 3:45:00 PM 23.58 74.444 0.33 8.4 1.55 9.39
6/23/2021 4:00:00 PM 23.58 74.444 0.33 8.39 1.6 9.32
6/23/2021 4:15:00 PM 23.58 74.444 0.33 8.37 1.61 9.25
6/23/2021 4:30:00 PM 23.57 74.426 0.33 8.37 1.36 9.2
6/23/2021 4:45:00 PM 23.57 74.426 0.33 8.35 1.31 9.16
6/23/2021 5:00:00 PM 23.56 74.408 0.33 8.36 1.26 9.1
6/23/2021 5:15:00 PM 23.55 74.39 0.33 8.35 1.29 9.06
6/23/2021 5:30:00 PM 23.54 74.372 0.33 8.33 1.37 9.01
6/23/2021 5:45:00 PM 23.54 74.372 0.33 8.33 1.26 8.97
6/23/2021 6:00:00 PM 23.53 74.354 0.33 8.33 1.21 8.94
6/23/2021 6:15:00 PM 23.52 74.336 0.33 8.32 1.27 8.9
6/23/2021 6:30:00 PM 23.52 74.336 0.331 8.31 1.31 8.87
6/23/2021 6:45:00 PM 23.51 74.318 0.331 8.31 1.17 8.81
6/23/2021 7:00:00 PM 23.5 74.3 0.331 8.3 1.21 8.78
6/23/2021 7:15:00 PM 23.5 74.3 0.331 8.3 1.12 8.75
6/23/2021 7:30:00 PM 23.49 74.282 0.331 8.29 1.26 8.7
6/23/2021 7:45:00 PM 23.48 74.264 0.331 8.28 1.15 8.65
6/23/2021 8:00:00 PM 23.48 74.264 0.331 8.28 1.12 8.63
6/23/2021 8:15:00 PM 23.46 74.228 0.331 8.27 1.24 8.56
6/23/2021 8:30:00 PM 23.45 74.21 0.331 8.26 1.04 8.51
6/23/2021 8:45:00 PM 23.44 74.192 0.331 8.25 1.02 8.47
6/23/2021 9:00:00 PM 23.43 74.174 0.331 8.24 1.05 8.41
6/23/2021 9:15:00 PM 23.43 74.174 0.331 8.23 1.05 8.36
6/23/2021 9:30:00 PM 23.42 74.156 0.331 8.22 1 8.29
6/23/2021 9:45:00 PM 23.41 74.138 0.331 8.22 1.01 8.26
6/23/2021 10:00:00 PM 23.4 74.12 0.331 8.21 1.06 8.21
6/23/2021 10:15:00 PM 23.39 74.102 0.331 8.2 0.99 8.18
6/23/2021 10:30:00 PM 23.38 74.084 0.331 8.19 1.05 8.13
6/23/2021 10:45:00 PM 23.37 74.066 0.331 8.19 0.97 8.08
6/23/2021 11:00:00 PM 23.36 74.048 0.331 8.17 0.98 8.01
6/23/2021 11:15:00 PM 23.34 74.012 0.331 8.17 0.92 7.95
6/23/2021 11:30:00 PM 23.34 74.012 0.331 8.15 0.9 7.9
6/23/2021 11:45:00 PM 23.33 73.994 0.331 8.15 0.91 7.84
6/24/2021 12:00:00 AM 23.32 73.976 0.331 8.14 0.96 7.78
6/24/2021 12:15:00 AM 23.31 73.958 0.331 8.12 0.94 7.76
6/24/2021 12:30:00 AM 23.3 73.94 0.331 8.12 0.93 7.68
6/24/2021 12:45:00 AM 23.29 73.922 0.331 8.11 0.93 7.62
6/24/2021 1:00:00 AM 23.29 73.922 0.332 8.09 0.93 7.55
6/24/2021 1:15:00 AM 23.28 73.904 0.332 8.08 0.86 7.52
6/24/2021 1:30:00 AM 23.27 73.886 0.332 8.09 0.93 7.46
6/24/2021 1:45:00 AM 23.26 73.868 0.332 8.07 0.86 7.42
6/24/2021 2:00:00 AM 23.26 73.868 0.332 8.07 0.9 7.36
6/24/2021 2:15:00 AM 23.25 73.85 0.332 8.06 0.86 7.3
6/24/2021 2:30:00 AM 23.23 73.814 0.332 8.05 1.22 7.26
6/24/2021 2:45:00 AM 23.22 73.796 0.332 8.05 0.98 7.22
6/24/2021 3:00:00 AM 23.21 73.778 0.332 8.04 0.92 7.18
6/24/2021 3:15:00 AM 23.2 73.76 0.332 8.03 0.85 7.11
6/24/2021 3:30:00 AM 23.2 73.76 0.332 8.02 0.86 7.04
6/24/2021 3:45:00 AM 23.19 73.742 0.332 8.01 0.8 6.97
6/24/2021 4:00:00 AM 23.18 73.724 0.332 8 0.84 6.92
6/24/2021 4:15:00 AM 23.17 73.706 0.332 8 0.82 6.88
6/24/2021 4:30:00 AM 23.16 73.688 0.332 8 0.83 6.85
6/24/2021 4:45:00 AM 23.15 73.67 0.332 7.99 0.84 6.8
6/24/2021 5:00:00 AM 23.14 73.652 0.332 7.98 0.79 6.74
6/24/2021 5:15:00 AM 23.13 73.634 0.332 7.97 0.88 6.68
6/24/2021 5:30:00 AM 23.12 73.616 0.332 7.96 0.77 6.64
6/24/2021 5:45:00 AM 23.11 73.598 0.332 7.94 0.78 6.46
6/24/2021 6:00:00 AM 22.59 72.662 0 7.86 0.96 9.12
6/24/2021 6:15:00 AM 21.32 70.376 0 7.84 0.93 9.4
6/24/2021 6:30:00 AM 20.64 69.152 0 7.83 0.84 9.55
6/24/2021 6:45:00 AM 20.46 68.828 0 7.72 0.85 9.58
6/24/2021 7:00:00 AM 20.23 68.414 0 7.71 0.87 9.63
6/24/2021 7:15:00 AM 20.1 68.18 0 7.72 0.84 9.66
6/24/2021 7:30:00 AM 20.05 68.09 0 7.71 0.87 9.67
6/24/2021 7:45:00 AM 20.03 68.054 0 7.71 0.88 9.68
6/24/2021 8:00:00 AM 19.92 67.856 0 7.76 0.94 9.7
6/24/2021 8:15:00 AM 19.84 67.712 0 7.7 0.85 9.71
6/24/2021 8:30:00 AM 19.82 67.676 0 7.72 0.88 9.71
6/24/2021 8:45:00 AM 19.86 67.748 0 7.73 0.83 9.71
6/24/2021 9:00:00 AM 19.95 67.91 0 7.81 0.93 9.7
6/24/2021 9:15:00 AM 20.15 68.27 0 7.71 0.85 9.66
6/24/2021 9:30:00 AM 20.32 68.576 0 7.7 0.97 9.63
6/24/2021 9:45:00 AM 20.41 68.738 0 7.75 0.92 9.61
6/24/2021 10:00:00 AM 20.45 68.81 0 7.78 0.89 9.61
6/24/2021 10:15:00 AM 20.46 68.828 0 7.76 0.95 9.6
6/24/2021 10:30:00 AM 20.45 68.81 0 7.79 0.9 9.61
6/24/2021 10:45:00 AM 20.43 68.774 0 7.83 0.89 9.61
6/24/2021 11:00:00 AM 20.43 68.774 0 7.86 0.92 9.61
6/24/2021 11:15:00 AM 20.43 68.774 0 7.85 0.96 9.61
6/24/2021 11:30:00 AM 20.43 68.774 0 7.96 0.98 9.61
6/24/2021 11:45:00 AM 20.44 68.792 0 7.92 0.93 9.61
6/24/2021 12:00:00 PM 20.46 68.828 0 7.92 0.9 9.61
6/24/2021 12:15:00 PM 20.47 68.846 0 7.94 0.97 9.6
6/24/2021 12:30:00 PM 20.51 68.918 0 7.94 0.91 9.59
6/24/2021 12:45:00 PM 20.53 68.954 0 7.96 0.9 9.59
6/24/2021 1:00:00 PM 20.56 69.008 0 7.97 0.91 9.58
6/24/2021 1:15:00 PM 20.59 69.062 0 7.97 0.86 9.58
6/24/2021 1:30:00 PM 20.62 69.116 0 7.98 0.93 9.58
6/24/2021 1:45:00 PM 20.65 69.17 0 7.97 1.05 9.57
6/24/2021 2:00:00 PM 20.68 69.224 0 7.97 0.95 9.56
6/24/2021 2:15:00 PM 20.7 69.26 0 7.97 0.93 9.55
6/24/2021 2:30:00 PM 20.72 69.296 0 7.98 0.87 9.55
6/24/2021 2:45:00 PM 20.75 69.35 0 8.02 0.87 9.54
6/24/2021 3:00:00 PM 20.77 69.386 0 8.01 0.89 9.53
6/24/2021 3:15:00 PM 20.79 69.422 0 8 0.87 9.53
6/24/2021 3:30:00 PM 20.81 69.458 0 8 0.92 9.52
6/24/2021 3:45:00 PM 20.84 69.512 0 7.99 0.91 9.52
6/24/2021 4:00:00 PM 24.14 75.452 0.335 8.55 1.61 10.05
6/24/2021 4:15:00 PM 24.24 75.632 0.335 8.54 1.67 10.09
6/24/2021 4:30:00 PM 24.27 75.686 0.335 8.54 1.5 10.05
6/24/2021 4:45:00 PM 24.28 75.704 0.335 8.53 1.57 10.02
6/24/2021 5:00:00 PM 24.29 75.722 0.335 8.52 1.84 9.97
6/24/2021 5:15:00 PM 24.28 75.704 0.335 8.51 1.29 9.9
6/24/2021 5:30:00 PM 24.28 75.704 0.335 8.5 1.29 9.85
6/24/2021 5:45:00 PM 24.27 75.686 0.335 8.49 1.47 9.82
6/24/2021 6:00:00 PM 24.27 75.686 0.335 8.48 1.32 9.77
6/24/2021 6:15:00 PM 24.25 75.65 0.335 8.48 1.3 9.72
6/24/2021 6:30:00 PM 24.25 75.65 0.335 8.48 1.26 9.69
6/24/2021 6:45:00 PM 24.24 75.632 0.335 8.46 1.35 9.66
6/24/2021 7:00:00 PM 24.23 75.614 0.336 8.46 1.27 9.62
6/24/2021 7:15:00 PM 24.22 75.596 0.336 8.45 1.23 9.57
6/24/2021 7:30:00 PM 24.22 75.596 0.336 8.45 1.19 9.55
6/24/2021 7:45:00 PM 24.2 75.56 0.336 8.44 1.22 9.48
6/24/2021 8:00:00 PM 24.19 75.542 0.336 8.43 1.15 9.45
6/24/2021 8:15:00 PM 24.18 75.524 0.336 8.42 1.09 9.41
6/24/2021 8:30:00 PM 24.17 75.506 0.336 8.41 1.12 9.35
6/24/2021 8:45:00 PM 24.16 75.488 0.336 8.4 1.09 9.3
6/24/2021 9:00:00 PM 24.15 75.47 0.336 8.39 1.14 9.26
6/24/2021 9:15:00 PM 24.14 75.452 0.336 8.38 1.02 9.23
6/24/2021 9:30:00 PM 24.12 75.416 0.336 8.38 1.1 9.17
6/24/2021 9:45:00 PM 24.12 75.416 0.336 8.36 1.02 9.13
6/24/2021 10:00:00 PM 24.1 75.38 0.336 8.36 1.04 9.06
6/24/2021 10:15:00 PM 24.09 75.362 0.336 8.35 0.99 9.03
6/24/2021 10:30:00 PM 24.08 75.344 0.336 8.34 1.05 8.99
6/24/2021 10:45:00 PM 24.07 75.326 0.336 8.34 1.01 8.94
6/24/2021 11:00:00 PM 24.05 75.29 0.336 8.32 1 8.89
6/24/2021 11:15:00 PM 24.04 75.272 0.336 8.32 0.94 8.86
6/24/2021 11:30:00 PM 24.03 75.254 0.336 8.31 1.02 8.81
6/24/2021 11:45:00 PM 24.02 75.236 0.336 8.31 1.04 8.76
6/25/2021 12:00:00 AM 24.01 75.218 0.336 8.29 0.94 8.72
6/25/2021 12:15:00 AM 24 75.2 0.336 8.28 0.97 8.67
6/25/2021 12:30:00 AM 23.98 75.164 0.336 8.28 0.93 8.62
6/25/2021 12:45:00 AM 23.97 75.146 0.337 8.27 0.94 8.56
6/25/2021 1:00:00 AM 23.96 75.128 0.337 8.25 0.91 8.49
6/25/2021 1:15:00 AM 23.96 75.128 0.337 8.23 0.93 8.42
6/25/2021 1:30:00 AM 23.95 75.11 0.337 8.23 0.92 8.36
6/25/2021 1:45:00 AM 23.94 75.092 0.337 8.22 0.92 8.15
6/25/2021 2:00:00 AM 23.92 75.056 0.337 8.21 0.9 8.24
6/25/2021 2:15:00 AM 23.91 75.038 0.337 8.2 0.91 8.17
6/25/2021 2:30:00 AM 23.9 75.02 0.337 8.19 0.95 8.11
6/25/2021 2:45:00 AM 23.88 74.984 0.337 8.17 0.92 8.06
6/25/2021 3:00:00 AM 23.87 74.966 0.337 8.17 0.93 7.99
6/25/2021 3:15:00 AM 23.86 74.948 0.337 8.16 0.86 7.93
6/25/2021 3:30:00 AM 23.85 74.93 0.337 8.15 0.84 7.89
6/25/2021 3:45:00 AM 23.84 74.912 0.337 8.12 1.12 7.78
6/25/2021 4:00:00 AM 22.8 73.04 0 7.77 0.78 9.14
6/25/2021 4:15:00 AM 21.69 71.042 0 7.81 0.86 9.35
6/25/2021 4:30:00 AM 20.96 69.728 0 7.94 0.83 9.49
6/25/2021 4:45:00 AM 20.58 69.044 0 7.87 0.78 9.57
6/25/2021 5:00:00 AM 20.35 68.63 0 7.8 0.72 9.61
6/25/2021 5:15:00 AM 20.18 68.324 0 7.79 0.82 9.65
6/25/2021 5:30:00 AM 20.1 68.18 0 7.78 0.88 9.66
6/25/2021 5:45:00 AM 20.09 68.162 0 7.8 0.8 9.67
6/25/2021 6:00:00 AM 20.11 68.198 0 7.78 0.75 9.67
6/25/2021 6:15:00 AM 20.15 68.27 0 7.77 0.81 9.66
6/25/2021 6:30:00 AM 20.2 68.36 0 7.78 0.86 9.65
6/25/2021 6:45:00 AM 20.27 68.486 0 7.76 0.86 9.64
6/25/2021 7:00:00 AM 20.34 68.612 0 7.77 0.9 9.62
6/25/2021 7:15:00 AM 20.42 68.756 0 7.9 0.83 9.61
6/25/2021 7:30:00 AM 20.44 68.792 0 7.82 0.81 9.6
6/25/2021 7:45:00 AM 20.43 68.774 0 7.87 0.89 9.6
6/25/2021 8:00:00 AM 20.57 69.026 0 7.86 0.94 9.58
6/25/2021 8:15:00 AM 20.73 69.314 0 7.83 0.83 9.55
6/25/2021 8:30:00 AM 20.8 69.44 0 7.88 0.85 9.54
6/25/2021 8:45:00 AM 20.87 69.566 0 7.83 0.84 9.52
6/25/2021 9:00:00 AM 20.93 69.674 0 7.78 0.82 9.51
6/25/2021 9:15:00 AM 20.98 69.764 0 7.8 0.85 9.5
6/25/2021 9:30:00 AM 21 69.8 0 7.82 0.81 9.49
6/25/2021 9:45:00 AM 21.01 69.818 0 7.8 0.83 9.48
6/25/2021 10:00:00 AM 21.01 69.818 0 7.83 0.85 9.49
6/25/2021 10:15:00 AM 21 69.8 0 7.94 0.87 9.49
6/25/2021 10:30:00 AM 20.99 69.782 0 7.95 0.94 9.49
6/25/2021 10:45:00 AM 20.98 69.764 0 7.86 0.9 9.49
6/25/2021 11:00:00 AM 20.98 69.764 0 7.92 0.88 9.5
6/25/2021 11:15:00 AM 20.98 69.764 0 7.9 0.84 9.49
6/25/2021 11:30:00 AM 20.99 69.782 0 7.85 0.79 9.49
6/25/2021 11:45:00 AM 21 69.8 0 7.97 0.84 9.49
6/25/2021 12:00:00 PM 21 69.8 0 7.89 0.87 9.48
6/25/2021 12:15:00 PM 21.01 69.818 0 7.92 0.84 9.48
6/25/2021 12:30:00 PM 21.03 69.854 0 7.93 0.88 9.48
6/25/2021 12:45:00 PM 21.05 69.89 0 7.92 0.87 9.47
6/25/2021 1:00:00 PM 21.07 69.926 0 8.05 0.86 9.47
6/25/2021 1:15:00 PM 21.09 69.962 0 7.98 0.85 9.46
6/25/2021 1:30:00 PM 21.44 70.592 0 7.96 6.56 9.45
6/25/2021 1:45:00 PM 22.39 72.302 0 7.87 12.71 9.26
6/25/2021 2:00:00 PM 22.74 72.932 0 7.91 11.33 9.19
6/25/2021 2:15:00 PM 22.92 73.256 0 7.86 6.61 9.15
6/25/2021 2:30:00 PM 23.01 73.418 0 7.9 9.92 9.13
6/25/2021 2:45:00 PM 24.21 75.578 0.325 8.38 1.5 9.33
6/25/2021 3:00:00 PM 24.25 75.65 0.325 8.39 1.32 9.31
6/25/2021 3:15:00 PM 24.26 75.668 0.325 8.38 1.29 9.26
6/25/2021 3:30:00 PM 24.27 75.686 0.325 8.36 1.31 9.22
6/25/2021 3:45:00 PM 24.27 75.686 0.325 8.36 1.24 9.17
6/25/2021 4:00:00 PM 24.27 75.686 0.325 8.35 1.05 9.13
6/25/2021 4:15:00 PM 24.26 75.668 0.325 8.34 1.18 9.05
6/25/2021 4:30:00 PM 24.26 75.668 0.325 8.33 1.06 9.02
6/25/2021 4:45:00 PM 24.26 75.668 0.325 8.32 1.1 8.98
6/25/2021 5:00:00 PM 24.24 75.632 0.325 8.31 1.08 8.93
6/25/2021 5:15:00 PM 24.23 75.614 0.325 8.31 1.03 8.9
6/25/2021 5:30:00 PM 24.22 75.596 0.325 8.29 0.98 8.86
6/25/2021 5:45:00 PM 24.21 75.578 0.325 8.29 1.01 8.8
6/25/2021 6:00:00 PM 24.2 75.56 0.325 8.28 0.95 8.76
6/25/2021 6:15:00 PM 24.19 75.542 0.325 8.27 0.99 8.71
6/25/2021 6:30:00 PM 24.19 75.542 0.325 8.26 1 8.63
6/25/2021 6:45:00 PM 24.17 75.506 0.325 8.26 0.88 8.64
6/25/2021 7:00:00 PM 24.17 75.506 0.325 8.25 0.91 8.59
6/25/2021 7:15:00 PM 24.16 75.488 0.325 8.24 0.94 8.55
6/25/2021 7:30:00 PM 24.15 75.47 0.325 8.24 0.82 8.49
6/25/2021 7:45:00 PM 24.15 75.47 0.326 8.22 0.86 8.44
6/25/2021 8:00:00 PM 24.14 75.452 0.326 8.22 0.89 8.42
6/25/2021 8:15:00 PM 24.13 75.434 0.326 8.2 0.81 8.35
6/25/2021 8:30:00 PM 24.12 75.416 0.326 8.2 0.82 8.3
6/25/2021 8:45:00 PM 24.11 75.398 0.326 8.18 0.82 8.25
6/25/2021 9:00:00 PM 24.11 75.398 0.326 8.18 0.72 8.2
6/25/2021 9:15:00 PM 24.09 75.362 0.326 8.17 0.79 8.17
6/25/2021 9:30:00 PM 24.09 75.362 0.326 8.15 0.76 8.09
6/25/2021 9:45:00 PM 24.08 75.344 0.326 8.16 0.78 8.06
6/25/2021 10:00:00 PM 24.07 75.326 0.326 8.15 0.78 8.01
6/25/2021 10:15:00 PM 24.05 75.29 0.326 8.14 0.7 7.96
6/25/2021 10:30:00 PM 24.04 75.272 0.326 8.14 0.73 7.91
6/25/2021 10:45:00 PM 24.03 75.254 0.326 8.12 0.72 7.86
6/25/2021 11:00:00 PM 24.02 75.236 0.326 8.12 0.68 7.8
6/25/2021 11:15:00 PM 24.01 75.218 0.326 8.11 0.74 7.74
6/25/2021 11:30:00 PM 24.01 75.218 0.326 8.08 0.74 7.68
6/25/2021 11:45:00 PM 24.01 75.218 0.326 8.09 0.69 7.64
6/26/2021 12:00:00 AM 23.98 75.164 0.326 8.08 0.67 7.6
6/26/2021 12:15:00 AM 23.98 75.164 0.326 8.07 0.67 7.56
6/26/2021 12:30:00 AM 23.97 75.146 0.326 8.06 0.66 7.49
6/26/2021 12:45:00 AM 23.97 75.146 0.326 8.05 0.67 7.45
6/26/2021 1:00:00 AM 23.96 75.128 0.326 8.03 0.64 7.39
6/26/2021 1:15:00 AM 23.94 75.092 0.326 8.04 0.69 7.37
6/26/2021 1:30:00 AM 23.95 75.11 0.326 8.03 0.67 7.3
6/26/2021 1:45:00 AM 23.94 75.092 0.326 8.02 0.7 7.24
6/26/2021 2:00:00 AM 23.92 75.056 0.326 8.01 0.69 7.19
6/26/2021 2:15:00 AM 23.91 75.038 0.326 8.01 0.67 7.16
6/26/2021 2:30:00 AM 23.9 75.02 0.326 8 0.68 7.12
6/26/2021 2:45:00 AM 23.9 75.02 0.326 8 0.67 7.08
6/26/2021 3:00:00 AM 23.89 75.002 0.326 7.99 0.64 7.03
6/26/2021 3:15:00 AM 23.88 74.984 0.327 7.97 0.75 6.96
6/26/2021 3:30:00 AM 23.88 74.984 0.327 7.97 0.65 6.91
6/26/2021 3:45:00 AM 23.85 74.93 0.327 7.97 0.63 6.88
6/26/2021 4:00:00 AM 23.85 74.93 0.327 7.96 0.63 6.83
6/26/2021 4:15:00 AM 23.84 74.912 0.327 7.95 0.64 6.78
6/26/2021 4:30:00 AM 23.84 74.912 0.327 7.94 0.6 6.74
6/26/2021 4:45:00 AM 23.83 74.894 0.327 7.94 0.65 6.7
6/26/2021 5:00:00 AM 23.83 74.894 0.327 7.93 0.65 6.65
6/26/2021 5:15:00 AM 23.2 73.76 0 7.67 0.77 9.02
6/26/2021 5:30:00 AM 22.58 72.644 0 7.68 0.77 9.15
6/26/2021 5:45:00 AM 22.31 72.158 0 7.68 0.81 9.2
6/26/2021 6:00:00 AM 22.1 71.78 0 7.73 0.8 9.24
6/26/2021 6:15:00 AM 21.96 71.528 0 7.75 0.81 9.28
6/26/2021 6:30:00 AM 21.87 71.366 0 7.68 0.81 9.3
6/26/2021 6:45:00 AM 21.81 71.258 0 7.74 0.78 9.31
6/26/2021 7:00:00 AM 21.76 71.168 0 7.76 0.82 9.31
6/26/2021 7:15:00 AM 21.72 71.096 0 7.69 0.76 9.32
6/26/2021 7:30:00 AM 21.7 71.06 0 7.73 0.84 9.33
6/26/2021 7:45:00 AM 21.68 71.024 0 7.7 0.77 9.33
6/26/2021 8:00:00 AM 21.67 71.006 0 7.72 0.78 9.32
6/26/2021 8:15:00 AM 21.66 70.988 0 7.73 0.88 9.33
6/26/2021 8:30:00 AM 21.66 70.988 0 7.71 0.85 9.33
6/26/2021 8:45:00 AM 21.66 70.988 0 7.9 0.84 9.34
6/26/2021 9:00:00 AM 21.66 70.988 0 7.72 0.84 9.34
6/26/2021 9:15:00 AM 21.66 70.988 0 7.72 0.88 9.33
6/26/2021 9:30:00 AM 21.66 70.988 0 7.77 0.81 9.33
6/26/2021 9:45:00 AM 21.67 71.006 0 7.75 0.84 9.32
6/26/2021 10:00:00 AM 21.68 71.024 0 7.84 0.84 9.33
6/26/2021 10:15:00 AM 21.7 71.06 0 7.82 0.77 9.32
6/26/2021 10:30:00 AM 21.71 71.078 0 7.8 0.8 9.32
6/26/2021 10:45:00 AM 21.72 71.096 0 7.8 0.81 9.32
6/26/2021 11:00:00 AM 21.73 71.114 0 7.81 0.77 9.31
6/26/2021 11:15:00 AM 21.75 71.15 0 7.81 0.85 9.31
6/26/2021 11:30:00 AM 21.77 71.186 0 7.82 0.84 9.31
6/26/2021 11:45:00 AM 21.79 71.222 0 7.77 0.85 9.31
6/26/2021 12:00:00 PM 21.82 71.276 0 7.75 0.81 9.3
6/26/2021 12:15:00 PM 21.83 71.294 0 7.78 0.83 9.29
6/26/2021 12:30:00 PM 21.86 71.348 0 7.79 0.84 9.3
6/26/2021 12:45:00 PM 22 71.6 0 7.75 0.83 9.28
6/26/2021 1:00:00 PM 22.14 71.852 0 7.77 0.82 9.24
6/26/2021 1:15:00 PM 22.87 73.166 0 7.7 0.79 9.15
6/26/2021 1:30:00 PM 22.87 73.166 0 7.73 0.89 9.11
6/26/2021 1:45:00 PM 22.6 72.68 0 7.86 8.12 9.17
6/26/2021 2:00:00 PM 25.08 77.144 0.322 8.26 1.1 8.71
6/26/2021 2:15:00 PM 25.13 77.234 0.322 8.27 1.25 8.66
6/26/2021 2:30:00 PM 25.14 77.252 0.322 8.26 1.21 8.62
6/26/2021 2:45:00 PM 25.16 77.288 0.322 8.25 1.22 8.56
6/26/2021 3:00:00 PM 25.16 77.288 0.322 8.24 1.06 8.49
6/26/2021 3:15:00 PM 25.15 77.27 0.322 8.23 1.05 8.45
6/26/2021 3:30:00 PM 25.14 77.252 0.322 8.22 1 8.39
6/26/2021 3:45:00 PM 25.12 77.216 0.322 8.21 0.94 8.34
6/26/2021 4:00:00 PM 25.13 77.234 0.322 8.2 0.94 8.29
6/26/2021 4:15:00 PM 25.12 77.216 0.322 8.19 0.92 8.25
6/26/2021 4:30:00 PM 25.11 77.198 0.322 8.18 0.87 8.18
6/26/2021 4:45:00 PM 25.1 77.18 0.322 8.17 0.78 8.13
6/26/2021 5:00:00 PM 25.08 77.144 0.322 8.16 0.82 8.08
6/26/2021 5:15:00 PM 25.08 77.144 0.323 8.16 0.79 8.03
6/26/2021 5:30:00 PM 25.06 77.108 0.322 8.15 0.77 7.98
6/26/2021 5:45:00 PM 25.06 77.108 0.323 8.14 0.76 7.94
6/26/2021 6:00:00 PM 25.04 77.07201 0.323 8.14 0.71 7.89
6/26/2021 6:15:00 PM 25.03 77.054 0.323 8.13 0.79 7.85
6/26/2021 6:30:00 PM 25.02 77.036 0.323 8.12 0.75 7.81
6/26/2021 6:45:00 PM 25 77 0.323 8.11 0.71 7.76
6/26/2021 7:00:00 PM 24.99 76.982 0.323 8.11 0.96 7.71
6/26/2021 7:15:00 PM 24.99 76.982 0.323 8.09 0.69 7.65
6/26/2021 7:30:00 PM 24.99 76.982 0.323 8.09 0.67 7.62
6/26/2021 7:45:00 PM 24.96 76.92799 0.323 8.09 0.67 7.58
6/26/2021 8:00:00 PM 24.95 76.91 0.323 8.07 0.64 7.52
6/26/2021 8:15:00 PM 24.95 76.91 0.323 8.07 0.64 7.5
6/26/2021 8:30:00 PM 24.94 76.892 0.323 8.06 0.61 7.43
6/26/2021 8:45:00 PM 24.92 76.856 0.323 8.05 0.66 7.38
6/26/2021 9:00:00 PM 24.92 76.856 0.323 8.04 0.62 7.34
6/26/2021 9:15:00 PM 24.91 76.838 0.323 8.04 0.62 7.31
6/26/2021 9:30:00 PM 24.9 76.82 0.323 8.04 0.61 7.28
6/26/2021 9:45:00 PM 24.88 76.784 0.323 8.02 0.63 7.22
6/26/2021 10:00:00 PM 24.87 76.766 0.323 8.01 0.6 7.15
6/26/2021 10:15:00 PM 24.86 76.748 0.323 8 0.61 7.09
6/26/2021 10:30:00 PM 24.85 76.73 0.323 7.99 0.59 7.04
6/26/2021 10:45:00 PM 24.84 76.712 0.323 7.98 0.59 6.99
6/26/2021 11:00:00 PM 24.83 76.694 0.323 7.98 0.6 6.96
6/26/2021 11:15:00 PM 24.81 76.658 0.323 7.97 0.56 6.9
6/26/2021 11:30:00 PM 24.81 76.658 0.324 7.96 0.56 6.86
6/26/2021 11:45:00 PM 24.79 76.622 0.324 7.95 0.56 6.81
6/27/2021 12:00:00 AM 24.78 76.604 0.324 7.94 0.56 6.74
6/27/2021 12:15:00 AM 24.77 76.586 0.324 7.93 0.54 6.69
6/27/2021 12:30:00 AM 24.76 76.568 0.324 7.93 0.52 6.64
6/27/2021 12:45:00 AM 24.75 76.55 0.324 7.92 0.53 6.59
6/27/2021 1:00:00 AM 24.75 76.55 0.324 7.9 0.52 6.51
6/27/2021 1:15:00 AM 24.73 76.514 0.324 7.9 0.48 6.48
6/27/2021 1:30:00 AM 24.71 76.478 0.324 7.89 0.54 6.43
6/27/2021 1:45:00 AM 24.71 76.478 0.324 7.89 0.52 6.4
6/27/2021 2:00:00 AM 24.69 76.442 0.324 7.88 0.49 6.36
6/27/2021 2:15:00 AM 24.7 76.46 0.324 7.87 0.49 6.31
6/27/2021 2:30:00 AM 24.68 76.424 0.324 7.87 0.47 6.28
6/27/2021 2:45:00 AM 24.67 76.406 0.324 7.86 0.51 6.21
6/27/2021 3:00:00 AM 24.67 76.406 0.324 7.85 0.49 6.17
6/27/2021 3:15:00 AM 24.65 76.37 0.324 7.84 0.46 6.14
6/27/2021 3:30:00 AM 24.64 76.352 0.324 7.84 0.48 6.09
6/27/2021 3:45:00 AM 24.63 76.334 0.325 7.83 0.44 6.03
6/27/2021 4:00:00 AM 24.62 76.316 0.325 7.82 0.47 6
6/27/2021 4:15:00 AM 24.61 76.298 0.325 7.82 0.42 5.95
6/27/2021 4:30:00 AM 24.61 76.298 0.325 7.81 0.44 5.89
6/27/2021 4:45:00 AM 24.6 76.28 0.325 7.8 0.47 5.85
6/27/2021 5:00:00 AM 24.59 76.262 0.325 7.8 0.42 5.82
6/27/2021 5:15:00 AM 23.9 75.02 0 7.63 0.77 8.86
6/27/2021 5:30:00 AM 23.29 73.922 0 7.64 0.78 8.99
6/27/2021 5:45:00 AM 22.97 73.346 0 7.67 0.8 9.06
6/27/2021 6:00:00 AM 22.77 72.986 0 7.64 0.76 9.1
6/27/2021 6:15:00 AM 22.64 72.752 0 7.66 0.79 9.12
6/27/2021 6:30:00 AM 22.56 72.608 0 7.64 0.84 9.15
6/27/2021 6:45:00 AM 22.49 72.482 0 7.73 0.83 9.15
6/27/2021 7:00:00 AM 22.55 72.59 0 7.66 0.77 9.15
6/27/2021 7:15:00 AM 22.65 72.77 0 7.64 0.83 9.14
6/27/2021 7:30:00 AM 22.63 72.734 0 7.64 0.82 9.14
6/27/2021 7:45:00 AM 22.6 72.68 0 7.72 0.85 9.15
6/27/2021 8:00:00 AM 22.57 72.626 0 7.66 0.85 9.15
6/27/2021 8:15:00 AM 22.55 72.59 0 7.66 0.79 9.16
6/27/2021 8:30:00 AM 22.54 72.57201 0 7.65 0.83 9.16
6/27/2021 8:45:00 AM 22.53 72.554 0 7.65 0.81 9.16
6/27/2021 9:00:00 AM 22.52 72.536 0 7.65 0.79 9.17
6/27/2021 9:15:00 AM 22.52 72.536 0 7.69 0.84 9.17
6/27/2021 9:30:00 AM 22.52 72.536 0 7.66 0.86 9.17
6/27/2021 9:45:00 AM 22.52 72.536 0 7.66 0.82 9.17
6/27/2021 10:00:00 AM 22.52 72.536 0 7.66 0.91 9.17
6/27/2021 10:15:00 AM 22.53 72.554 0 7.68 0.83 9.16
6/27/2021 10:30:00 AM 22.54 72.57201 0 7.66 0.84 9.16
6/27/2021 10:45:00 AM 22.56 72.608 0 7.75 0.9 9.16
6/27/2021 11:00:00 AM 22.57 72.626 0 7.66 0.88 9.16
6/27/2021 11:15:00 AM 22.59 72.662 0 7.73 0.86 9.16
6/27/2021 11:30:00 AM 22.61 72.698 0 7.67 0.81 9.15
6/27/2021 11:45:00 AM 22.62 72.716 0 7.68 0.84 9.15
6/27/2021 12:00:00 PM 22.64 72.752 0 7.65 0.84 9.15
6/27/2021 12:15:00 PM 22.66 72.788 0 7.66 0.86 9.15
6/27/2021 12:30:00 PM 22.69 72.842 0 7.66 0.86 9.14
6/27/2021 12:45:00 PM 22.71 72.878 0 7.74 0.82 9.13
6/27/2021 1:00:00 PM 26.26 79.268 0.335 8.27 1.35 8.47
6/27/2021 1:15:00 PM 26.45 79.61 0.334 8.24 1.22 8.43
6/27/2021 1:30:00 PM 26.51 79.718 0.335 8.22 1.04 8.37
6/27/2021 1:45:00 PM 26.5 79.7 0.335 8.22 0.86 8.29
6/27/2021 2:00:00 PM 26.52 79.736 0.335 8.2 0.94 8.22
6/27/2021 2:15:00 PM 26.51 79.718 0.335 8.2 0.84 8.17
6/27/2021 2:30:00 PM 26.49 79.682 0.335 8.18 0.86 8.1
6/27/2021 2:45:00 PM 26.49 79.682 0.335 8.18 0.83 8.05
6/27/2021 3:00:00 PM 26.48 79.664 0.335 8.17 0.73 8.01
6/27/2021 3:15:00 PM 26.48 79.664 0.335 8.17 0.74 7.96
6/27/2021 3:30:00 PM 26.46 79.628 0.335 8.16 0.71 7.92
6/27/2021 3:45:00 PM 26.43 79.574 0.335 8.15 0.62 7.87
6/27/2021 4:00:00 PM 26.42 79.556 0.335 8.15 0.63 7.84
6/27/2021 4:15:00 PM 26.41 79.538 0.335 8.14 0.64 7.78
6/27/2021 4:30:00 PM 26.39 79.502 0.335 8.13 0.61 7.74
6/27/2021 4:45:00 PM 26.38 79.484 0.335 8.11 0.59 7.69
6/27/2021 5:00:00 PM 26.35 79.43 0.335 8.11 0.6 7.64
6/27/2021 5:15:00 PM 26.34 79.412 0.335 8.11 0.58 7.6
6/27/2021 5:30:00 PM 26.33 79.394 0.335 8.09 0.59 7.56
6/27/2021 5:45:00 PM 26.31 79.358 0.335 8.09 0.59 7.5
6/27/2021 6:00:00 PM 26.31 79.358 0.335 8.09 0.58 7.46
6/27/2021 6:15:00 PM 26.3 79.34 0.335 8.08 0.53 7.42
6/27/2021 6:30:00 PM 26.28 79.304 0.335 8.07 0.47 7.36
6/27/2021 6:45:00 PM 26.23 79.214 0.335 8.07 0.52 7.32
6/27/2021 7:00:00 PM 26.24 79.232 0.335 8.06 0.48 7.27
6/27/2021 7:15:00 PM 26.22 79.196 0.336 8.05 0.43 7.21
6/27/2021 7:30:00 PM 26.23 79.214 0.336 8.04 0.46 7.16
6/27/2021 7:45:00 PM 26.22 79.196 0.336 8.03 0.52 7.1
6/27/2021 8:00:00 PM 26.19 79.142 0.336 8.03 0.51 7.06
6/27/2021 8:15:00 PM 26.18 79.124 0.336 8.02 0.48 7.02
6/27/2021 8:30:00 PM 26.16 79.088 0.336 8.01 0.46 6.97
6/27/2021 8:45:00 PM 26.16 79.088 0.336 8.01 0.42 6.91
6/27/2021 9:00:00 PM 26.13 79.034 0.336 8 0.5 6.88
6/27/2021 9:15:00 PM 26.12 79.016 0.336 8 0.45 6.83
6/27/2021 9:30:00 PM 26.1 78.98 0.336 8 0.5 6.79
6/27/2021 9:45:00 PM 26.09 78.962 0.336 7.99 0.45 6.74
6/27/2021 10:00:00 PM 26.09 78.962 0.336 7.98 0.46 6.68
6/27/2021 10:15:00 PM 26.09 78.962 0.336 7.97 0.45 6.63
6/27/2021 10:30:00 PM 26.05 78.89 0.336 7.97 0.38 6.6
6/27/2021 10:45:00 PM 26.05 78.89 0.336 7.96 0.39 6.56
6/27/2021 11:00:00 PM 26.04 78.872 0.336 7.96 0.4 6.5
6/27/2021 11:15:00 PM 26.02 78.836 0.336 7.95 0.42 6.46
6/27/2021 11:30:00 PM 26 78.8 0.336 7.94 0.39 6.42
6/27/2021 11:45:00 PM 25.99 78.782 0.336 7.93 0.42 6.34
6/28/2021 12:00:00 AM 25.98 78.764 0.336 7.92 0.35 6.29
6/28/2021 12:15:00 AM 25.97 78.746 0.336 7.92 0.37 6.26
6/28/2021 12:30:00 AM 25.96 78.728 0.336 7.92 0.41 6.22
6/28/2021 12:45:00 AM 25.94 78.692 0.336 7.91 0.44 6.19
6/28/2021 1:00:00 AM 25.92 78.656 0.336 7.9 0.42 6.11
6/28/2021 1:15:00 AM 25.9 78.62 0.336 7.89 0.36 6.1
6/28/2021 1:30:00 AM 25.87 78.566 0.336 7.89 0.4 6.07
6/28/2021 1:45:00 AM 25.87 78.566 0.336 7.88 0.4 6.03
6/28/2021 2:00:00 AM 25.86 78.548 0.336 7.88 0.39 6.01
6/28/2021 2:15:00 AM 25.84 78.512 0.336 7.87 0.39 5.97
6/28/2021 2:30:00 AM 25.82 78.476 0.336 7.87 0.36 5.93
6/28/2021 2:45:00 AM 25.8 78.44 0.336 7.86 0.39 5.87
6/28/2021 3:00:00 AM 25.81 78.458 0.337 7.85 0.36 5.86
6/28/2021 3:15:00 AM 25.8 78.44 0.337 7.85 0.36 5.82
6/28/2021 3:30:00 AM 25.73 78.314 0.336 7.85 0.39 5.79
6/28/2021 3:45:00 AM 25.76 78.368 0.337 7.84 0.35 5.99
6/28/2021 4:00:00 AM 25.73 78.314 0.337 7.83 0.44 8.53
6/28/2021 4:15:00 AM 25.72 78.296 0.336 7.88 0.37 8.55
6/28/2021 4:30:00 AM 25.7 78.26 0.336 7.94 0.35 8.55
6/28/2021 4:45:00 AM 25.67 78.206 0.293 8.17 100.67 8.56
6/28/2021 5:00:00 AM 25.65 78.17 0.265 8.17 108.64 8.57
6/28/2021 5:15:00 AM 25.64 78.152 0.319 8.19 101.86 8.57
6/28/2021 5:30:00 AM 25.6 78.08 0.22 8.12 135.53 8.57
6/28/2021 5:45:00 AM 24.98 76.964 0 7.72 0.73 8.74
6/28/2021 6:00:00 AM 24.23 75.614 0 7.64 0.74 8.87
6/28/2021 6:15:00 AM 23.85 74.93 0 7.72 0.81 8.95
6/28/2021 6:30:00 AM 23.63 74.534 0 7.67 0.82 8.99
6/28/2021 6:45:00 AM 23.49 74.282 0 7.71 0.81 9.01
6/28/2021 7:00:00 AM 23.55 74.39 0 7.74 0.81 9.01
6/28/2021 7:15:00 AM 23.58 74.444 0 7.74 0.86 9
6/28/2021 7:30:00 AM 23.54 74.372 0 7.7 0.84 9.01
6/28/2021 7:45:00 AM 23.49 74.282 0 7.76 0.83 9.03
6/28/2021 8:00:00 AM 23.46 74.228 0 7.8 0.85 9.03
6/28/2021 8:15:00 AM 23.43 74.174 0 7.74 0.82 9.04
6/28/2021 8:30:00 AM 23.41 74.138 0 7.73 0.79 9.04
6/28/2021 8:45:00 AM 23.4 74.12 0 7.75 0.85 9.04
6/28/2021 9:00:00 AM 23.39 74.102 0 7.76 0.84 9.04
6/28/2021 9:15:00 AM 23.38 74.084 0 7.76 0.85 9.04
6/28/2021 9:30:00 AM 23.39 74.102 0 7.76 0.87 9.04
6/28/2021 9:45:00 AM 23.4 74.12 0 7.83 0.82 9.04
6/28/2021 10:00:00 AM 23.41 74.138 0 7.79 0.85 9.04
6/28/2021 10:15:00 AM 23.42 74.156 0 7.86 0.79 9.04
6/28/2021 10:30:00 AM 23.43 74.174 0 7.84 0.81 9.04
6/28/2021 10:45:00 AM 23.46 74.228 0 7.78 0.81 9.03
6/28/2021 11:00:00 AM 23.48 74.264 0 7.83 0.83 9.03
6/28/2021 11:15:00 AM 23.5 74.3 0 7.82 0.86 9.02
6/28/2021 11:30:00 AM 23.52 74.336 0 7.82 0.83 9.02
6/28/2021 11:45:00 AM 23.55 74.39 0 7.82 0.84 9.01
6/28/2021 12:00:00 PM 23.58 74.444 0 7.79 0.87 9.01
6/28/2021 12:15:00 PM 23.73 74.714 0 7.83 0.79 8.98
6/28/2021 12:30:00 PM 23.78 74.804 0 7.83 0.82 8.98
6/28/2021 12:45:00 PM 23.79 74.82201 0 7.79 0.83 8.97
6/28/2021 1:00:00 PM 23.8 74.84 0 7.8 0.84 8.97
6/28/2021 1:15:00 PM 23.81 74.858 0 7.81 0.83 8.98
6/28/2021 1:30:00 PM 23.82 74.876 0 7.87 0.76 8.97
6/28/2021 1:45:00 PM 23.83 74.894 0 7.84 0.83 8.97
6/28/2021 2:00:00 PM 23.84 74.912 0 7.88 0.79 8.97
6/28/2021 2:15:00 PM 23.85 74.93 0 7.8 0.82 8.96
6/28/2021 2:30:00 PM 23.86 74.948 0 7.84 0.76 8.96
6/28/2021 2:45:00 PM 23.87 74.966 0 7.78 0.84 8.96
6/28/2021 3:00:00 PM 23.87 74.966 0 7.81 0.82 8.95
6/28/2021 3:15:00 PM 23.88 74.984 0 7.87 0.82 8.95
6/28/2021 3:30:00 PM 23.88 74.984 0 7.82 0.82 8.95
6/28/2021 3:45:00 PM 23.9 75.02 0 7.85 0.84 8.94
6/28/2021 4:00:00 PM 23.91 75.038 0 7.88 0.77 8.95
6/28/2021 4:15:00 PM 23.93 75.074 0 7.83 0.88 8.94
6/28/2021 4:30:00 PM 27.33 81.194 0.001 8.2 6.96 8.37
6/28/2021 4:45:00 PM 27.02 80.636 0 8.21 49.19 8.44
6/28/2021 5:00:00 PM 27.02 80.636 0 8.18 12.79 8.44
6/28/2021 5:15:00 PM 26.98 80.564 0 8.19 9.82 8.46
6/28/2021 5:30:00 PM 26.89 80.402 0 8.24 15.76 8.48
6/28/2021 5:45:00 PM 26.95 80.51 0 8.23 12.92 8.45
6/28/2021 6:00:00 PM 26.89 80.402 0 8.25 10.46 8.47
6/28/2021 6:15:00 PM 26.85 80.33 0 8.23 10.95 8.47
6/28/2021 6:30:00 PM 26.88 80.384 0 8.23 11.25 8.46
6/28/2021 6:45:00 PM 26.84 80.312 0 8.23 9.01 8.48
6/28/2021 7:00:00 PM 26.82 80.276 0 8.24 8.32 8.49
6/28/2021 7:15:00 PM 26.86 80.348 0 8.21 9.27 8.47
6/28/2021 7:30:00 PM 26.86 80.348 0 8.21 8.07 8.47
6/28/2021 7:45:00 PM 26.85 80.33 0 8.23 8.17 8.47
6/28/2021 8:00:00 PM 26.84 80.312 0 8.22 8.59 8.48
6/28/2021 8:15:00 PM 26.83 80.294 0 8.21 8.03 8.48
6/28/2021 8:30:00 PM 26.82 80.276 0 8.2 6.76 8.48
6/28/2021 8:45:00 PM 26.81 80.258 0 8.18 7.05 8.49
6/28/2021 9:00:00 PM 26.78 80.204 0 8.18 7.64 8.49
6/28/2021 9:15:00 PM 26.77 80.186 0 8.16 7.03 8.49
6/28/2021 9:30:00 PM 26.77 80.186 0 8.16 7.12 8.49
6/28/2021 9:45:00 PM 26.76 80.168 0 8.12 4.89 8.49
6/28/2021 10:00:00 PM 26.77 80.186 0 8.12 5.21 8.49
6/28/2021 10:15:00 PM 26.76 80.168 0 8.09 5.31 8.49
6/28/2021 10:30:00 PM 26.75 80.15 0 8.1 4.85 8.5
6/28/2021 10:45:00 PM 26.74 80.132 0 8.07 5.98 8.5
6/28/2021 11:00:00 PM 26.72 80.096 0 8.04 4.56 8.5
6/28/2021 11:15:00 PM 26.71 80.078 0 8.08 4.5 8.51
6/28/2021 11:30:00 PM 26.7 80.06 0 8.06 3.11 8.51
6/28/2021 11:45:00 PM 26.7 80.06 0 8.07 2.36 8.51
6/29/2021 12:00:00 AM 26.68 80.024 0 8.04 2.89 8.52
6/29/2021 12:15:00 AM 26.68 80.024 0 8.04 3.38 8.51
6/29/2021 12:30:00 AM 26.67 80.006 0 8.04 2.15 8.51
6/29/2021 12:45:00 AM 26.65 79.97 0 8.03 1.51 8.52
6/29/2021 1:00:00 AM 26.63 79.934 0 8.03 2.95 8.52
6/29/2021 1:15:00 AM 26.62 79.916 0.001 8 1.57 8.52
6/29/2021 1:30:00 AM 26.61 79.898 0 7.99 1.13 8.52
6/29/2021 1:45:00 AM 26.58 79.844 0 7.99 1.44 8.53
6/29/2021 2:00:00 AM 26.59 79.862 0.001 7.99 1.06 8.53
6/29/2021 2:15:00 AM 26.58 79.844 0 7.98 1.11 8.53
6/29/2021 2:30:00 AM 26.57 79.826 0.001 7.98 0.83 8.53
6/29/2021 2:45:00 AM 26.55 79.79 0.001 7.97 0.97 8.54
6/29/2021 3:00:00 AM 26.54 79.772 0.001 7.99 0.88 8.54
6/29/2021 3:15:00 AM 26.52 79.736 0.001 7.97 0.78 8.54
6/29/2021 3:30:00 AM 26.51 79.718 0.001 7.97 0.85 8.54
6/29/2021 3:45:00 AM 26.49 79.682 0.001 7.94 0.77 8.54
6/29/2021 4:00:00 AM 26.48 79.664 0.001 7.94 0.9 8.55
6/29/2021 4:15:00 AM 26.46 79.628 0.001 7.93 0.82 8.56
6/29/2021 4:30:00 AM 26.45 79.61 0.001 7.94 0.73 8.55
6/29/2021 4:45:00 AM 26.44 79.592 0.001 7.94 0.75 8.56
6/29/2021 5:00:00 AM 26.42 79.556 0.001 7.94 0.72 8.56
6/29/2021 5:15:00 AM 26.41 79.538 0.001 7.94 0.76 8.56
6/29/2021 5:30:00 AM 26.4 79.52 0.001 7.93 0.71 8.57
6/29/2021 5:45:00 AM 26.39 79.502 0.001 7.92 0.73 8.57
6/29/2021 6:00:00 AM 26.03 78.854 0.001 7.86 0.82 8.61
6/29/2021 6:15:00 AM 25.42 77.756 0.001 7.91 0.82 8.71
6/29/2021 6:30:00 AM 25.07 77.126 0.001 7.92 0.8 8.77
6/29/2021 6:45:00 AM 24.85 76.73 0.001 7.94 0.81 8.8
6/29/2021 7:00:00 AM 24.71 76.478 0.001 7.94 0.84 8.83
6/29/2021 7:15:00 AM 24.61 76.298 0.001 7.93 0.82 8.85
6/29/2021 7:30:00 AM 24.53 76.154 0.001 7.92 0.89 8.86
6/29/2021 7:45:00 AM 24.48 76.064 0.001 7.93 0.77 8.88
6/29/2021 8:00:00 AM 24.44 75.992 0.001 7.92 0.89 8.89
6/29/2021 8:15:00 AM 24.42 75.956 0.001 7.92 0.84 8.89
6/29/2021 8:30:00 AM 24.4 75.92 0.001 7.93 0.87 8.89
6/29/2021 8:45:00 AM 24.39 75.902 0.001 7.92 0.83 8.89
6/29/2021 9:00:00 AM 24.39 75.902 0.001 7.92 0.82 8.89
6/29/2021 9:15:00 AM 24.39 75.902 0.001 7.92 0.86 8.88
6/29/2021 9:30:00 AM 24.39 75.902 0.001 7.92 0.87 8.89
6/29/2021 9:45:00 AM 24.4 75.92 0.001 7.93 0.9 8.88
6/29/2021 10:00:00 AM 24.41 75.938 0.001 7.92 0.82 8.89
6/29/2021 10:15:00 AM 24.43 75.974 0.001 7.92 0.85 8.88
6/29/2021 10:30:00 AM 24.75 76.55 0.001 7.9 0.83 8.83
6/29/2021 10:45:00 AM 24.8 76.64 0.001 7.9 0.79 8.81
6/29/2021 11:00:00 AM 24.79 76.622 0.001 7.89 0.83 8.8
6/29/2021 11:15:00 AM 24.78 76.604 0.001 7.9 0.81 8.82
6/29/2021 11:30:00 AM 24.77 76.586 0.001 7.88 0.82 8.81
6/29/2021 11:45:00 AM 24.77 76.586 0.001 7.9 0.84 8.82
6/29/2021 12:00:00 PM 24.77 76.586 0.001 7.89 0.78 8.81
6/29/2021 12:15:00 PM 24.78 76.604 0.001 7.88 0.81 8.81
6/29/2021 12:30:00 PM 24.79 76.622 0.001 7.88 0.82 8.81
6/29/2021 12:45:00 PM 24.79 76.622 0.001 7.88 0.82 8.8
6/29/2021 1:00:00 PM 24.81 76.658 0.001 7.86 0.81 8.8
6/29/2021 1:15:00 PM 24.82 76.676 0.001 7.87 0.86 8.79
6/29/2021 1:30:00 PM 24.84 76.712 0.001 7.86 0.78 8.79
6/29/2021 1:45:00 PM 24.86 76.748 0.001 7.86 0.79 8.78
6/29/2021 2:00:00 PM 24.88 76.784 0.001 7.86 0.84 8.78
6/29/2021 2:15:00 PM 24.9 76.82 0.001 7.85 0.8 8.77
6/29/2021 2:30:00 PM 26.57 79.826 0.001 7.88 0.7 8.58
6/29/2021 2:45:00 PM 27.21 80.978 0.001 7.9 0.71 8.46
6/29/2021 3:00:00 PM 27.57 81.626 0.001 7.93 0.7 8.39
6/29/2021 3:15:00 PM 27.7 81.86 0.001 7.93 0.68 8.36
6/29/2021 3:30:00 PM 27.76 81.968 0.001 7.93 0.76 8.34
6/29/2021 3:45:00 PM 27.77 81.986 0.001 7.93 0.78 8.34
6/29/2021 4:00:00 PM 27.77 81.986 0.001 7.92 0.78 8.35
6/29/2021 4:15:00 PM 27.76 81.968 0.001 7.91 0.77 8.35
6/29/2021 4:30:00 PM 27.74 81.932 0.001 7.91 0.84 8.34
6/29/2021 4:45:00 PM 27.71 81.878 0.001 7.91 0.86 8.35
6/29/2021 5:00:00 PM 27.69 81.842 0.001 7.91 0.92 8.35
6/29/2021 5:15:00 PM 27.68 81.824 0.001 7.9 0.95 8.36
6/29/2021 5:30:00 PM 27.65 81.77 0.001 7.89 0.89 8.36
6/29/2021 5:45:00 PM 27.63 81.734 0.001 7.89 0.92 8.36
6/29/2021 6:00:00 PM 27.6 81.68 0.001 7.89 0.97 8.37
6/29/2021 6:15:00 PM 27.59 81.662 0.001 7.88 1.05 8.37
6/29/2021 6:30:00 PM 27.56 81.608 0.001 7.87 0.97 8.37
6/29/2021 6:45:00 PM 27.54 81.57201 0.001 7.86 1.05 8.38
6/29/2021 7:00:00 PM 27.53 81.554 0.001 7.85 1.03 8.38
6/29/2021 7:15:00 PM 27.51 81.518 0.001 7.84 1.07 8.38
6/29/2021 7:30:00 PM 27.49 81.482 0.001 7.83 1 8.38
6/29/2021 7:45:00 PM 27.48 81.464 0.001 7.82 1.07 8.38
6/29/2021 8:00:00 PM 27.46 81.42799 0.001 7.81 1 8.39
6/29/2021 8:15:00 PM 27.46 81.42799 0.001 7.79 1.05 8.39
6/29/2021 8:30:00 PM 27.45 81.41 0.001 7.79 1.02 8.39
6/29/2021 8:45:00 PM 27.43 81.374 0.001 7.77 1.03 8.4
6/29/2021 9:00:00 PM 27.42 81.356 0.001 7.75 1.04 8.39
6/29/2021 9:15:00 PM 27.4 81.32 0.001 7.75 1.07 8.39
6/29/2021 9:30:00 PM 27.39 81.302 0.001 7.73 1.09 8.4
6/29/2021 9:45:00 PM 27.38 81.284 0.001 7.73 1.02 8.4
6/29/2021 10:00:00 PM 27.36 81.248 0.001 7.73 1.11 8.41
6/29/2021 10:15:00 PM 27.35 81.23 0.001 7.72 1.1 8.4
6/29/2021 10:30:00 PM 27.33 81.194 0.001 7.71 1.14 8.42
6/29/2021 10:45:00 PM 27.31 81.158 0.001 7.72 1.11 8.41
6/29/2021 11:00:00 PM 27.3 81.14 0.001 7.71 1.17 8.42
6/29/2021 11:15:00 PM 27.29 81.122 0.001 7.7 1.2 8.42
6/29/2021 11:30:00 PM 27.27 81.086 0.001 7.7 1.09 8.42
6/29/2021 11:45:00 PM 27.26 81.068 0.001 7.69 1.13 8.42
6/30/2021 12:00:00 AM 27.25 81.05 0.001 7.69 1.13 8.42
6/30/2021 12:15:00 AM 27.24 81.032 0.001 7.69 1.12 8.42
6/30/2021 12:30:00 AM 27.22 80.996 0.001 7.69 1.13 8.44
6/30/2021 12:45:00 AM 27.2 80.96 0.001 7.68 1.15 8.43
6/30/2021 1:00:00 AM 27.19 80.942 0.001 7.67 1.13 8.43
6/30/2021 1:15:00 AM 27.17 80.906 0.001 7.66 1.18 8.43
6/30/2021 1:30:00 AM 27.14 80.852 0.001 7.66 1.14 8.43
6/30/2021 1:45:00 AM 27.14 80.852 0.001 7.67 1.18 8.43
6/30/2021 2:00:00 AM 27.11 80.798 0.001 7.67 1.18 8.44
6/30/2021 2:15:00 AM 27.1 80.78 0.001 7.67 1.13 8.43
6/30/2021 2:30:00 AM 27.08 80.744 0.001 7.66 1.21 8.44
6/30/2021 2:45:00 AM 27.07 80.726 0.001 7.67 1.16 8.43
6/30/2021 3:00:00 AM 27.05 80.69 0.001 7.66 1.17 8.44
6/30/2021 3:15:00 AM 27.03 80.654 0.001 7.66 1.17 8.44
6/30/2021 3:30:00 AM 27.01 80.618 0.001 7.67 1.17 8.45
6/30/2021 3:45:00 AM 26.99 80.582 0.001 7.66 1.22 8.45
6/30/2021 4:00:00 AM 26.97 80.546 0.001 7.66 1.15 8.45
6/30/2021 4:15:00 AM 26.95 80.51 0.001 7.66 1.22 8.45
6/30/2021 4:30:00 AM 26.94 80.492 0.001 7.65 1.25 8.46
6/30/2021 4:45:00 AM 26.92 80.456 0.001 7.65 1.21 8.45
6/30/2021 5:00:00 AM 26.9 80.42 0.001 7.64 1.22 8.46
6/30/2021 5:15:00 AM 26.88 80.384 0.001 7.64 1.22 8.47
6/30/2021 5:30:00 AM 26.87 80.366 0.001 7.64 1.29 8.47
6/30/2021 5:45:00 AM 26.87 80.366 0.001 7.64 1.3 8.46
6/30/2021 6:00:00 AM 26.54 79.772 0.001 7.61 1.27 8.48
6/30/2021 6:15:00 AM 26.05 78.89 0.001 7.62 1.41 8.57
6/30/2021 6:30:00 AM 25.77 78.386 0.001 7.63 1.49 8.62
6/30/2021 6:45:00 AM 25.58 78.044 0.001 7.64 1.64 8.65
6/30/2021 7:00:00 AM 25.59 78.062 0.001 7.67 1.71 8.65
6/30/2021 7:15:00 AM 25.58 78.044 0.001 7.65 1.76 8.65
6/30/2021 7:30:00 AM 25.5 77.9 0.001 7.65 1.81 8.67
6/30/2021 7:45:00 AM 25.45 77.81 0.001 7.65 1.83 8.67
6/30/2021 8:00:00 AM 25.42 77.756 0.001 7.65 1.79 8.67
6/30/2021 8:15:00 AM 25.4 77.72 0.001 7.65 1.79 8.68
6/30/2021 8:30:00 AM 25.38 77.684 0.001 7.65 1.73 8.68
6/30/2021 8:45:00 AM 25.36 77.648 0.001 7.64 1.88 8.68
6/30/2021 9:00:00 AM 25.35 77.63 0.001 7.64 1.88 8.69
6/30/2021 9:15:00 AM 25.34 77.612 0.001 7.64 1.85 8.68
6/30/2021 9:30:00 AM 25.33 77.594 0.001 7.64 1.83 8.68
6/30/2021 9:45:00 AM 25.33 77.594 0.001 7.63 1.87 8.69
6/30/2021 10:00:00 AM 25.33 77.594 0.001 7.62 1.87 8.68
6/30/2021 10:15:00 AM 25.34 77.612 0.001 7.62 1.89 8.68
6/30/2021 10:30:00 AM 25.35 77.63 0.001 7.62 1.92 8.67
6/30/2021 10:45:00 AM 25.36 77.648 0.001 7.61 1.9 8.67
6/30/2021 11:00:00 AM 25.38 77.684 0.001 7.62 1.97 8.67
6/30/2021 11:15:00 AM 25.4 77.72 0.001 7.61 2.05 8.67
6/30/2021 11:30:00 AM 25.41 77.738 0.001 7.61 1.96 8.66
6/30/2021 11:45:00 AM 25.42 77.756 0.001 7.61 2.03 8.65
6/30/2021 12:00:00 PM 25.43 77.774 0.001 7.61 2.15 8.66
6/30/2021 12:15:00 PM 25.44 77.792 0.001 7.6 2.06 8.65
6/30/2021 12:30:00 PM 25.44 77.792 0.001 7.6 2.07 8.65
6/30/2021 12:45:00 PM 25.45 77.81 0.001 7.6 2.09 8.64
6/30/2021 1:00:00 PM 25.46 77.828 0.001 7.6 2.12 8.64
6/30/2021 1:15:00 PM 25.47 77.846 0.001 7.6 2.12 8.63
6/30/2021 1:30:00 PM 25.48 77.864 0.001 7.59 2.13 8.63
6/30/2021 1:45:00 PM 25.49 77.882 0.001 7.58 2.17 8.62
6/30/2021 2:00:00 PM 25.51 77.918 0.001 7.58 2.17 8.62
6/30/2021 2:15:00 PM 25.53 77.954 0.001 7.58 2.15 8.61
6/30/2021 2:30:00 PM 26.13 79.034 0.001 7.57 5 8.58
6/30/2021 2:45:00 PM 26.66 79.988 0.001 7.55 2.5 8.46
6/30/2021 3:00:00 PM 26.56 79.808 0.001 7.53 2.17 8.46
6/30/2021 3:15:00 PM 26.47 79.646 0.001 7.53 2.14 8.48
6/30/2021 3:30:00 PM 26.43 79.574 0.001 7.54 2.14 8.49
6/30/2021 3:45:00 PM 26.41 79.538 0.001 7.55 2.23 8.51
6/30/2021 4:00:00 PM 26.4 79.52 0.001 7.54 2.46 8.51
6/30/2021 4:15:00 PM 26.39 79.502 0.001 7.55 2.16 8.5
6/30/2021 4:30:00 PM 26.38 79.484 0.001 7.55 2.14 8.5
6/30/2021 4:45:00 PM 26.38 79.484 0.001 7.55 2.17 8.5
6/30/2021 5:00:00 PM 26.38 79.484 0.001 7.56 2.23 8.5
6/30/2021 5:15:00 PM 26.38 79.484 0.001 7.55 2.18 8.5
6/30/2021 5:30:00 PM 26.39 79.502 0.001 7.56 2.17 8.51
6/30/2021 5:45:00 PM 26.39 79.502 0.001 7.55 2.16 8.51
6/30/2021 6:00:00 PM 26.38 79.484 0.001 7.56 2.16 8.52
6/30/2021 6:15:00 PM 26.37 79.466 0.001 7.55 2.19 8.51
6/30/2021 6:30:00 PM 26.37 79.466 0.001 7.55 2.11 8.51
6/30/2021 6:45:00 PM 26.36 79.448 0.001 7.54 2.12 8.51
6/30/2021 7:00:00 PM 26.35 79.43 0.001 7.55 2.09 8.52
6/30/2021 7:15:00 PM 26.36 79.448 0.001 7.55 2.16 8.51
6/30/2021 7:30:00 PM 26.34 79.412 0.001 7.55 2.21 8.52
6/30/2021 7:45:00 PM 26.35 79.43 0.001 7.54 2.12 8.52
6/30/2021 8:00:00 PM 26.35 79.43 0.001 7.53 2.07 8.52
6/30/2021 8:15:00 PM 26.35 79.43 0.001 7.54 2.15 8.51
6/30/2021 8:30:00 PM 26.34 79.412 0.001 7.54 2.19 8.51
6/30/2021 8:45:00 PM 26.34 79.412 0.001 7.53 2.12 8.51
6/30/2021 9:00:00 PM 26.34 79.412 0.001 7.53 2.18 8.51
6/30/2021 9:15:00 PM 26.33 79.394 0.001 7.52 2.17 8.51
6/30/2021 9:30:00 PM 26.32 79.376 0.001 7.53 2.15 8.52
6/30/2021 9:45:00 PM 26.31 79.358 0.001 7.53 2.13 8.52
6/30/2021 10:00:00 PM 26.31 79.358 0.001 7.53 2.11 8.51
6/30/2021 10:15:00 PM 26.31 79.358 0.001 7.53 2.15 8.52
6/30/2021 10:30:00 PM 26.3 79.34 0.001 7.53 2.06 8.52
6/30/2021 10:45:00 PM 26.28 79.304 0.001 7.53 2.09 8.52
6/30/2021 11:00:00 PM 26.28 79.304 0.001 7.53 2.19 8.52
6/30/2021 11:15:00 PM 26.27 79.286 0.001 7.53 2.13 8.52
6/30/2021 11:30:00 PM 26.26 79.268 0.001 7.53 2.05 8.52
6/30/2021 11:45:00 PM 26.24 79.232 0.001 7.53 2.16 8.52
7/1/2021 12:00:00 AM 26.24 79.232 0.001 7.53 2.11 8.52
7/1/2021 12:15:00 AM 26.22 79.196 0.001 7.53 2.1 8.52
7/1/2021 12:30:00 AM 26.19 79.142 0.001 7.52 2.07 8.53
7/1/2021 12:45:00 AM 26.16 79.088 0.001 7.52 2.1 8.53
7/1/2021 1:00:00 AM 26.19 79.142 0.001 7.54 2.11 8.52
7/1/2021 1:15:00 AM 26.18 79.124 0.001 7.53 2.12 8.52
7/1/2021 1:30:00 AM 26.17 79.106 0.001 7.51 2.12 8.53
7/1/2021 1:45:00 AM 26.15 79.07 0.001 7.53 2.09 8.53
7/1/2021 2:00:00 AM 26.14 79.052 0.001 7.51 2.16 8.53
7/1/2021 2:15:00 AM 26.12 79.016 0.001 7.51 2.1 8.53
7/1/2021 2:30:00 AM 26.13 79.034 0.001 7.51 2.11 8.53
7/1/2021 2:45:00 AM 26.15 79.07 0.001 7.51 2.12 8.53
7/1/2021 3:00:00 AM 26.16 79.088 0.001 7.5 2.15 8.53
7/1/2021 3:15:00 AM 26.18 79.124 0.001 7.5 2.19 8.52
7/1/2021 3:30:00 AM 26.55 79.79 0.001 7.51 2.73 8.5
7/1/2021 3:45:00 AM 26.95 80.51 0.001 7.5 2.3 8.43
7/1/2021 4:00:00 AM 27.11 80.798 0.001 7.49 2.29 8.39
7/1/2021 4:15:00 AM 27.16 80.888 0.001 7.46 2.24 8.38
7/1/2021 4:30:00 AM 27.24 81.032 0.001 7.45 2.27 8.35
7/1/2021 4:45:00 AM 26.53 79.754 0.001 7.4 2.26 8.43
7/1/2021 5:00:00 AM 26.16 79.088 0.001 7.42 2.24 8.5
7/1/2021 5:15:00 AM 25.95 78.71 0.001 7.45 2.25 8.53
7/1/2021 5:30:00 AM 25.82 78.476 0.001 7.47 2.24 8.56
7/1/2021 5:45:00 AM 25.72 78.296 0.001 7.47 2.26 8.58
7/1/2021 6:00:00 AM 25.63 78.134 0.001 7.48 2.22 8.6
7/1/2021 6:15:00 AM 25.56 78.008 0.001 7.48 2.2 8.61
7/1/2021 6:30:00 AM 25.5 77.9 0.001 7.48 2.15 8.62
7/1/2021 6:45:00 AM 25.45 77.81 0.001 7.48 2.21 8.62
7/1/2021 7:00:00 AM 25.4 77.72 0.001 7.48 2.18 8.63
7/1/2021 7:15:00 AM 25.53 77.954 0.001 7.49 2.14 8.61
7/1/2021 7:30:00 AM 25.48 77.864 0.001 7.48 2.13 8.62
7/1/2021 7:45:00 AM 25.47 77.846 0.001 7.48 2.13 8.62
7/1/2021 8:00:00 AM 25.48 77.864 0.001 7.48 2.12 8.62
7/1/2021 8:15:00 AM 25.48 77.864 0.001 7.48 2.13 8.62
7/1/2021 8:30:00 AM 25.47 77.846 0.001 7.48 2.08 8.62
7/1/2021 8:45:00 AM 25.45 77.81 0.001 7.47 2.13 8.62
7/1/2021 9:00:00 AM 25.43 77.774 0.001 7.47 2.11 8.63
7/1/2021 9:15:00 AM 25.4 77.72 0.001 7.46 2.11 8.63
7/1/2021 9:30:00 AM 25.36 77.648 0.001 7.47 2.12 8.64
7/1/2021 9:45:00 AM 25.33 77.594 0.001 7.47 2.12 8.64
7/1/2021 10:00:00 AM 25.3 77.54 0.001 7.47 2.11 8.64
7/1/2021 10:15:00 AM 25.27 77.486 0.001 7.47 2.11 8.65
7/1/2021 10:30:00 AM 25.25 77.45 0.001 7.47 2.09 8.65
7/1/2021 10:45:00 AM 25.23 77.414 0.001 7.47 2.1 8.65
7/1/2021 11:00:00 AM 25.21 77.378 0.001 7.46 2.12 8.66
7/1/2021 11:15:00 AM 25.19 77.342 0.001 7.46 2.09 8.66
7/1/2021 11:30:00 AM 25.17 77.306 0.001 7.46 2.06 8.66
7/1/2021 11:45:00 AM 25.16 77.288 0.001 7.46 2.07 8.67
7/1/2021 12:00:00 PM 25.14 77.252 0.001 7.46 2.08 8.67
7/1/2021 12:15:00 PM 25.12 77.216 0.001 7.46 2.08 8.67
7/1/2021 12:30:00 PM 25.11 77.198 0.001 7.46 2.06 8.67
7/1/2021 12:45:00 PM 25.09 77.162 0.001 7.46 2.08 8.67
7/1/2021 1:00:00 PM 25.08 77.144 0.001 7.45 2.1 8.67
7/1/2021 1:15:00 PM 25.07 77.126 0.001 7.45 2.06 8.67
7/1/2021 1:30:00 PM 25.08 77.144 0.001 7.44 2.08 8.67
7/1/2021 1:45:00 PM 25.13 77.234 0.001 7.45 2.08 8.66
7/1/2021 2:00:00 PM 25.2 77.36 0.001 7.45 2.08 8.66
7/1/2021 2:15:00 PM 25.35 77.63 0.001 7.45 1.99 8.62
7/1/2021 2:30:00 PM 27.11 80.798 0.38 8.28 0.47 7.24
7/1/2021 2:45:00 PM 26.6 79.88 0 8.2 5.98 8.41
7/1/2021 3:00:00 PM 26.56 79.808 0 8.21 5.55 8.43
7/1/2021 3:15:00 PM 26.57 79.826 0 8.2 16.69 8.43
7/1/2021 3:30:00 PM 26.61 79.898 0 8.2 8.55 8.42
7/1/2021 3:45:00 PM 26.62 79.916 0 8.21 9.15 8.42
7/1/2021 4:00:00 PM 26.63 79.934 0 8.19 10 8.41
7/1/2021 4:15:00 PM 26.62 79.916 0 8.19 8.03 8.42
7/1/2021 4:30:00 PM 26.61 79.898 0 8.18 8.32 8.42
7/1/2021 4:45:00 PM 26.6 79.88 0 8.18 7.55 8.42
7/1/2021 5:00:00 PM 26.6 79.88 0.001 8.17 8.88 8.41
7/1/2021 5:15:00 PM 26.59 79.862 0 8.16 7.51 8.42
7/1/2021 5:30:00 PM 26.58 79.844 0 8.16 7.97 8.42
7/1/2021 5:45:00 PM 26.58 79.844 0 8.15 7.5 8.42
7/1/2021 6:00:00 PM 26.57 79.826 0 8.14 6.72 8.42
7/1/2021 6:15:00 PM 26.59 79.862 0.001 8.14 7.49 8.42
7/1/2021 6:30:00 PM 26.59 79.862 0.001 8.13 7.79 8.42
7/1/2021 6:45:00 PM 26.54 79.772 0 8.12 7.5 8.43
7/1/2021 7:00:00 PM 26.53 79.754 0.001 8.12 6.81 8.43
7/1/2021 7:15:00 PM 26.52 79.736 0.001 8.11 7.43 8.43
7/1/2021 7:30:00 PM 26.52 79.736 0.001 8.11 7.02 8.43
7/1/2021 7:45:00 PM 26.52 79.736 0.001 8.1 8.65 8.43
7/1/2021 8:00:00 PM 26.51 79.718 0.001 8.09 7.82 8.43
7/1/2021 8:15:00 PM 26.51 79.718 0.001 8.08 8.3 8.43
7/1/2021 8:30:00 PM 26.48 79.664 0.001 8.07 8.46 8.43
7/1/2021 8:45:00 PM 26.48 79.664 0.001 8.06 8.4 8.44
7/1/2021 9:00:00 PM 26.45 79.61 0.001 8.05 9.19 8.44
7/1/2021 9:15:00 PM 26.45 79.61 0.001 8.04 9.45 8.44
7/1/2021 9:30:00 PM 26.44 79.592 0.001 8.02 10.52 8.44
7/1/2021 9:45:00 PM 26.44 79.592 0.001 8.01 10.09 8.44
7/1/2021 10:00:00 PM 26.4 79.52 0.001 8.01 10.45 8.45
7/1/2021 10:15:00 PM 26.41 79.538 0.001 8.01 9.73 8.44
7/1/2021 10:30:00 PM 26.36 79.448 0.001 8 9.48 8.45
7/1/2021 10:45:00 PM 26.37 79.466 0.001 7.99 11.39 8.45
7/1/2021 11:00:00 PM 26.35 79.43 0.001 7.97 9.6 8.46
7/1/2021 11:15:00 PM 26.35 79.43 0.001 7.98 11.87 8.45
7/1/2021 11:30:00 PM 26.33 79.394 0.001 7.96 10.63 8.46
7/1/2021 11:45:00 PM 26.3 79.34 0.001 7.96 10.36 8.46
7/2/2021 12:00:00 AM 26.26 79.268 0.001 7.95 11.48 8.47
7/2/2021 12:15:00 AM 26.24 79.232 0.001 7.94 10.23 8.47
7/2/2021 12:30:00 AM 26.23 79.214 0.001 7.94 10.98 8.47
7/2/2021 12:45:00 AM 26.21 79.17799 0.001 7.93 13.09 8.47
7/2/2021 1:00:00 AM 26.25 79.25 0.001 7.92 11.66 8.46
7/2/2021 1:15:00 AM 26.23 79.214 0.001 7.9 11.57 8.46
7/2/2021 1:30:00 AM 26.19 79.142 0.001 7.9 13.21 8.47
7/2/2021 1:45:00 AM 26.15 79.07 0.001 7.9 12.57 8.47
7/2/2021 2:00:00 AM 26.13 79.034 0.001 7.9 14.17 8.47
7/2/2021 2:15:00 AM 26.1 78.98 0.001 7.89 13.38 8.48
7/2/2021 2:30:00 AM 26.09 78.962 0.001 7.89 13.73 8.48
7/2/2021 2:45:00 AM 26.07 78.926 0.001 7.88 14.11 8.48
7/2/2021 3:00:00 AM 26.07 78.926 0.001 7.87 13.83 8.49
7/2/2021 3:15:00 AM 26.03 78.854 0.001 7.86 14.48 8.49
7/2/2021 3:30:00 AM 26.02 78.836 0.001 7.85 15.32 8.49
7/2/2021 3:45:00 AM 26.08 78.944 0.001 7.85 15.16 8.48
7/2/2021 4:00:00 AM 25.97 78.746 0.001 7.83 15.04 8.5
7/2/2021 4:15:00 AM 25.96 78.728 0.001 7.83 15.37 8.5
7/2/2021 4:30:00 AM 25.92 78.656 0.001 7.82 14.81 8.51
7/2/2021 4:45:00 AM 25.89 78.602 0.001 7.81 15.4 8.51
7/2/2021 5:00:00 AM 25.86 78.548 0.001 7.78 15.32 8.52
7/2/2021 5:15:00 AM 25.85 78.53 0.001 7.79 15.65 8.52
7/2/2021 5:30:00 AM 25.85 78.53 0 7.8 16.12 8.52
7/2/2021 5:45:00 AM 25.83 78.494 0 7.79 17.87 8.53
7/2/2021 6:00:00 AM 25.53 77.954 0.001 7.64 1.85 8.55
7/2/2021 6:15:00 AM 24.9 76.82 0.001 7.66 1.87 8.65
7/2/2021 6:30:00 AM 24.56 76.208 0.001 7.71 1.89 8.73
7/2/2021 6:45:00 AM 24.37 75.866 0.001 7.73 1.91 8.76
7/2/2021 7:00:00 AM 24.28 75.704 0.001 7.73 1.92 8.77
7/2/2021 7:15:00 AM 24.17 75.506 0.001 7.71 1.94 8.79
7/2/2021 7:30:00 AM 24.1 75.38 0.001 7.72 1.93 8.8
7/2/2021 7:45:00 AM 24.11 75.398 0.001 7.73 1.89 8.8
7/2/2021 8:00:00 AM 24.16 75.488 0.001 7.73 1.89 8.79
7/2/2021 8:15:00 AM 24.21 75.578 0.001 7.69 1.96 8.78
7/2/2021 8:30:00 AM 24.26 75.668 0.001 7.7 1.89 8.77
7/2/2021 8:45:00 AM 24.28 75.704 0.001 7.69 1.91 8.77
7/2/2021 9:00:00 AM 24.25 75.65 0.001 7.67 1.95 8.77
7/2/2021 9:15:00 AM 24.2 75.56 0.001 7.66 1.94 8.78
7/2/2021 9:30:00 AM 24.14 75.452 0.001 7.66 1.91 8.8
7/2/2021 9:45:00 AM 24.08 75.344 0.001 7.65 1.95 8.81
7/2/2021 10:00:00 AM 24.03 75.254 0.001 7.64 1.94 8.81
7/2/2021 10:15:00 AM 23.98 75.164 0.001 7.64 1.95 8.82
7/2/2021 10:30:00 AM 23.96 75.128 0.001 7.65 1.94 8.83
7/2/2021 10:45:00 AM 23.93 75.074 0.001 7.64 1.94 8.84
7/2/2021 11:00:00 AM 23.92 75.056 0.001 7.64 1.96 8.84
7/2/2021 11:15:00 AM 23.91 75.038 0.001 7.64 1.93 8.84
7/2/2021 11:30:00 AM 23.91 75.038 0.001 7.63 1.95 8.84
7/2/2021 11:45:00 AM 23.9 75.02 0.001 7.63 1.94 8.84
7/2/2021 12:00:00 PM 23.89 75.002 0.001 7.62 1.94 8.84
7/2/2021 12:15:00 PM 23.89 75.002 0.001 7.62 1.97 8.84
7/2/2021 12:30:00 PM 23.89 75.002 0.001 7.61 1.93 8.84
7/2/2021 12:45:00 PM 23.89 75.002 0.001 7.61 1.96 8.84
7/2/2021 1:00:00 PM 23.88 74.984 0.001 7.61 1.96 8.84
7/2/2021 1:15:00 PM 23.88 74.984 0.001 7.61 1.96 8.84
7/2/2021 1:30:00 PM 23.87 74.966 0.001 7.61 1.95 8.84
7/2/2021 1:45:00 PM 23.86 74.948 0.001 7.6 1.95 8.84
7/2/2021 2:00:00 PM 23.85 74.93 0.001 7.6 1.93 8.84
7/2/2021 2:15:00 PM 23.85 74.93 0.001 7.6 1.95 8.84
7/2/2021 2:30:00 PM 26.8 80.24 0.378 8.4 0.57 8.38
7/2/2021 2:45:00 PM 26.85 80.33 0.376 8.39 0.58 8.39
7/2/2021 3:00:00 PM 26.63 79.934 0.004 8.33 230.9 8.32
7/2/2021 3:15:00 PM 26.87 80.366 0.161 8.39 183.73 8.27
7/2/2021 3:30:00 PM 26.92 80.456 0.374 8.4 0.44 8.28
7/2/2021 3:45:00 PM 26.93 80.474 0.375 8.34 0.46 8.29
7/2/2021 4:00:00 PM 26.93 80.474 0.375 8.32 0.42 8.17
7/2/2021 4:15:00 PM 26.91 80.438 0.375 8.31 0.42 8.08
7/2/2021 4:30:00 PM 26.93 80.474 0.375 8.3 0.4 8.03
7/2/2021 4:45:00 PM 26.94 80.492 0.375 8.3 0.35 7.97
7/2/2021 5:00:00 PM 26.91 80.438 0.375 8.3 0.36 7.92
7/2/2021 5:15:00 PM 26.93 80.474 0.375 8.3 0.38 7.89
7/2/2021 5:30:00 PM 26.93 80.474 0.375 8.29 0.37 7.83
7/2/2021 5:45:00 PM 26.92 80.456 0.375 8.29 0.35 7.78
7/2/2021 6:00:00 PM 26.91 80.438 0.375 8.28 0.29 7.73
7/2/2021 6:15:00 PM 26.92 80.456 0.375 8.27 0.32 7.68
7/2/2021 6:30:00 PM 26.9 80.42 0.375 8.26 0.29 7.63
7/2/2021 6:45:00 PM 26.9 80.42 0.376 8.26 0.28 7.57
7/2/2021 7:00:00 PM 26.88 80.384 0.376 8.25 0.3 7.53
7/2/2021 7:15:00 PM 26.88 80.384 0.376 8.24 0.28 7.47
7/2/2021 7:30:00 PM 26.86 80.348 0.376 8.24 0.33 7.43
7/2/2021 7:45:00 PM 26.88 80.384 0.376 8.23 0.27 7.38
7/2/2021 8:00:00 PM 26.86 80.348 0.376 8.22 0.28 7.34
7/2/2021 8:15:00 PM 26.85 80.33 0.376 8.21 0.28 7.3
7/2/2021 8:30:00 PM 26.84 80.312 0.376 8.2 0.26 7.26
7/2/2021 8:45:00 PM 26.83 80.294 0.376 8.2 0.24 7.21
7/2/2021 9:00:00 PM 26.82 80.276 0.376 8.19 0.27 7.18
7/2/2021 9:15:00 PM 26.81 80.258 0.376 8.17 0.23 7.11
7/2/2021 9:30:00 PM 26.8 80.24 0.376 8.18 0.28 7.08
7/2/2021 9:45:00 PM 26.8 80.24 0.376 8.17 0.29 7.04
7/2/2021 10:00:00 PM 26.78 80.204 0.376 8.16 0.25 7.01
7/2/2021 10:15:00 PM 26.79 80.222 0.376 8.15 0.25 6.93
7/2/2021 10:30:00 PM 26.77 80.186 0.376 8.14 0.24 6.9
7/2/2021 10:45:00 PM 26.74 80.132 0.376 8.13 0.23 6.87
7/2/2021 11:00:00 PM 26.73 80.114 0.376 8.14 0.22 6.83
7/2/2021 11:15:00 PM 26.73 80.114 0.376 8.12 0.25 6.78
7/2/2021 11:30:00 PM 26.71 80.078 0.376 8.11 0.23 6.74
7/2/2021 11:45:00 PM 26.7 80.06 0.376 8.11 0.23 6.68
7/3/2021 12:00:00 AM 26.7 80.06 0.376 8.1 0.27 6.64
7/3/2021 12:15:00 AM 26.68 80.024 0.376 8.1 0.23 6.62
7/3/2021 12:30:00 AM 26.67 80.006 0.377 8.09 0.27 6.56
7/3/2021 12:45:00 AM 26.67 80.006 0.377 8.08 0.27 6.51
7/3/2021 1:00:00 AM 26.66 79.988 0.376 8.08 0.27 6.47
7/3/2021 1:15:00 AM 26.65 79.97 0.377 8.06 0.23 6.42
7/3/2021 1:30:00 AM 26.62 79.916 0.377 8.07 0.24 6.4
7/3/2021 1:45:00 AM 26.62 79.916 0.377 8.06 0.23 6.33
7/3/2021 2:00:00 AM 26.61 79.898 0.377 8.05 0.23 6.3
7/3/2021 2:15:00 AM 26.6 79.88 0.377 8.04 0.25 6.24
7/3/2021 2:30:00 AM 26.59 79.862 0.377 8.04 0.27 6.21
7/3/2021 2:45:00 AM 26.58 79.844 0.377 8.04 0.26 6.17
7/3/2021 3:00:00 AM 26.57 79.826 0.377 8.03 0.25 6.11
7/3/2021 3:15:00 AM 26.56 79.808 0.377 8.02 0.26 6.06
7/3/2021 3:30:00 AM 26.54 79.772 0.377 8.02 0.25 6.02
7/3/2021 3:45:00 AM 26.53 79.754 0.377 8.01 0.26 5.98
7/3/2021 4:00:00 AM 26.52 79.736 0.377 8 0.26 5.94
7/3/2021 4:15:00 AM 26.51 79.718 0.377 8 0.25 5.89
7/3/2021 4:30:00 AM 26.5 79.7 0.377 8 0.26 5.86
7/3/2021 4:45:00 AM 26.49 79.682 0.377 7.99 0.27 5.81
7/3/2021 5:00:00 AM 26.49 79.682 0.377 7.98 0.28 5.78
7/3/2021 5:15:00 AM 26.47 79.646 0.377 7.98 0.21 5.73
7/3/2021 5:30:00 AM 26.46 79.628 0.377 7.98 0.26 5.71
7/3/2021 5:45:00 AM 25.34 77.612 0 7.76 14.66 8.55
7/3/2021 6:00:00 AM 24.75 76.55 0 7.73 0.84 8.65
7/3/2021 6:15:00 AM 23.82 74.876 0 7.76 0.76 8.83
7/3/2021 6:30:00 AM 23.32 73.976 0 7.82 0.75 8.92
7/3/2021 6:45:00 AM 23.05 73.49 0 7.8 0.78 8.97
7/3/2021 7:00:00 AM 22.92 73.256 0 7.78 0.75 9
7/3/2021 7:15:00 AM 22.84 73.112 0 7.8 0.76 9.02
7/3/2021 7:30:00 AM 22.8 73.04 0 7.78 0.77 9.03
7/3/2021 7:45:00 AM 22.79 73.022 0 7.8 0.8 9.03
7/3/2021 8:00:00 AM 22.8 73.04 0 7.79 0.78 9.03
7/3/2021 8:15:00 AM 22.87 73.166 0 7.79 0.79 9.02
7/3/2021 8:30:00 AM 22.94 73.292 0 7.83 0.81 9
7/3/2021 8:45:00 AM 22.92 73.256 0 7.78 0.76 9.01
7/3/2021 9:00:00 AM 22.93 73.274 0 7.82 0.79 9.01
7/3/2021 9:15:00 AM 22.96 73.328 0 7.79 0.78 9
7/3/2021 9:30:00 AM 23.18 73.724 0 7.79 0.78 8.97
7/3/2021 9:45:00 AM 23.52 74.336 0 7.76 0.76 8.92
7/3/2021 10:00:00 AM 23.76 74.768 0 7.74 0.78 8.87
7/3/2021 10:15:00 AM 23.91 75.038 0 7.74 0.77 8.85
7/3/2021 10:30:00 AM 23.98 75.164 0 7.72 0.79 8.84
7/3/2021 10:45:00 AM 24.04 75.272 0 7.73 4.93 8.83
7/3/2021 11:00:00 AM 24.07 75.326 0 7.74 13.62 8.82
7/3/2021 11:15:00 AM 24.14 75.452 0 7.74 40.78 8.81
7/3/2021 11:30:00 AM 24.26 75.668 0 7.74 99.79 8.78
7/3/2021 11:45:00 AM 24.42 75.956 0.013 7.86 249.16 8.72
7/3/2021 12:00:00 PM 24.51 76.118 0.146 8.14 185.09 8.7
7/3/2021 12:15:00 PM 24.56 76.208 0.366 8.64 0.46 8.68
7/3/2021 12:30:00 PM 24.61 76.298 0.366 8.12 0.52 7.64
7/3/2021 12:45:00 PM 24.69 76.442 0.364 8.13 0.58 7.52
7/3/2021 1:00:00 PM 24.75 76.55 0.363 8.16 0.56 7.66
7/3/2021 1:15:00 PM 24.77 76.586 0.363 8.17 0.59 7.73
7/3/2021 1:30:00 PM 24.77 76.586 0.362 8.18 0.57 7.8
7/3/2021 1:45:00 PM 24.76 76.568 0.362 8.18 0.51 7.82
7/3/2021 2:00:00 PM 24.76 76.568 0.361 8.2 0.62 7.88
7/3/2021 2:15:00 PM 24.7 76.46 0.361 8.21 0.52 7.89
7/3/2021 2:30:00 PM 24.72 76.496 0.36 8.2 0.55 7.88
7/3/2021 2:45:00 PM 24.75 76.55 0.36 8.17 0.6 7.9
7/3/2021 3:00:00 PM 24.77 76.586 0.36 8.18 0.51 7.91
7/3/2021 3:15:00 PM 24.78 76.604 0.36 8.2 0.49 7.9
7/3/2021 3:30:00 PM 24.79 76.622 0.36 8.19 0.48 7.88
7/3/2021 3:45:00 PM 24.79 76.622 0.36 8.2 0.45 7.86
7/3/2021 4:00:00 PM 24.79 76.622 0.36 8.2 0.43 7.84
7/3/2021 4:15:00 PM 24.8 76.64 0.36 8.2 0.44 7.8
7/3/2021 4:30:00 PM 24.8 76.64 0.36 8.2 0.41 7.78
7/3/2021 4:45:00 PM 24.8 76.64 0.36 8.19 0.41 7.76
7/3/2021 5:00:00 PM 24.79 76.622 0.359 8.18 0.37 7.72
7/3/2021 5:15:00 PM 24.79 76.622 0.359 8.18 0.4 7.68
7/3/2021 5:30:00 PM 24.79 76.622 0.359 8.17 0.39 7.66
7/3/2021 5:45:00 PM 24.79 76.622 0.359 8.16 0.36 7.62
7/3/2021 6:00:00 PM 24.79 76.622 0.359 8.16 0.35 7.6
7/3/2021 6:15:00 PM 24.78 76.604 0.359 8.15 0.34 7.56
7/3/2021 6:30:00 PM 24.78 76.604 0.359 8.15 0.36 7.54
7/3/2021 6:45:00 PM 24.78 76.604 0.359 8.15 0.33 7.52
7/3/2021 7:00:00 PM 24.78 76.604 0.359 8.14 0.34 7.49
7/3/2021 7:15:00 PM 24.77 76.586 0.359 8.14 0.42 7.45
7/3/2021 7:30:00 PM 24.77 76.586 0.359 8.13 0.38 7.43
7/3/2021 7:45:00 PM 24.77 76.586 0.359 8.13 0.35 7.39
7/3/2021 8:00:00 PM 24.76 76.568 0.359 8.14 0.39 7.38
7/3/2021 8:15:00 PM 24.76 76.568 0.359 8.12 0.34 7.34
7/3/2021 8:30:00 PM 24.76 76.568 0.359 8.12 0.35 7.32
7/3/2021 8:45:00 PM 24.75 76.55 0.359 8.11 0.34 7.33
7/3/2021 9:00:00 PM 24.75 76.55 0.359 8.1 0.36 7.27
7/3/2021 9:15:00 PM 24.74 76.532 0.359 8.11 0.34 7.26
7/3/2021 9:30:00 PM 24.74 76.532 0.359 8.1 0.35 7.23
7/3/2021 9:45:00 PM 24.73 76.514 0.359 8.1 0.32 7.2
7/3/2021 10:00:00 PM 24.73 76.514 0.359 8.1 0.34 7.17
7/3/2021 10:15:00 PM 24.73 76.514 0.359 8.08 0.34 7.1
7/3/2021 10:30:00 PM 24.72 76.496 0.359 8.09 0.35 7.09
7/3/2021 10:45:00 PM 24.71 76.478 0.359 8.08 0.34 7.02
7/3/2021 11:00:00 PM 24.71 76.478 0.359 8.07 0.33 7.02
7/3/2021 11:15:00 PM 24.7 76.46 0.359 8.06 0.36 6.98
7/3/2021 11:30:00 PM 24.7 76.46 0.359 8.04 0.32 6.93
7/3/2021 11:45:00 PM 24.69 76.442 0.359 8.05 0.34 6.91
7/4/2021 12:00:00 AM 24.69 76.442 0.359 8.05 0.35 6.88
7/4/2021 12:15:00 AM 24.68 76.424 0.359 8.04 0.38 6.86
7/4/2021 12:30:00 AM 24.68 76.424 0.359 8.04 0.34 6.82
7/4/2021 12:45:00 AM 24.67 76.406 0.359 8.04 0.33 6.81
7/4/2021 1:00:00 AM 24.66 76.388 0.359 8.03 0.33 6.75
7/4/2021 1:15:00 AM 24.66 76.388 0.359 8.02 0.36 6.74
7/4/2021 1:30:00 AM 24.65 76.37 0.359 8.02 0.33 6.71
7/4/2021 1:45:00 AM 24.65 76.37 0.359 8.02 0.31 6.66
7/4/2021 2:00:00 AM 24.64 76.352 0.359 8.01 0.36 6.65
7/4/2021 2:15:00 AM 24.63 76.334 0.359 8 0.34 6.59
7/4/2021 2:30:00 AM 24.63 76.334 0.359 8 0.3 6.58
7/4/2021 2:45:00 AM 24.62 76.316 0.359 8 0.33 6.55
7/4/2021 3:00:00 AM 24.62 76.316 0.359 7.99 0.34 6.48
7/4/2021 3:15:00 AM 24.61 76.298 0.359 7.99 0.34 6.45
7/4/2021 3:30:00 AM 24.6 76.28 0.359 7.98 0.32 6.42
7/4/2021 3:45:00 AM 24.6 76.28 0.359 7.98 0.29 6.4
7/4/2021 4:00:00 AM 24.59 76.262 0.359 7.98 0.3 6.36
7/4/2021 4:15:00 AM 24.58 76.244 0.359 7.97 0.3 6.33
7/4/2021 4:30:00 AM 24.58 76.244 0.359 7.96 0.32 6.29
7/4/2021 4:45:00 AM 24.57 76.226 0.359 7.95 0.32 6.24
7/4/2021 5:00:00 AM 24.57 76.226 0.359 7.94 0.3 6.18
7/4/2021 5:15:00 AM 24.56 76.208 0.359 7.95 0.36 6.17
7/4/2021 5:30:00 AM 24.56 76.208 0.359 7.95 0.31 6.15
7/4/2021 5:45:00 AM 24.55 76.19 0.359 7.94 0.3 6.13
7/4/2021 6:00:00 AM 24.55 76.19 0.359 7.93 0.31 6.1
7/4/2021 6:15:00 AM 24.54 76.172 0.359 7.93 0.29 6.09
7/4/2021 6:30:00 AM 24.51 76.118 0.359 7.93 0.3 6.04
7/4/2021 6:45:00 AM 24.06 75.308 0 7.57 45.16 8.75
7/4/2021 7:00:00 AM 23.74 74.732 0 7.6 15.33 8.84
7/4/2021 7:15:00 AM 23.59 74.462 0 7.63 12.03 8.88
7/4/2021 7:30:00 AM 23.5 74.3 0 7.65 12.27 8.9
7/4/2021 7:45:00 AM 23.5 74.3 0 7.65 16.57 8.9
7/4/2021 8:00:00 AM 23.64 74.552 0 7.68 85.24 8.88
7/4/2021 8:15:00 AM 23.84 74.912 0 7.64 111.94 8.82
7/4/2021 8:30:00 AM 23.92 75.056 0.001 7.63 215.82 8.8
7/4/2021 8:45:00 AM 24.1 75.38 0.179 7.72 170.19 8.76
7/4/2021 9:00:00 AM 24.19 75.542 0.345 8.01 0.65 7.21
7/4/2021 9:15:00 AM 24.25 75.65 0.343 8.04 0.64 7.31
7/4/2021 9:30:00 AM 24.29 75.722 0.342 8.05 0.61 7.37
7/4/2021 9:45:00 AM 24.35 75.83 0.34 8.07 0.65 7.5
7/4/2021 10:00:00 AM 24.41 75.938 0.339 8.08 0.65 7.6
7/4/2021 10:15:00 AM 24.47 76.046 0.338 8.1 0.6 7.69
7/4/2021 10:30:00 AM 24.54 76.172 0.337 8.12 0.64 7.76
7/4/2021 10:45:00 AM 24.6 76.28 0.336 8.14 0.61 7.84
7/4/2021 11:00:00 AM 24.67 76.406 0.336 8.13 0.61 7.87
7/4/2021 11:15:00 AM 24.73 76.514 0.334 8.14 0.62 8
7/4/2021 11:30:00 AM 24.76 76.568 0.334 8.16 0.68 8.09
7/4/2021 11:45:00 AM 24.85 76.73 0.333 8.19 0.78 8.13
7/4/2021 12:00:00 PM 24.93 76.874 0.333 8.2 0.61 8.17
7/4/2021 12:15:00 PM 24.99 76.982 0.333 8.2 0.67 8.18
7/4/2021 12:30:00 PM 25.04 77.07201 0.332 8.19 0.82 8.21
7/4/2021 12:45:00 PM 25.09 77.162 0.332 8.21 0.62 8.23
7/4/2021 1:00:00 PM 25.13 77.234 0.332 8.22 0.61 8.27
7/4/2021 1:15:00 PM 25.16 77.288 0.331 8.21 0.7 8.28
7/4/2021 1:30:00 PM 25.17 77.306 0.331 8.22 0.63 8.33
7/4/2021 1:45:00 PM 25.19 77.342 0.33 8.24 0.74 8.41
7/4/2021 2:00:00 PM 25.18 77.324 0.33 8.26 0.67 8.51
7/4/2021 2:15:00 PM 25.2 77.36 0.329 8.25 0.67 8.5
7/4/2021 2:30:00 PM 25.21 77.378 0.329 8.25 0.75 8.47
7/4/2021 2:45:00 PM 25.22 77.396 0.329 8.26 0.7 8.46
7/4/2021 3:00:00 PM 25.23 77.414 0.329 8.25 0.57 8.44
7/4/2021 3:15:00 PM 25.23 77.414 0.329 8.27 0.59 8.4
7/4/2021 3:30:00 PM 25.23 77.414 0.329 8.23 0.55 8.38
7/4/2021 3:45:00 PM 25.23 77.414 0.329 8.23 0.54 8.36
7/4/2021 4:00:00 PM 25.22 77.396 0.329 8.22 0.56 8.33
7/4/2021 4:15:00 PM 25.22 77.396 0.329 8.22 0.55 8.28
7/4/2021 4:30:00 PM 25.22 77.396 0.329 8.22 0.5 8.28
7/4/2021 4:45:00 PM 25.21 77.378 0.329 8.23 0.59 8.25
7/4/2021 5:00:00 PM 25.2 77.36 0.329 8.2 0.55 8.24
7/4/2021 5:15:00 PM 25.2 77.36 0.329 8.2 0.42 8.19
7/4/2021 5:30:00 PM 25.19 77.342 0.329 8.2 0.43 8.17
7/4/2021 5:45:00 PM 25.18 77.324 0.329 8.19 0.42 8.14
7/4/2021 6:00:00 PM 25.18 77.324 0.329 8.19 0.44 8.1
7/4/2021 6:15:00 PM 25.17 77.306 0.329 8.19 0.44 8.09
7/4/2021 6:30:00 PM 25.16 77.288 0.329 8.17 0.47 8.06
7/4/2021 6:45:00 PM 25.15 77.27 0.329 8.18 0.44 8.01
7/4/2021 7:00:00 PM 25.15 77.27 0.329 8.17 0.48 8.02
7/4/2021 7:15:00 PM 25.14 77.252 0.329 8.17 0.44 7.96
7/4/2021 7:30:00 PM 25.13 77.234 0.329 8.17 0.44 7.96
7/4/2021 7:45:00 PM 25.13 77.234 0.329 8.16 0.4 7.92
7/4/2021 8:00:00 PM 25.12 77.216 0.329 8.15 0.39 7.88
7/4/2021 8:15:00 PM 25.11 77.198 0.329 8.15 0.4 7.84
7/4/2021 8:30:00 PM 25.1 77.18 0.329 8.12 0.41 7.8
7/4/2021 8:45:00 PM 25.1 77.18 0.329 8.14 0.36 7.8
7/4/2021 9:00:00 PM 25.09 77.162 0.329 8.13 0.44 7.76
7/4/2021 9:15:00 PM 25.08 77.144 0.329 8.13 0.37 7.76
7/4/2021 9:30:00 PM 25.08 77.144 0.329 8.13 0.38 7.72
7/4/2021 9:45:00 PM 25.07 77.126 0.329 8.12 0.41 7.68
7/4/2021 10:00:00 PM 25.06 77.108 0.329 8.11 0.37 7.66
7/4/2021 10:15:00 PM 25.05 77.09 0.329 8.1 0.39 7.63
7/4/2021 10:30:00 PM 25.05 77.09 0.329 8.11 0.33 7.61
7/4/2021 10:45:00 PM 25.04 77.07201 0.329 8.09 0.38 7.55
7/4/2021 11:00:00 PM 25.03 77.054 0.329 8.1 0.35 7.55
7/4/2021 11:15:00 PM 25.02 77.036 0.329 8.08 0.33 7.5
7/4/2021 11:30:00 PM 25.01 77.018 0.329 8.08 0.35 7.48
7/4/2021 11:45:00 PM 25.01 77.018 0.329 8.08 0.37 7.47
7/5/2021 12:00:00 AM 25 77 0.329 8.08 0.32 7.42
7/5/2021 12:15:00 AM 24.99 76.982 0.329 8.06 0.35 7.36
7/5/2021 12:30:00 AM 24.98 76.964 0.329 8.05 0.32 7.34
7/5/2021 12:45:00 AM 24.98 76.964 0.329 8.06 0.35 7.33
7/5/2021 1:00:00 AM 24.97 76.946 0.329 8.04 0.38 7.26
7/5/2021 1:15:00 AM 24.96 76.92799 0.329 8.03 0.37 7.25
7/5/2021 1:30:00 AM 24.95 76.91 0.329 8.04 0.33 7.24
7/5/2021 1:45:00 AM 24.94 76.892 0.329 8.04 0.29 7.22
7/5/2021 2:00:00 AM 24.94 76.892 0.329 8.03 0.35 7.18
7/5/2021 2:15:00 AM 24.93 76.874 0.329 8.02 0.34 7.16
7/5/2021 2:30:00 AM 24.92 76.856 0.329 8.03 0.33 7.12
7/5/2021 2:45:00 AM 24.91 76.838 0.329 8.02 0.32 7.11
7/5/2021 3:00:00 AM 24.9 76.82 0.329 8.01 0.34 7.06
7/5/2021 3:15:00 AM 24.89 76.802 0.329 8.01 0.32 7.08
7/5/2021 3:30:00 AM 24.89 76.802 0.329 8.01 0.33 7.05
7/5/2021 3:45:00 AM 24.88 76.784 0.329 8 0.3 6.97
7/5/2021 4:00:00 AM 24.87 76.766 0.329 8 0.36 6.98
7/5/2021 4:15:00 AM 24.86 76.748 0.329 7.99 0.33 6.94
7/5/2021 4:30:00 AM 24.85 76.73 0.329 7.99 0.29 6.93
7/5/2021 4:45:00 AM 24.84 76.712 0.329 7.99 0.31 6.88
7/5/2021 5:00:00 AM 24.84 76.712 0.329 7.98 0.29 6.86
7/5/2021 5:15:00 AM 24.83 76.694 0.33 7.94 0.28 6.77
7/5/2021 5:30:00 AM 24.82 76.676 0.33 7.97 0.3 6.81
7/5/2021 5:45:00 AM 24.81 76.658 0.329 7.96 0.27 6.74
7/5/2021 6:00:00 AM 24.8 76.64 0.33 7.96 0.29 6.71
7/5/2021 6:15:00 AM 24.79 76.622 0.33 7.96 0.29 6.73
7/5/2021 6:30:00 AM 24.76 76.568 0.33 7.96 0.3 6.67
7/5/2021 6:45:00 AM 24.61 76.298 0.329 7.94 0.31 6.63
7/5/2021 7:00:00 AM 24.42 75.956 0.326 7.92 0.46 6.59
7/5/2021 7:15:00 AM 24.25 75.65 0.325 7.93 0.41 6.62
7/5/2021 7:30:00 AM 24.11 75.398 0.321 7.93 0.6 6.64
7/5/2021 7:45:00 AM 24 75.2 0.316 7.92 0.63 6.66
7/5/2021 8:00:00 AM 23.92 75.056 0.312 7.92 0.78 6.68
7/5/2021 8:15:00 AM 23.84 74.912 0.309 7.91 0.86 6.68
7/5/2021 8:30:00 AM 23.79 74.82201 0.302 7.92 1.3 6.72
7/5/2021 8:45:00 AM 23.76 74.768 0.3 7.92 1.23 6.72
7/5/2021 9:00:00 AM 23.73 74.714 0.294 7.92 1.51 6.75
7/5/2021 9:15:00 AM 23.72 74.696 0.289 7.92 1.67 6.75
7/5/2021 9:30:00 AM 23.72 74.696 0.288 7.91 1.56 6.77
7/5/2021 9:45:00 AM 23.72 74.696 0.286 7.91 1.8 6.77
7/5/2021 10:00:00 AM 23.73 74.714 0.282 7.91 1.85 6.77
7/5/2021 10:15:00 AM 23.74 74.732 0.282 7.9 1.94 6.77
7/5/2021 10:30:00 AM 23.77 74.786 0.281 7.9 1.76 6.76
7/5/2021 10:45:00 AM 23.8 74.84 0.276 7.89 2.07 6.78
7/5/2021 11:00:00 AM 23.84 74.912 0.274 7.89 2.23 6.81
7/5/2021 11:15:00 AM 23.88 74.984 0.269 7.89 2.31 6.82
7/5/2021 11:30:00 AM 23.93 75.074 0.267 7.89 3 6.84
7/5/2021 11:45:00 AM 23.97 75.146 0.264 7.88 3.27 6.85
7/5/2021 12:00:00 PM 24.01 75.218 0.261 7.88 2.86 6.87
7/5/2021 12:15:00 PM 24.06 75.308 0.259 7.86 3.04 6.88
7/5/2021 12:30:00 PM 24.1 75.38 0.257 7.87 3.36 6.89
7/5/2021 12:45:00 PM 24.13 75.434 0.255 7.87 2.96 6.91
7/5/2021 1:00:00 PM 24.17 75.506 0.253 7.86 3.18 6.92
7/5/2021 1:15:00 PM 24.22 75.596 0.252 7.85 3.26 6.92
7/5/2021 1:30:00 PM 24.26 75.668 0.25 7.85 3.6 6.94
7/5/2021 1:45:00 PM 24.29 75.722 0.245 7.84 4.69 7.09
7/5/2021 2:00:00 PM 24.32 75.776 0.243 7.84 3.6 7.09
7/5/2021 2:15:00 PM 24.34 75.812 0.243 7.84 3.97 7.08
7/5/2021 2:30:00 PM 24.35 75.83 0.243 7.83 3.6 7.05
7/5/2021 2:45:00 PM 24.35 75.83 0.243 7.83 3.38 7.03
7/5/2021 3:00:00 PM 24.36 75.848 0.242 7.83 3.4 6.99
7/5/2021 3:15:00 PM 24.36 75.848 0.242 7.83 3.17 6.96
7/5/2021 3:30:00 PM 24.35 75.83 0.243 7.83 3.19 6.95
7/5/2021 3:45:00 PM 24.35 75.83 0.242 7.82 3.19 6.94
7/5/2021 4:00:00 PM 24.35 75.83 0.242 7.83 2.98 6.9
7/5/2021 4:15:00 PM 24.35 75.83 0.242 7.83 2.99 6.89
7/5/2021 4:30:00 PM 24.35 75.83 0.242 7.82 3.15 6.84
7/5/2021 4:45:00 PM 24.35 75.83 0.242 7.81 3.07 6.8
7/5/2021 5:00:00 PM 24.34 75.812 0.242 7.81 2.94 6.79
7/5/2021 5:15:00 PM 24.34 75.812 0.242 7.81 2.9 6.76
7/5/2021 5:30:00 PM 24.34 75.812 0.242 7.8 2.93 6.74
7/5/2021 5:45:00 PM 24.33 75.794 0.242 7.79 2.94 6.7
7/5/2021 6:00:00 PM 24.33 75.794 0.242 7.78 2.6 6.66
7/5/2021 6:15:00 PM 24.32 75.776 0.242 7.78 2.64 6.61
7/5/2021 6:30:00 PM 24.32 75.776 0.242 7.78 2.82 6.62
7/5/2021 6:45:00 PM 24.32 75.776 0.241 7.77 2.69 6.59
7/5/2021 7:00:00 PM 24.31 75.758 0.242 7.79 2.38 6.58
7/5/2021 7:15:00 PM 24.31 75.758 0.242 7.78 2.45 6.57
7/5/2021 7:30:00 PM 24.3 75.74 0.242 7.78 2.44 6.53
7/5/2021 7:45:00 PM 24.3 75.74 0.241 7.78 2.51 6.49
7/5/2021 8:00:00 PM 24.3 75.74 0.241 7.77 2.28 6.46
7/5/2021 8:15:00 PM 24.29 75.722 0.241 7.76 2.32 6.43
7/5/2021 8:30:00 PM 24.29 75.722 0.241 7.76 2.21 6.39
7/5/2021 8:45:00 PM 24.28 75.704 0.241 7.76 2.28 6.36
7/5/2021 9:00:00 PM 24.28 75.704 0.241 7.76 2.13 6.38
7/5/2021 9:15:00 PM 24.28 75.704 0.241 7.77 2.16 6.37
7/5/2021 9:30:00 PM 24.27 75.686 0.241 7.76 2.2 6.33
7/5/2021 9:45:00 PM 24.27 75.686 0.241 7.75 2.05 6.31
7/5/2021 10:00:00 PM 24.26 75.668 0.241 7.74 2.16 6.28
7/5/2021 10:15:00 PM 24.26 75.668 0.241 7.74 2.06 6.25
7/5/2021 10:30:00 PM 24.25 75.65 0.241 7.75 2.02 6.24
7/5/2021 10:45:00 PM 24.25 75.65 0.241 7.75 2.09 6.24
7/5/2021 11:00:00 PM 24.25 75.65 0.241 7.75 1.99 6.23
7/5/2021 11:15:00 PM 24.24 75.632 0.241 7.75 1.98 6.17
7/5/2021 11:30:00 PM 24.24 75.632 0.241 7.74 1.95 6.17
7/5/2021 11:45:00 PM 24.23 75.614 0.241 7.75 1.99 6.11
7/6/2021 12:00:00 AM 24.23 75.614 0.241 7.74 1.86 6.12
7/6/2021 12:15:00 AM 24.23 75.614 0.241 7.74 1.92 6.09
7/6/2021 12:30:00 AM 24.22 75.596 0.241 7.74 1.97 6.07
7/6/2021 12:45:00 AM 24.22 75.596 0.241 7.74 1.83 6.05
7/6/2021 1:00:00 AM 24.22 75.596 0.241 7.72 1.76 6.02
7/6/2021 1:15:00 AM 24.21 75.578 0.241 7.72 1.77 6
7/6/2021 1:30:00 AM 24.21 75.578 0.241 7.73 1.79 5.98
7/6/2021 1:45:00 AM 24.2 75.56 0.241 7.73 1.8 5.94
7/6/2021 2:00:00 AM 24.2 75.56 0.241 7.72 1.81 5.88
7/6/2021 2:15:00 AM 24.19 75.542 0.241 7.71 1.72 5.84
7/6/2021 2:30:00 AM 24.19 75.542 0.241 7.71 1.69 5.83
7/6/2021 2:45:00 AM 24.19 75.542 0.241 7.71 1.63 5.83
7/6/2021 3:00:00 AM 24.18 75.524 0.241 7.7 1.68 5.79
7/6/2021 3:15:00 AM 24.18 75.524 0.241 7.72 1.67 5.83
7/6/2021 3:30:00 AM 24.17 75.506 0.241 7.71 1.65 5.74
7/6/2021 3:45:00 AM 24.17 75.506 0.241 7.7 1.54 5.76
7/6/2021 4:00:00 AM 24.16 75.488 0.241 7.69 1.63 5.69
7/6/2021 4:15:00 AM 24.16 75.488 0.241 7.7 1.57 5.71
7/6/2021 4:30:00 AM 24.16 75.488 0.241 7.71 1.63 5.71
7/6/2021 4:45:00 AM 24.15 75.47 0.241 7.7 1.47 5.68
7/6/2021 5:00:00 AM 24.15 75.47 0.241 7.7 1.53 5.68
7/6/2021 5:15:00 AM 24.14 75.452 0.241 7.7 1.45 5.66
7/6/2021 5:30:00 AM 24.14 75.452 0.241 7.7 1.5 5.64
7/6/2021 5:45:00 AM 24.13 75.434 0.241 7.69 1.5 5.6
7/6/2021 6:00:00 AM 24.12 75.416 0.241 7.69 1.63 5.58
7/6/2021 6:15:00 AM 24.1 75.38 0.241 7.68 1.69 5.55
7/6/2021 6:30:00 AM 24 75.2 0.241 7.67 1.49 5.51
7/6/2021 6:45:00 AM 23.86 74.948 0.241 7.63 1.97 5.46
7/6/2021 7:00:00 AM 23.76 74.768 0.241 7.62 2.89 5.43
7/6/2021 7:15:00 AM 23.68 74.624 0.24 7.64 3.9 5.47
7/6/2021 7:30:00 AM 23.62 74.516 0.24 7.63 3.87 5.46
7/6/2021 7:45:00 AM 23.57 74.426 0.24 7.63 3.75 5.44
7/6/2021 8:00:00 AM 23.53 74.354 0.24 7.63 3.81 5.41
7/6/2021 8:15:00 AM 23.51 74.318 0.24 7.63 3.62 5.37
7/6/2021 8:30:00 AM 23.49 74.282 0.24 7.63 3.53 5.35
7/6/2021 8:45:00 AM 23.49 74.282 0.24 7.63 3.47 5.31
7/6/2021 9:00:00 AM 23.49 74.282 0.24 7.65 3.57 5.25
7/6/2021 9:15:00 AM 23.51 74.318 0.24 7.64 3.41 5.22
7/6/2021 9:30:00 AM 23.53 74.354 0.239 7.62 5.07 5.2
7/6/2021 9:45:00 AM 23.57 74.426 0.239 7.63 4.53 5.26
7/6/2021 10:00:00 AM 23.61 74.498 0.238 7.63 5.14 5.33
7/6/2021 10:15:00 AM 23.66 74.588 0.237 7.64 5.6 5.37
7/6/2021 10:30:00 AM 23.7 74.66 0.237 7.64 6.43 5.4
7/6/2021 10:45:00 AM 23.77 74.786 0.236 7.65 8.6 5.53
7/6/2021 11:00:00 AM 23.81 74.858 0.236 7.65 8.51 5.53
7/6/2021 11:15:00 AM 23.86 74.948 0.236 7.65 8.84 5.56
7/6/2021 11:30:00 AM 23.92 75.056 0.235 7.66 9.36 5.63
7/6/2021 11:45:00 AM 23.98 75.164 0.235 7.67 10.82 5.72
7/6/2021 12:00:00 PM 24.05 75.29 0.234 7.67 13.49 5.84
7/6/2021 12:15:00 PM 24.12 75.416 0.234 7.68 14.65 5.97
7/6/2021 12:30:00 PM 24.19 75.542 0.234 7.69 14.63 6.06
7/6/2021 12:45:00 PM 24.28 75.704 0.234 7.7 15.82 6.2
7/6/2021 1:00:00 PM 24.34 75.812 0.234 7.71 15.51 6.28
7/6/2021 1:15:00 PM 24.41 75.938 0.234 7.72 15.45 6.39
7/6/2021 1:30:00 PM 24.49 76.082 0.235 7.72 16.67 6.45
7/6/2021 1:45:00 PM 24.57 76.226 0.235 7.73 18.26 6.54
7/6/2021 2:00:00 PM 24.64 76.352 0.236 7.74 16.14 6.64
7/6/2021 2:15:00 PM 24.74 76.532 0.238 7.76 19.59 6.76
7/6/2021 2:30:00 PM 24.75 76.55 0.238 7.76 18.27 6.85
7/6/2021 2:45:00 PM 24.77 76.586 0.238 7.77 18.01 6.83
7/6/2021 3:00:00 PM 24.81 76.658 0.238 7.76 18.13 6.84
7/6/2021 3:15:00 PM 24.82 76.676 0.239 7.77 17.02 6.83
7/6/2021 3:30:00 PM 24.82 76.676 0.239 7.77 16.01 6.8
7/6/2021 3:45:00 PM 24.82 76.676 0.239 7.77 13.43 6.77
7/6/2021 4:00:00 PM 24.82 76.676 0.239 7.77 13.62 6.75
7/6/2021 4:15:00 PM 24.82 76.676 0.239 7.77 13.16 6.72
7/6/2021 4:30:00 PM 24.82 76.676 0.239 7.77 12.9 6.7
7/6/2021 4:45:00 PM 24.82 76.676 0.239 7.78 12.6 6.66
7/6/2021 5:00:00 PM 24.81 76.658 0.239 7.78 12.41 6.66
7/6/2021 5:15:00 PM 24.81 76.658 0.239 7.77 11.75 6.65
7/6/2021 5:30:00 PM 24.8 76.64 0.239 7.78 12.36 6.62
7/6/2021 5:45:00 PM 24.8 76.64 0.239 7.76 11.99 6.63
7/6/2021 6:00:00 PM 24.8 76.64 0.239 7.77 11.12 6.6
7/6/2021 6:15:00 PM 24.79 76.622 0.239 7.79 11.3 6.6
7/6/2021 6:30:00 PM 24.78 76.604 0.239 7.77 10.93 6.56
7/6/2021 6:45:00 PM 24.78 76.604 0.24 7.77 10.73 6.54
7/6/2021 7:00:00 PM 24.77 76.586 0.24 7.78 10.7 6.52
7/6/2021 7:15:00 PM 24.77 76.586 0.24 7.76 10.59 6.5
7/6/2021 7:30:00 PM 24.76 76.568 0.24 7.76 10.17 6.5
7/6/2021 7:45:00 PM 24.75 76.55 0.24 7.77 10.37 6.47
7/6/2021 8:00:00 PM 24.75 76.55 0.24 7.76 9.99 6.43
7/6/2021 8:15:00 PM 24.74 76.532 0.24 7.76 9.92 6.43
7/6/2021 8:30:00 PM 24.73 76.514 0.24 7.76 10 6.39
7/6/2021 8:45:00 PM 24.73 76.514 0.24 7.76 9.88 6.39
7/6/2021 9:00:00 PM 24.72 76.496 0.24 7.76 9.52 6.37
7/6/2021 9:15:00 PM 24.71 76.478 0.24 7.76 9.64 6.36
7/6/2021 9:30:00 PM 24.71 76.478 0.24 7.76 9.54 6.34
7/6/2021 9:45:00 PM 24.7 76.46 0.24 7.75 9.14 6.31
7/6/2021 10:00:00 PM 24.7 76.46 0.24 7.76 9.15 6.28
7/6/2021 10:15:00 PM 24.69 76.442 0.24 7.75 8.91 6.27
7/6/2021 10:30:00 PM 24.69 76.442 0.24 7.77 8.88 6.24
7/6/2021 10:45:00 PM 24.68 76.424 0.241 7.75 9.03 6.22
7/6/2021 11:00:00 PM 24.67 76.406 0.241 7.75 8.55 6.22
7/6/2021 11:15:00 PM 24.67 76.406 0.241 7.77 8.63 6.21
7/6/2021 11:30:00 PM 24.66 76.388 0.241 7.73 8.66 6.16
7/6/2021 11:45:00 PM 24.66 76.388 0.241 7.75 8.38 6.15
7/7/2021 12:00:00 AM 24.65 76.37 0.241 7.74 8.49 6.13
7/7/2021 12:15:00 AM 24.64 76.352 0.241 7.74 8.3 6.12
7/7/2021 12:30:00 AM 24.64 76.352 0.241 7.73 8.41 6.09
7/7/2021 12:45:00 AM 24.63 76.334 0.241 7.72 8.35 6.04
7/7/2021 1:00:00 AM 24.63 76.334 0.241 7.73 8.13 6.04
7/7/2021 1:15:00 AM 24.62 76.316 0.241 7.73 8.2 6.01
7/7/2021 1:30:00 AM 24.62 76.316 0.241 7.74 7.69 5.98
7/7/2021 1:45:00 AM 24.61 76.298 0.241 7.71 8.04 5.95
7/7/2021 2:00:00 AM 24.61 76.298 0.241 7.71 7.51 5.92
7/7/2021 2:15:00 AM 24.6 76.28 0.241 7.72 7.67 5.94
7/7/2021 2:30:00 AM 24.59 76.262 0.241 7.74 7.46 5.92
7/7/2021 2:45:00 AM 24.59 76.262 0.241 7.73 7.2 5.87
7/7/2021 3:00:00 AM 24.58 76.244 0.241 7.72 7.5 5.86
7/7/2021 3:15:00 AM 24.58 76.244 0.241 7.69 7.65 5.84
7/7/2021 3:30:00 AM 24.57 76.226 0.242 7.72 7.43 5.85
7/7/2021 3:45:00 AM 24.57 76.226 0.242 7.7 7.74 5.8
7/7/2021 4:00:00 AM 24.56 76.208 0.242 7.72 7.29 5.8
7/7/2021 4:15:00 AM 24.56 76.208 0.242 7.71 7.4 5.75
7/7/2021 4:30:00 AM 24.55 76.19 0.242 7.7 6.99 5.73
7/7/2021 4:45:00 AM 24.54 76.172 0.242 7.71 7.18 5.71
7/7/2021 5:00:00 AM 24.54 76.172 0.242 7.69 7.17 5.68
7/7/2021 5:15:00 AM 24.53 76.154 0.242 7.71 7.39 5.67
7/7/2021 5:30:00 AM 24.53 76.154 0.242 7.69 6.84 5.65
7/7/2021 5:45:00 AM 24.52 76.136 0.242 7.7 6.86 5.62
7/7/2021 6:00:00 AM 24.51 76.118 0.242 7.7 6.45 5.6
7/7/2021 6:15:00 AM 24.51 76.118 0.242 7.71 6.37 5.57
7/7/2021 6:30:00 AM 24.52 76.136 0.242 7.71 6.31 5.54
7/7/2021 6:45:00 AM 24.56 76.208 0.242 7.71 6.41 5.53
7/7/2021 7:00:00 AM 24.6 76.28 0.242 7.7 6.5 5.49
7/7/2021 7:15:00 AM 24.63 76.334 0.242 7.69 6.39 5.49
7/7/2021 7:30:00 AM 24.65 76.37 0.243 7.69 6.53 5.49
7/7/2021 7:45:00 AM 24.67 76.406 0.243 7.69 6.26 5.5
7/7/2021 8:00:00 AM 24.68 76.424 0.243 7.7 6.17 5.47
7/7/2021 8:15:00 AM 24.68 76.424 0.244 7.68 7.29 5.62
7/7/2021 8:30:00 AM 24.69 76.442 0.244 7.64 8.21 5.79
7/7/2021 8:45:00 AM 24.7 76.46 0.245 7.61 7.87 5.86
7/7/2021 9:00:00 AM 24.71 76.478 0.204 7.91 107.5 8.47
7/7/2021 9:15:00 AM 24.71 76.478 0.035 7.71 234.45 8.63
7/7/2021 9:30:00 AM 24.67 76.406 0 7.31 198.85 8.66
7/7/2021 9:45:00 AM 24.63 76.334 0 7.36 95.49 8.69
7/7/2021 10:00:00 AM 24.61 76.298 0 7.37 41.67 8.71
7/7/2021 10:15:00 AM 24.59 76.262 0 7.37 23.45 8.71
7/7/2021 10:30:00 AM 24.57 76.226 0 7.4 14.05 8.72
7/7/2021 10:45:00 AM 24.59 76.262 0 7.45 9.52 8.73
7/7/2021 11:00:00 AM 24.62 76.316 0 7.42 2.15 8.72
7/7/2021 11:15:00 AM 24.64 76.352 0 7.45 1.04 8.74
7/7/2021 11:30:00 AM 24.67 76.406 0 7.44 0.92 8.72
7/7/2021 11:45:00 AM 24.69 76.442 0 7.45 0.88 8.71
7/7/2021 12:00:00 PM 24.71 76.478 0 7.53 0.84 8.71
7/7/2021 12:15:00 PM 24.72 76.496 0 7.59 0.85 8.71
7/7/2021 12:30:00 PM 24.74 76.532 0 7.58 0.82 8.72
7/7/2021 12:45:00 PM 24.77 76.586 0 7.5 0.89 8.72
7/7/2021 1:00:00 PM 24.8 76.64 0 7.61 0.89 8.7
7/7/2021 1:15:00 PM 25.6 78.08 0.251 7.87 8.65 7.32
7/7/2021 1:30:00 PM 25.71 78.278 0.251 7.87 7.95 7.27
7/7/2021 1:45:00 PM 25.79 78.422 0.251 7.86 7.71 7.24
7/7/2021 2:00:00 PM 25.86 78.548 0.251 7.86 6.7 7.23
7/7/2021 2:15:00 PM 25.93 78.674 0.251 7.87 6.8 7.22
7/7/2021 2:30:00 PM 25.97 78.746 0.252 7.87 6.85 7.3
7/7/2021 2:45:00 PM 26 78.8 0.252 7.86 7.18 7.28
7/7/2021 3:00:00 PM 26.03 78.854 0.252 7.87 6.88 7.25
7/7/2021 3:15:00 PM 26.05 78.89 0.252 7.87 6.44 7.23
7/7/2021 3:30:00 PM 26.06 78.908 0.252 7.87 7.01 7.22
7/7/2021 3:45:00 PM 26.06 78.908 0.252 7.86 5.84 7.2
7/7/2021 4:00:00 PM 26.06 78.908 0.252 7.86 5.86 7.18
7/7/2021 4:15:00 PM 26.06 78.908 0.252 7.85 5.66 7.16
7/7/2021 4:30:00 PM 26.05 78.89 0.252 7.88 5.59 7.12
7/7/2021 4:45:00 PM 26.05 78.89 0.252 7.86 5.34 7.09
7/7/2021 5:00:00 PM 26.04 78.872 0.252 7.87 5.34 7.08
7/7/2021 5:15:00 PM 26.03 78.854 0.252 7.86 5.37 7.07
7/7/2021 5:30:00 PM 26.02 78.836 0.252 7.86 4.98 7.05
7/7/2021 5:45:00 PM 26.02 78.836 0.252 7.85 4.91 7.04
7/7/2021 6:00:00 PM 26.01 78.818 0.252 7.84 5.26 7.04
7/7/2021 6:15:00 PM 26 78.8 0.252 7.86 5.1 7.02
7/7/2021 6:30:00 PM 25.99 78.782 0.253 7.86 4.97 7.01
7/7/2021 6:45:00 PM 25.98 78.764 0.253 7.86 4.96 6.98
7/7/2021 7:00:00 PM 25.97 78.746 0.253 7.86 4.57 6.94
7/7/2021 7:15:00 PM 25.96 78.728 0.253 7.85 4.84 6.94
7/7/2021 7:30:00 PM 25.95 78.71 0.253 7.86 4.61 6.89
7/7/2021 7:45:00 PM 25.94 78.692 0.253 7.85 4.41 6.91
7/7/2021 8:00:00 PM 25.93 78.674 0.253 7.85 4.61 6.87
7/7/2021 8:15:00 PM 25.92 78.656 0.253 7.84 4.33 6.88
7/7/2021 8:30:00 PM 25.91 78.638 0.253 7.85 4.18 6.84
7/7/2021 8:45:00 PM 25.91 78.638 0.253 7.84 4.2 6.77
7/7/2021 9:00:00 PM 25.9 78.62 0.253 7.85 4.19 6.78
7/7/2021 9:15:00 PM 25.89 78.602 0.253 7.84 3.98 6.77
7/7/2021 9:30:00 PM 25.88 78.584 0.253 7.84 4.01 6.72
7/7/2021 9:45:00 PM 25.86 78.548 0.253 7.83 3.98 6.71
7/7/2021 10:00:00 PM 25.85 78.53 0.253 7.83 3.75 6.68
7/7/2021 10:15:00 PM 25.85 78.53 0.253 7.83 3.81 6.63
7/7/2021 10:30:00 PM 25.84 78.512 0.253 7.83 3.93 6.64
7/7/2021 10:45:00 PM 25.83 78.494 0.253 7.84 3.78 6.62
7/7/2021 11:00:00 PM 25.82 78.476 0.253 7.82 3.78 6.59
7/7/2021 11:15:00 PM 25.81 78.458 0.253 7.83 3.5 6.57
7/7/2021 11:30:00 PM 25.8 78.44 0.253 7.82 3.8 6.54
7/7/2021 11:45:00 PM 25.79 78.422 0.253 7.82 3.6 6.5
7/8/2021 12:00:00 AM 25.78 78.404 0.253 7.82 3.56 6.49
7/8/2021 12:15:00 AM 25.77 78.386 0.253 7.81 3.49 6.43
7/8/2021 12:30:00 AM 25.77 78.386 0.253 7.82 3.48 6.41
7/8/2021 12:45:00 AM 25.76 78.368 0.253 7.8 3.26 6.38
7/8/2021 1:00:00 AM 25.75 78.35 0.253 7.8 3.32 6.34
7/8/2021 1:15:00 AM 25.74 78.332 0.253 7.8 3.35 6.35
7/8/2021 1:30:00 AM 25.73 78.314 0.253 7.81 3.26 6.33
7/8/2021 1:45:00 AM 25.73 78.314 0.253 7.79 3.29 6.3
7/8/2021 2:00:00 AM 25.71 78.278 0.253 7.8 3.12 6.28
7/8/2021 2:15:00 AM 25.71 78.278 0.254 7.79 3.23 6.26
7/8/2021 2:30:00 AM 25.7 78.26 0.253 7.79 3.16 6.24
7/8/2021 2:45:00 AM 25.69 78.242 0.253 7.79 3.08 6.2
7/8/2021 3:00:00 AM 25.69 78.242 0.254 7.78 3.23 6.14
7/8/2021 3:15:00 AM 25.68 78.224 0.254 7.78 3.04 6.13
7/8/2021 3:30:00 AM 25.67 78.206 0.254 7.75 2.89 6.1
7/8/2021 3:45:00 AM 25.66 78.188 0.254 7.78 2.94 6.11
7/8/2021 4:00:00 AM 25.66 78.188 0.254 7.78 2.99 6.09
7/8/2021 4:15:00 AM 25.65 78.17 0.254 7.78 2.86 6.08
7/8/2021 4:30:00 AM 25.64 78.152 0.254 7.78 2.87 6.06
7/8/2021 4:45:00 AM 25.64 78.152 0.254 7.75 3.26 6.02
7/8/2021 5:00:00 AM 25.61 78.098 0.254 7.75 3.5 5.99
7/8/2021 5:15:00 AM 25.52 77.936 0 7.62 0.91 8.46
7/8/2021 5:30:00 AM 25.09 77.162 0 7.44 0.95 8.62
7/8/2021 5:45:00 AM 24.69 76.442 0 7.46 0.94 8.69
7/8/2021 6:00:00 AM 24.41 75.938 0 7.47 1.01 8.76
7/8/2021 6:15:00 AM 24.25 75.65 0 7.51 0.96 8.77
7/8/2021 6:30:00 AM 24.25 75.65 0 7.5 0.91 8.79
7/8/2021 6:45:00 AM 24.28 75.704 0 7.5 0.96 8.79
7/8/2021 7:00:00 AM 24.23 75.614 0 7.51 0.99 8.8
7/8/2021 7:15:00 AM 24.18 75.524 0 7.52 0.99 8.81
7/8/2021 7:30:00 AM 24.14 75.452 0 7.52 1.01 8.83
7/8/2021 7:45:00 AM 24.1 75.38 0 7.59 0.94 8.83
7/8/2021 8:00:00 AM 24.06 75.308 0 7.57 0.96 8.84
7/8/2021 8:15:00 AM 24.03 75.254 0 7.56 0.99 8.85
7/8/2021 8:30:00 AM 24 75.2 0 7.56 0.99 8.85
7/8/2021 8:45:00 AM 23.98 75.164 0 7.56 0.99 8.85
7/8/2021 9:00:00 AM 23.97 75.146 0 7.6 1.02 8.85
7/8/2021 9:15:00 AM 23.95 75.11 0 7.59 0.97 8.86
7/8/2021 9:30:00 AM 23.94 75.092 0 7.61 1.03 8.86
7/8/2021 9:45:00 AM 23.93 75.074 0 7.59 1.08 8.87
7/8/2021 10:00:00 AM 23.92 75.056 0 7.6 1.04 8.87
7/8/2021 10:15:00 AM 23.92 75.056 0 7.6 0.94 8.87
7/8/2021 10:30:00 AM 23.92 75.056 0 7.6 0.96 8.87
7/8/2021 10:45:00 AM 23.92 75.056 0 7.68 1.02 8.87
7/8/2021 11:00:00 AM 23.92 75.056 0 7.61 1.07 8.87
7/8/2021 11:15:00 AM 23.92 75.056 0 7.62 1.07 8.87
7/8/2021 11:30:00 AM 23.92 75.056 0 7.61 0.96 8.87
7/8/2021 11:45:00 AM 23.92 75.056 0 7.7 1.01 8.87
7/8/2021 12:00:00 PM 23.92 75.056 0 7.7 1.01 8.87
7/8/2021 12:15:00 PM 23.92 75.056 0 7.68 0.96 8.87
7/8/2021 12:30:00 PM 23.93 75.074 0 7.71 1.04 8.87
7/8/2021 12:45:00 PM 23.94 75.092 0 7.8 1.11 8.87
7/8/2021 1:00:00 PM 23.95 75.11 0 7.79 0.98 8.87
7/8/2021 1:15:00 PM 23.96 75.128 0 7.78 0.97 8.86
7/8/2021 1:30:00 PM 23.97 75.146 0 7.7 0.97 8.86
7/8/2021 1:45:00 PM 23.97 75.146 0 7.75 0.91 8.86
7/8/2021 2:00:00 PM 23.97 75.146 0 7.77 0.95 8.86
7/8/2021 2:15:00 PM 23.98 75.164 0 7.73 0.95 8.85
7/8/2021 2:30:00 PM 25.86 78.548 0.27 8.1 6.31 7.74
7/8/2021 2:45:00 PM 25.99 78.782 0.269 8.05 4.05 7.7
7/8/2021 3:00:00 PM 26.04 78.872 0.269 8.04 4.01 7.7
7/8/2021 3:15:00 PM 26.07 78.926 0.27 8.03 4.14 7.68
7/8/2021 3:30:00 PM 26.08 78.944 0.27 8.04 3.45 7.66
7/8/2021 3:45:00 PM 26.09 78.962 0.27 8.03 3.73 7.62
7/8/2021 4:00:00 PM 26.09 78.962 0.27 8.04 3.74 7.61
7/8/2021 4:15:00 PM 26.09 78.962 0.27 8.03 3.37 7.57
7/8/2021 4:30:00 PM 26.09 78.962 0.27 8.02 3.24 7.53
7/8/2021 4:45:00 PM 26.08 78.944 0.27 8 3.59 7.51
7/8/2021 5:00:00 PM 26.08 78.944 0.27 8.01 3.41 7.48
7/8/2021 5:15:00 PM 26.07 78.926 0.27 8.01 3.4 7.46
7/8/2021 5:30:00 PM 26.07 78.926 0.27 8.01 3.39 7.44
7/8/2021 5:45:00 PM 26.07 78.926 0.27 8 3.05 7.41
7/8/2021 6:00:00 PM 26.06 78.908 0.27 7.99 3.03 7.37
7/8/2021 6:15:00 PM 26.05 78.89 0.27 8 2.9 7.36
7/8/2021 6:30:00 PM 26.04 78.872 0.27 7.99 3.12 7.31
7/8/2021 6:45:00 PM 26.04 78.872 0.27 7.98 3.13 7.27
7/8/2021 7:00:00 PM 26.03 78.854 0.27 7.98 2.79 7.27
7/8/2021 7:15:00 PM 26.02 78.836 0.27 7.97 2.68 7.21
7/8/2021 7:30:00 PM 26.02 78.836 0.27 7.98 2.75 7.19
7/8/2021 7:45:00 PM 26.01 78.818 0.27 7.98 2.67 7.21
7/8/2021 8:00:00 PM 26 78.8 0.27 7.98 2.77 7.16
7/8/2021 8:15:00 PM 25.99 78.782 0.27 7.97 2.46 7.15
7/8/2021 8:30:00 PM 25.99 78.782 0.27 7.99 2.56 7.15
7/8/2021 8:45:00 PM 25.98 78.764 0.27 7.97 2.41 7.09
7/8/2021 9:00:00 PM 25.97 78.746 0.27 7.96 2.4 7.04
7/8/2021 9:15:00 PM 25.97 78.746 0.27 7.97 2.5 7.04
7/8/2021 9:30:00 PM 25.96 78.728 0.27 7.96 2.45 7.02
7/8/2021 9:45:00 PM 25.95 78.71 0.27 7.97 2.36 6.98
7/8/2021 10:00:00 PM 25.94 78.692 0.27 7.95 2.34 6.91
7/8/2021 10:15:00 PM 25.94 78.692 0.27 7.94 2.34 6.93
7/8/2021 10:30:00 PM 25.93 78.674 0.27 7.94 2.39 6.89
7/8/2021 10:45:00 PM 25.92 78.656 0.27 7.93 2.21 6.85
7/8/2021 11:00:00 PM 25.91 78.638 0.27 7.93 2.25 6.79
7/8/2021 11:15:00 PM 25.91 78.638 0.27 7.93 2.2 6.79
7/8/2021 11:30:00 PM 25.9 78.62 0.27 7.92 2.5 6.74
7/8/2021 11:45:00 PM 25.89 78.602 0.27 7.93 2.56 6.7
7/9/2021 12:00:00 AM 25.89 78.602 0.27 7.91 2.27 6.65
7/9/2021 12:15:00 AM 25.88 78.584 0.27 7.91 2.19 6.63
7/9/2021 12:30:00 AM 25.87 78.566 0.27 7.9 2.28 6.6
7/9/2021 12:45:00 AM 25.86 78.548 0.271 7.9 2.16 6.56
7/9/2021 1:00:00 AM 25.86 78.548 0.27 7.89 2.07 6.54
7/9/2021 1:15:00 AM 25.85 78.53 0.27 7.89 2.24 6.49
7/9/2021 1:30:00 AM 25.84 78.512 0.27 7.89 2.27 6.5
7/9/2021 1:45:00 AM 25.84 78.512 0.271 7.88 2.08 6.42
7/9/2021 2:00:00 AM 25.83 78.494 0.271 7.88 2.11 6.43
7/9/2021 2:15:00 AM 25.82 78.476 0.271 7.86 2.12 6.43
7/9/2021 2:30:00 AM 25.82 78.476 0.271 7.88 2.22 6.39
7/9/2021 2:45:00 AM 25.81 78.458 0.271 7.87 2.01 6.35
7/9/2021 3:00:00 AM 25.8 78.44 0.271 7.86 2.03 6.35
7/9/2021 3:15:00 AM 25.8 78.44 0.271 7.87 2.02 6.36
7/9/2021 3:30:00 AM 25.79 78.422 0.271 7.86 2.06 6.3
7/9/2021 3:45:00 AM 25.78 78.404 0.271 7.87 1.93 6.28
7/9/2021 4:00:00 AM 25.77 78.386 0.271 7.86 2.03 6.27
7/9/2021 4:15:00 AM 25.77 78.386 0.271 7.86 1.94 6.23
7/9/2021 4:30:00 AM 25.76 78.368 0.271 7.85 1.93 6.23
7/9/2021 4:45:00 AM 25.76 78.368 0.271 7.85 1.83 6.17
7/9/2021 5:00:00 AM 25.74 78.332 0.271 7.84 1.94 6.19
7/9/2021 5:15:00 AM 25.74 78.332 0.271 7.84 1.87 6.13
7/9/2021 5:30:00 AM 25.73 78.314 0.271 7.84 1.9 6.12
7/9/2021 5:45:00 AM 25.72 78.296 0.271 7.84 1.82 6.1
7/9/2021 6:00:00 AM 25.72 78.296 0.271 7.84 1.69 6.09
7/9/2021 6:15:00 AM 25.34 77.612 0 7.64 0.93 8.56
7/9/2021 6:30:00 AM 24.85 76.73 0 7.69 0.9 8.65
7/9/2021 6:45:00 AM 24.48 76.064 0 7.63 0.89 8.71
7/9/2021 7:00:00 AM 24.28 75.704 0 7.58 0.87 8.75
7/9/2021 7:15:00 AM 24.29 75.722 0 7.58 0.92 8.76
7/9/2021 7:30:00 AM 24.21 75.578 0 7.58 0.95 8.76
7/9/2021 7:45:00 AM 24.15 75.47 0 7.59 0.94 8.78
7/9/2021 8:00:00 AM 24.12 75.416 0 7.78 0.92 8.79
7/9/2021 8:15:00 AM 24.28 75.704 0 7.64 0.93 8.78
7/9/2021 8:30:00 AM 24.4 75.92 0 7.62 0.92 8.75
7/9/2021 8:45:00 AM 24.49 76.082 0 7.61 0.96 8.73
7/9/2021 9:00:00 AM 24.57 76.226 0 7.63 0.98 8.71
7/9/2021 9:15:00 AM 24.64 76.352 0 7.75 0.98 8.71
7/9/2021 9:30:00 AM 24.71 76.478 0 7.82 1 8.7
7/9/2021 9:45:00 AM 24.79 76.622 0 7.67 1.54 8.7
7/9/2021 10:00:00 AM 24.85 76.73 0 7.66 9.23 8.69
7/9/2021 10:15:00 AM 24.93 76.874 0 7.77 23.16 8.67
7/9/2021 10:30:00 AM 25.09 77.162 0 7.84 52.88 8.62
7/9/2021 10:45:00 AM 25.41 77.738 0.001 7.78 219.64 8.55
7/9/2021 11:00:00 AM 25.67 78.206 0.106 8.2 189.92 8.5
7/9/2021 11:15:00 AM 25.81 78.458 0.269 7.96 5.88 7.61
7/9/2021 11:30:00 AM 25.87 78.566 0.269 7.96 5.55 7.42
7/9/2021 11:45:00 AM 25.93 78.674 0.269 7.97 5.68 7.44
7/9/2021 12:00:00 PM 25.98 78.764 0.269 7.97 5.42 7.46
7/9/2021 12:15:00 PM 26.05 78.89 0.269 7.98 5.58 7.47
7/9/2021 12:30:00 PM 26.09 78.962 0.269 7.97 5.31 7.49
7/9/2021 12:45:00 PM 26.13 79.034 0.27 7.98 5.46 7.52
7/9/2021 1:00:00 PM 26.16 79.088 0.27 7.98 5.44 7.52
7/9/2021 1:15:00 PM 26.16 79.088 0.27 7.99 5.31 7.54
7/9/2021 1:30:00 PM 26.15 79.07 0.27 7.99 5.44 7.53
7/9/2021 1:45:00 PM 26.14 79.052 0.27 7.99 5.08 7.55
7/9/2021 2:00:00 PM 26.16 79.088 0.27 8 5.2 7.52
7/9/2021 2:15:00 PM 26.23 79.214 0.271 8 5.31 7.55
7/9/2021 2:30:00 PM 26.27 79.286 0.271 7.98 5.28 7.55
7/9/2021 2:45:00 PM 26.3 79.34 0.271 8 5.13 7.54
7/9/2021 3:00:00 PM 26.31 79.358 0.271 7.98 5.02 7.51
7/9/2021 3:15:00 PM 26.32 79.376 0.271 7.98 5.15 7.48
7/9/2021 3:30:00 PM 26.33 79.394 0.271 7.98 4.78 7.44
7/9/2021 3:45:00 PM 26.34 79.412 0.271 7.98 4.78 7.43
7/9/2021 4:00:00 PM 26.33 79.394 0.271 7.96 4.55 7.4
7/9/2021 4:15:00 PM 26.33 79.394 0.271 7.96 4.09 7.4
7/9/2021 4:30:00 PM 26.33 79.394 0.271 7.95 4.23 7.39
7/9/2021 4:45:00 PM 26.32 79.376 0.271 7.97 4.08 7.36
7/9/2021 5:00:00 PM 26.32 79.376 0.271 7.97 4.24 7.34
7/9/2021 5:15:00 PM 26.31 79.358 0.271 7.97 3.95 7.31
7/9/2021 5:30:00 PM 26.3 79.34 0.271 7.97 3.78 7.3
7/9/2021 5:45:00 PM 26.29 79.32201 0.271 7.97 4.13 7.29
7/9/2021 6:00:00 PM 26.28 79.304 0.272 7.96 3.76 7.26
7/9/2021 6:15:00 PM 26.28 79.304 0.272 7.96 3.59 7.25
7/9/2021 6:30:00 PM 26.27 79.286 0.272 7.95 3.72 7.21
7/9/2021 6:45:00 PM 26.26 79.268 0.272 7.95 3.66 7.21
7/9/2021 7:00:00 PM 26.25 79.25 0.272 7.95 3.55 7.18
7/9/2021 7:15:00 PM 26.24 79.232 0.272 7.95 3.53 7.14
7/9/2021 7:30:00 PM 26.23 79.214 0.272 7.95 3.63 7.14
7/9/2021 7:45:00 PM 26.22 79.196 0.272 7.94 3.57 7.1
7/9/2021 8:00:00 PM 26.21 79.17799 0.272 7.95 3.47 7.1
7/9/2021 8:15:00 PM 26.2 79.16 0.272 7.93 3.32 7.07
7/9/2021 8:30:00 PM 26.2 79.16 0.272 7.92 3.09 7.03
7/9/2021 8:45:00 PM 26.19 79.142 0.272 7.92 3.24 6.99
7/9/2021 9:00:00 PM 26.18 79.124 0.272 7.93 3.09 6.99
7/9/2021 9:15:00 PM 26.17 79.106 0.272 7.92 3.07 6.95
7/9/2021 9:30:00 PM 26.16 79.088 0.272 7.91 3.07 6.93
7/9/2021 9:45:00 PM 26.15 79.07 0.272 7.9 2.8 6.9
7/9/2021 10:00:00 PM 26.14 79.052 0.272 7.91 2.96 6.88
7/9/2021 10:15:00 PM 26.14 79.052 0.272 7.9 2.86 6.86
7/9/2021 10:30:00 PM 26.13 79.034 0.272 7.89 2.96 6.81
7/9/2021 10:45:00 PM 26.12 79.016 0.272 7.89 2.82 6.82
7/9/2021 11:00:00 PM 26.11 78.998 0.272 7.89 2.75 6.79
7/9/2021 11:15:00 PM 26.1 78.98 0.272 7.89 2.62 6.74
7/9/2021 11:30:00 PM 26.1 78.98 0.272 7.88 2.88 6.71
7/9/2021 11:45:00 PM 26.09 78.962 0.272 7.88 2.54 6.69
7/10/2021 12:00:00 AM 26.08 78.944 0.272 7.87 2.58 6.63
7/10/2021 12:15:00 AM 26.07 78.926 0.273 7.87 2.6 6.62
7/10/2021 12:30:00 AM 26.07 78.926 0.273 7.87 2.64 6.61
7/10/2021 12:45:00 AM 26.06 78.908 0.273 7.85 2.5 6.6
7/10/2021 1:00:00 AM 26.05 78.89 0.273 7.86 2.48 6.55
7/10/2021 1:15:00 AM 26.04 78.872 0.273 7.86 2.42 6.55
7/10/2021 1:30:00 AM 26.03 78.854 0.273 7.83 2.31 6.49
7/10/2021 1:45:00 AM 26.03 78.854 0.273 7.84 2.4 6.46
7/10/2021 2:00:00 AM 26.02 78.836 0.273 7.83 2.43 6.44
7/10/2021 2:15:00 AM 26.01 78.818 0.273 7.84 2.47 6.41
7/10/2021 2:30:00 AM 26 78.8 0.273 7.83 2.23 6.38
7/10/2021 2:45:00 AM 25.99 78.782 0.273 7.81 2.28 6.35
7/10/2021 3:00:00 AM 25.99 78.782 0.273 7.81 2.19 6.34
7/10/2021 3:15:00 AM 25.98 78.764 0.273 7.82 2.44 6.32
7/10/2021 3:30:00 AM 25.97 78.746 0.273 7.81 2.23 6.29
7/10/2021 3:45:00 AM 25.96 78.728 0.273 7.8 2.1 6.27
7/10/2021 4:00:00 AM 25.95 78.71 0.273 7.81 2.23 6.25
7/10/2021 4:15:00 AM 25.94 78.692 0.273 7.81 2.13 6.23
7/10/2021 4:30:00 AM 25.9 78.62 0.273 7.8 2.22 6.2
7/10/2021 4:45:00 AM 25.85 78.53 0.273 7.79 2.22 6.18
7/10/2021 5:00:00 AM 25.8 78.44 0.273 7.8 2.25 6.18
7/10/2021 5:15:00 AM 25.75 78.35 0.273 7.8 2.1 6.2
7/10/2021 5:30:00 AM 25.71 78.278 0.273 7.81 2.26 6.21
7/10/2021 5:45:00 AM 25.68 78.224 0.274 7.81 2.21 6.31
7/10/2021 6:00:00 AM 25.64 78.152 0.274 7.82 2.2 6.26
7/10/2021 6:15:00 AM 25.6 78.08 0.274 7.82 2.2 6.28
7/10/2021 6:30:00 AM 25.56 78.008 0.274 7.83 2.09 6.24
7/10/2021 6:45:00 AM 25.52 77.936 0.274 7.81 2.14 6.29
7/10/2021 7:00:00 AM 25.49 77.882 0.274 7.83 2.04 6.33
7/10/2021 7:15:00 AM 25.47 77.846 0.274 7.83 2.13 6.31
7/10/2021 7:30:00 AM 25.44 77.792 0.274 7.84 2.09 6.32
7/10/2021 7:45:00 AM 25.41 77.738 0.274 7.84 2.26 6.35
7/10/2021 8:00:00 AM 25.39 77.702 0.274 7.85 2.34 6.4
7/10/2021 8:15:00 AM 25.37 77.666 0.274 7.84 2.04 6.42
7/10/2021 8:30:00 AM 25.35 77.63 0.274 7.85 2.03 6.37
7/10/2021 8:45:00 AM 25.33 77.594 0.274 7.85 2.06 6.4
7/10/2021 9:00:00 AM 25.32 77.576 0.274 7.85 1.98 6.42
7/10/2021 9:15:00 AM 25.31 77.558 0.274 7.85 2.07 6.41
7/10/2021 9:30:00 AM 25.3 77.54 0.274 7.87 2.01 6.39
7/10/2021 9:45:00 AM 25.3 77.54 0.274 7.86 2.04 6.35
7/10/2021 10:00:00 AM 25.31 77.558 0.274 7.86 1.87 6.32
7/10/2021 10:15:00 AM 25.33 77.594 0.274 7.87 1.8 6.32
7/10/2021 10:30:00 AM 25.32 77.576 0.274 7.87 2.22 6.4
7/10/2021 10:45:00 AM 25.32 77.576 0.274 7.88 1.82 6.44
7/10/2021 11:00:00 AM 25.32 77.576 0.274 7.88 1.96 6.41
7/10/2021 11:15:00 AM 25.33 77.594 0.274 7.87 1.85 6.39
7/10/2021 11:30:00 AM 25.36 77.648 0.274 7.88 2.02 6.44
7/10/2021 11:45:00 AM 25.4 77.72 0.273 7.89 2.33 6.58
7/10/2021 12:00:00 PM 25.41 77.738 0.272 7.91 2.53 6.84
7/10/2021 12:15:00 PM 25.44 77.792 0.271 7.92 2.22 6.82
7/10/2021 12:30:00 PM 25.46 77.828 0.271 7.91 2.4 6.83
7/10/2021 12:45:00 PM 25.47 77.846 0.271 7.9 2.19 6.85
7/10/2021 1:00:00 PM 25.47 77.846 0.271 7.93 2.31 6.87
7/10/2021 1:15:00 PM 25.47 77.846 0.271 7.91 2.17 6.86
7/10/2021 1:30:00 PM 25.47 77.846 0.271 7.91 1.91 6.85
7/10/2021 1:45:00 PM 25.47 77.846 0.271 7.92 1.97 6.84
7/10/2021 2:00:00 PM 25.47 77.846 0.27 7.91 2.01 6.84
7/10/2021 2:15:00 PM 25.46 77.828 0.27 7.92 2.08 6.84
7/10/2021 2:30:00 PM 25.46 77.828 0.27 7.92 2.16 6.83
7/10/2021 2:45:00 PM 25.46 77.828 0.27 7.91 2.22 6.81
7/10/2021 3:00:00 PM 25.45 77.81 0.27 7.91 1.79 6.81
7/10/2021 3:15:00 PM 25.45 77.81 0.27 7.91 2.02 6.81
7/10/2021 3:30:00 PM 25.44 77.792 0.27 7.91 1.82 6.8
7/10/2021 3:45:00 PM 25.44 77.792 0.27 7.91 1.93 6.79
7/10/2021 4:00:00 PM 25.43 77.774 0.27 7.91 1.94 6.77
7/10/2021 4:15:00 PM 25.42 77.756 0.27 7.9 1.84 6.75
7/10/2021 4:30:00 PM 25.42 77.756 0.27 7.91 1.75 6.74
7/10/2021 4:45:00 PM 25.41 77.738 0.27 7.9 1.67 6.73
7/10/2021 5:00:00 PM 25.41 77.738 0.27 7.89 1.67 6.72
7/10/2021 5:15:00 PM 25.4 77.72 0.27 7.9 1.68 6.71
7/10/2021 5:30:00 PM 25.39 77.702 0.27 7.9 1.72 6.69
7/10/2021 5:45:00 PM 25.39 77.702 0.27 7.9 1.67 6.68
7/10/2021 6:00:00 PM 25.38 77.684 0.27 7.9 1.54 6.67
7/10/2021 6:15:00 PM 25.38 77.684 0.27 7.89 1.62 6.65
7/10/2021 6:30:00 PM 25.37 77.666 0.27 7.89 1.63 6.64
7/10/2021 6:45:00 PM 25.36 77.648 0.27 7.9 1.64 6.62
7/10/2021 7:00:00 PM 25.36 77.648 0.27 7.89 1.66 6.6
7/10/2021 7:15:00 PM 25.35 77.63 0.27 7.88 1.54 6.6
7/10/2021 7:30:00 PM 25.35 77.63 0.27 7.89 1.49 6.59
7/10/2021 7:45:00 PM 25.34 77.612 0.27 7.89 1.33 6.57
7/10/2021 8:00:00 PM 25.33 77.594 0.27 7.87 1.59 6.55
7/10/2021 8:15:00 PM 25.33 77.594 0.27 7.88 1.58 6.53
7/10/2021 8:30:00 PM 25.32 77.576 0.27 7.87 1.5 6.52
7/10/2021 8:45:00 PM 25.32 77.576 0.27 7.88 1.4 6.51
7/10/2021 9:00:00 PM 25.31 77.558 0.27 7.87 1.46 6.48
7/10/2021 9:15:00 PM 25.3 77.54 0.27 7.87 1.41 6.47
7/10/2021 9:30:00 PM 25.3 77.54 0.27 7.85 1.44 6.44
7/10/2021 9:45:00 PM 25.29 77.522 0.27 7.85 1.5 6.42
7/10/2021 10:00:00 PM 25.29 77.522 0.27 7.85 1.38 6.42
7/10/2021 10:15:00 PM 25.28 77.504 0.27 7.85 1.36 6.39
7/10/2021 10:30:00 PM 25.28 77.504 0.27 7.86 1.39 6.39
7/10/2021 10:45:00 PM 25.27 77.486 0.27 7.85 1.36 6.37
7/10/2021 11:00:00 PM 25.26 77.468 0.27 7.84 1.32 6.33
7/10/2021 11:15:00 PM 25.26 77.468 0.27 7.85 1.32 6.33
7/10/2021 11:30:00 PM 25.25 77.45 0.27 7.85 1.37 6.3
7/10/2021 11:45:00 PM 25.24 77.432 0.27 7.85 1.34 6.31
7/11/2021 12:00:00 AM 25.24 77.432 0.27 7.84 1.4 6.29
7/11/2021 12:15:00 AM 25.23 77.414 0.27 7.83 1.31 6.26
7/11/2021 12:30:00 AM 25.22 77.396 0.27 7.82 1.29 6.24
7/11/2021 12:45:00 AM 25.22 77.396 0.27 7.83 1.25 6.25
7/11/2021 1:00:00 AM 25.21 77.378 0.27 7.83 1.32 6.21
7/11/2021 1:15:00 AM 25.21 77.378 0.27 7.82 1.29 6.18
7/11/2021 1:30:00 AM 25.2 77.36 0.27 7.82 1.26 6.2
7/11/2021 1:45:00 AM 25.19 77.342 0.27 7.82 1.14 6.16
7/11/2021 2:00:00 AM 25.19 77.342 0.27 7.82 1.22 6.15
7/11/2021 2:15:00 AM 25.18 77.324 0.27 7.82 1.21 6.12
7/11/2021 2:30:00 AM 25.17 77.306 0.27 7.82 1.3 6.1
7/11/2021 2:45:00 AM 25.16 77.288 0.27 7.81 1.27 6.1
7/11/2021 3:00:00 AM 25.16 77.288 0.27 7.81 1.23 6.07
7/11/2021 3:15:00 AM 25.15 77.27 0.27 7.81 1.19 6.03
7/11/2021 3:30:00 AM 25.14 77.252 0.27 7.8 1.08 6.04
7/11/2021 3:45:00 AM 25.14 77.252 0.27 7.8 1.16 5.99
7/11/2021 4:00:00 AM 25.13 77.234 0.27 7.8 1.13 5.99
7/11/2021 4:15:00 AM 25.13 77.234 0.27 7.78 1.2 5.95
7/11/2021 4:30:00 AM 25.12 77.216 0.27 7.79 1.16 5.94
7/11/2021 4:45:00 AM 25.11 77.198 0.27 7.79 1.1 5.89
7/11/2021 5:00:00 AM 25.1 77.18 0.27 7.79 1.09 5.89
7/11/2021 5:15:00 AM 25.08 77.144 0.27 7.78 1.34 5.87
7/11/2021 5:30:00 AM 25.02 77.036 0.27 7.75 1.55 5.82
7/11/2021 5:45:00 AM 24.98 76.964 0.27 7.74 1.52 5.78
7/11/2021 6:00:00 AM 24.95 76.91 0.269 7.74 2.64 5.78
7/11/2021 6:15:00 AM 24.91 76.838 0.267 7.73 2.23 5.8
7/11/2021 6:30:00 AM 24.86 76.748 0.265 7.74 1.96 5.82
7/11/2021 6:45:00 AM 24.8 76.64 0.261 7.74 2.51 5.91
7/11/2021 7:00:00 AM 24.76 76.568 0.259 7.74 3.29 5.98
7/11/2021 7:15:00 AM 24.73 76.514 0.256 7.73 3.12 6.01
7/11/2021 7:30:00 AM 24.69 76.442 0.254 7.73 3.55 6.06
7/11/2021 7:45:00 AM 24.65 76.37 0.254 7.75 3.85 6.09
7/11/2021 8:00:00 AM 24.62 76.316 0.252 7.75 3.91 6.09
7/11/2021 8:15:00 AM 24.58 76.244 0.25 7.75 4.64 6.12
7/11/2021 8:30:00 AM 24.55 76.19 0.249 7.76 3.76 6.14
7/11/2021 8:45:00 AM 24.52 76.136 0.248 7.76 4.2 6.14
7/11/2021 9:00:00 AM 24.49 76.082 0.248 7.76 4.73 6.11
7/11/2021 9:15:00 AM 24.46 76.028 0.249 7.76 4.02 6.1
7/11/2021 9:30:00 AM 24.44 75.992 0.248 7.76 4.15 6.09
7/11/2021 9:45:00 AM 24.42 75.956 0.247 7.75 4.2 6.1
7/11/2021 10:00:00 AM 24.41 75.938 0.246 7.76 4.21 6.11
7/11/2021 10:15:00 AM 24.4 75.92 0.245 7.77 3.75 6.12
7/11/2021 10:30:00 AM 24.39 75.902 0.244 7.76 4.28 6.15
7/11/2021 10:45:00 AM 24.38 75.884 0.244 7.77 3.91 6.08
7/11/2021 11:00:00 AM 24.37 75.866 0.244 7.77 3.82 6.07
7/11/2021 11:15:00 AM 24.36 75.848 0.244 7.77 3.87 6.06
7/11/2021 11:30:00 AM 24.35 75.83 0.243 7.79 4.16 6.02
7/11/2021 11:45:00 AM 24.34 75.812 0.243 7.77 3.97 6.03
7/11/2021 12:00:00 PM 24.34 75.812 0.24 7.77 3.89 6.17
7/11/2021 12:15:00 PM 24.33 75.794 0.239 7.78 4.02 6.15
7/11/2021 12:30:00 PM 24.33 75.794 0.24 7.77 3.84 6.09
7/11/2021 12:45:00 PM 24.34 75.812 0.24 7.77 3.81 6.02
7/11/2021 1:00:00 PM 24.34 75.812 0.239 7.77 5.47 6.16
7/11/2021 1:15:00 PM 24.33 75.794 0.238 7.77 4.59 6.19
7/11/2021 1:30:00 PM 24.33 75.794 0.235 7.78 6.23 6.36
7/11/2021 1:45:00 PM 24.34 75.812 0.232 7.78 5.15 6.52
7/11/2021 2:00:00 PM 24.34 75.812 0.233 7.78 5.32 6.48
7/11/2021 2:15:00 PM 24.33 75.794 0.233 7.78 5.23 6.52
7/11/2021 2:30:00 PM 24.33 75.794 0.233 7.78 5.2 6.5
7/11/2021 2:45:00 PM 24.33 75.794 0.231 7.78 5.24 6.47
7/11/2021 3:00:00 PM 24.33 75.794 0.232 7.75 5.44 6.46
7/11/2021 3:15:00 PM 24.33 75.794 0.232 7.78 4.82 6.44
7/11/2021 3:30:00 PM 24.33 75.794 0.232 7.78 4.57 6.41
7/11/2021 3:45:00 PM 24.33 75.794 0.232 7.8 4.38 6.4
7/11/2021 4:00:00 PM 24.33 75.794 0.231 7.78 4.55 6.41
7/11/2021 4:15:00 PM 24.33 75.794 0.231 7.78 4.34 6.38
7/11/2021 4:30:00 PM 24.33 75.794 0.231 7.77 4.68 6.36
7/11/2021 4:45:00 PM 24.33 75.794 0.232 7.78 4.22 6.36
7/11/2021 5:00:00 PM 24.33 75.794 0.232 7.78 3.85 6.34
7/11/2021 5:15:00 PM 24.32 75.776 0.232 7.77 3.87 6.32
7/11/2021 5:30:00 PM 24.32 75.776 0.232 7.78 3.82 6.29
7/11/2021 5:45:00 PM 24.32 75.776 0.232 7.78 3.84 6.28
7/11/2021 6:00:00 PM 24.32 75.776 0.231 7.77 3.64 6.26
7/11/2021 6:15:00 PM 24.32 75.776 0.231 7.76 3.7 6.23
7/11/2021 6:30:00 PM 24.32 75.776 0.231 7.75 3.77 6.22
7/11/2021 6:45:00 PM 24.32 75.776 0.231 7.75 3.51 6.21
7/11/2021 7:00:00 PM 24.31 75.758 0.231 7.77 3.74 6.2
7/11/2021 7:15:00 PM 24.31 75.758 0.231 7.75 3.42 6.18
7/11/2021 7:30:00 PM 24.31 75.758 0.231 7.76 3.58 6.15
7/11/2021 7:45:00 PM 24.31 75.758 0.231 7.76 3.67 6.14
7/11/2021 8:00:00 PM 24.31 75.758 0.231 7.71 3.52 6.13
7/11/2021 8:15:00 PM 24.31 75.758 0.231 7.73 3.44 6.1
7/11/2021 8:30:00 PM 24.3 75.74 0.231 7.71 3.32 6.08
7/11/2021 8:45:00 PM 24.3 75.74 0.231 7.72 3.29 6.07
7/11/2021 9:00:00 PM 24.3 75.74 0.231 7.74 3.24 6.04
7/11/2021 9:15:00 PM 24.3 75.74 0.231 7.73 3.32 6.03
7/11/2021 9:30:00 PM 24.29 75.722 0.231 7.72 3.18 6
7/11/2021 9:45:00 PM 24.29 75.722 0.23 7.71 3.27 6
7/11/2021 10:00:00 PM 24.29 75.722 0.231 7.73 3.21 5.98
7/11/2021 10:15:00 PM 24.28 75.704 0.23 7.72 3.22 5.95
7/11/2021 10:30:00 PM 24.28 75.704 0.23 7.7 3.14 5.92
7/11/2021 10:45:00 PM 24.28 75.704 0.23 7.7 3.15 5.9
7/11/2021 11:00:00 PM 24.28 75.704 0.23 7.72 3.08 5.91
7/11/2021 11:15:00 PM 24.27 75.686 0.231 7.7 2.99 5.88
7/11/2021 11:30:00 PM 24.27 75.686 0.231 7.71 3 5.87
7/11/2021 11:45:00 PM 24.27 75.686 0.23 7.68 2.95 5.85
7/12/2021 12:00:00 AM 24.26 75.668 0.231 7.7 2.89 5.85
7/12/2021 12:15:00 AM 24.26 75.668 0.23 7.71 2.94 5.83
7/12/2021 12:30:00 AM 24.26 75.668 0.23 7.67 2.89 5.81
7/12/2021 12:45:00 AM 24.26 75.668 0.231 7.7 2.91 5.8
7/12/2021 1:00:00 AM 24.25 75.65 0.23 7.69 3.08 5.75
7/12/2021 1:15:00 AM 24.25 75.65 0.23 7.67 2.87 5.71
7/12/2021 1:30:00 AM 24.25 75.65 0.23 7.67 2.97 5.71
7/12/2021 1:45:00 AM 24.24 75.632 0.23 7.67 2.76 5.69
7/12/2021 2:00:00 AM 24.24 75.632 0.23 7.67 2.64 5.65
7/12/2021 2:15:00 AM 24.24 75.632 0.23 7.67 2.79 5.66
7/12/2021 2:30:00 AM 24.23 75.614 0.23 7.68 2.68 5.66
7/12/2021 2:45:00 AM 24.23 75.614 0.23 7.68 2.71 5.65
7/12/2021 3:00:00 AM 24.22 75.596 0.23 7.67 2.63 5.6
7/12/2021 3:15:00 AM 24.22 75.596 0.23 7.68 2.56 5.6
7/12/2021 3:30:00 AM 24.22 75.596 0.23 7.66 2.66 5.58
7/12/2021 3:45:00 AM 24.21 75.578 0.23 7.65 2.61 5.54
7/12/2021 4:00:00 AM 24.21 75.578 0.23 7.65 2.61 5.51
7/12/2021 4:15:00 AM 24.21 75.578 0.23 7.63 2.58 5.49
7/12/2021 4:30:00 AM 24.2 75.56 0.23 7.65 2.67 5.47
7/12/2021 4:45:00 AM 24.2 75.56 0.23 7.66 2.56 5.47
7/12/2021 5:00:00 AM 24.19 75.542 0.23 7.66 2.51 5.43
7/12/2021 5:15:00 AM 24.19 75.542 0.23 7.62 2.54 5.38
7/12/2021 5:30:00 AM 24.19 75.542 0.23 7.62 2.46 5.38
7/12/2021 5:45:00 AM 24.18 75.524 0.23 7.65 2.41 5.4
7/12/2021 6:00:00 AM 24.17 75.506 0.23 7.67 2.31 5.34
7/12/2021 6:15:00 AM 24.15 75.47 0.23 7.66 2.45 5.3
7/12/2021 6:30:00 AM 24.16 75.488 0.23 7.64 2.35 5.26
7/12/2021 6:45:00 AM 24.18 75.524 0.231 7.65 2.54 5.22
7/12/2021 7:00:00 AM 24.2 75.56 0.231 7.61 3.12 5.23
7/12/2021 7:15:00 AM 24.22 75.596 0.231 7.59 3.09 5.16
7/12/2021 7:30:00 AM 24.23 75.614 0.231 7.59 3.05 5.13
7/12/2021 7:45:00 AM 24.24 75.632 0.231 7.58 2.81 5.07
7/12/2021 8:00:00 AM 24.25 75.65 0.232 7.58 2.72 5.03
7/12/2021 8:15:00 AM 24.27 75.686 0.232 7.58 2.66 5.01
7/12/2021 8:30:00 AM 24.29 75.722 0.233 7.58 2.9 5
7/12/2021 8:45:00 AM 24.32 75.776 0.233 7.57 2.86 4.92
7/12/2021 9:00:00 AM 24.34 75.812 0.234 7.55 2.99 5.05
7/12/2021 9:15:00 AM 24.36 75.848 0.235 7.53 3.13 5.05
7/12/2021 9:30:00 AM 24.38 75.884 0.235 7.52 2.99 4.99
7/12/2021 9:45:00 AM 24.39 75.902 0.236 7.52 3.45 5.03
7/12/2021 10:00:00 AM 24.42 75.956 0.236 7.52 3.04 5.13
7/12/2021 10:15:00 AM 24.43 75.974 0.237 7.51 3.07 5.05
7/12/2021 10:30:00 AM 24.46 76.028 0.237 7.51 3.28 5.02
7/12/2021 10:45:00 AM 24.5 76.1 0.238 7.51 3.37 4.96
7/12/2021 11:00:00 AM 24.54 76.172 0.239 7.52 3.72 5.07
7/12/2021 11:15:00 AM 24.6 76.28 0.24 7.53 3.55 5.17
7/12/2021 11:30:00 AM 24.66 76.388 0.24 7.55 3.76 4.99
7/12/2021 11:45:00 AM 24.71 76.478 0.241 7.55 4.02 5.36
7/12/2021 12:00:00 PM 24.74 76.532 0.241 7.54 3.84 5.35
7/12/2021 12:15:00 PM 24.78 76.604 0.242 7.57 4.42 5.53
7/12/2021 12:30:00 PM 24.82 76.676 0.242 7.57 3.89 5.63
7/12/2021 12:45:00 PM 24.86 76.748 0.243 7.54 4.62 5.59
7/12/2021 1:00:00 PM 24.92 76.856 0.243 7.54 4.18 5.68
7/12/2021 1:15:00 PM 25.02 77.036 0.244 7.59 4.72 5.75
7/12/2021 1:30:00 PM 25.13 77.234 0.244 7.6 5.34 6.08
7/12/2021 1:45:00 PM 25.19 77.342 0.245 7.61 4.94 6.15
7/12/2021 2:00:00 PM 25.27 77.486 0.245 7.62 4.98 6.23
7/12/2021 2:15:00 PM 25.33 77.594 0.245 7.58 5.67 6.29
7/12/2021 2:30:00 PM 25.39 77.702 0.246 7.59 5.89 6.32
7/12/2021 2:45:00 PM 25.45 77.81 0.246 7.58 5.69 5.85
7/12/2021 3:00:00 PM 25.5 77.9 0.246 7.59 5.49 6.32
7/12/2021 3:15:00 PM 25.51 77.918 0.246 7.7 6.64 6.82
7/12/2021 3:30:00 PM 25.52 77.936 0.245 7.71 5.55 6.87
7/12/2021 3:45:00 PM 25.53 77.954 0.245 7.72 5.65 6.97
7/12/2021 4:00:00 PM 25.53 77.954 0.245 7.72 6.04 7.02
7/12/2021 4:15:00 PM 25.53 77.954 0.245 7.76 5.24 6.99
7/12/2021 4:30:00 PM 25.53 77.954 0.245 7.74 5.31 6.89
7/12/2021 4:45:00 PM 25.53 77.954 0.245 7.74 4.74 6.87
7/12/2021 5:00:00 PM 25.52 77.936 0.245 7.73 4.31 6.81
7/12/2021 5:15:00 PM 25.52 77.936 0.245 7.73 4.38 6.84
7/12/2021 5:30:00 PM 25.52 77.936 0.245 7.76 4.06 6.81
7/12/2021 5:45:00 PM 25.51 77.918 0.245 7.74 4.32 6.77
7/12/2021 6:00:00 PM 25.5 77.9 0.246 7.75 4.16 6.73
7/12/2021 6:15:00 PM 25.5 77.9 0.245 7.74 4.14 6.73
7/12/2021 6:30:00 PM 25.49 77.882 0.246 7.75 3.89 6.69
7/12/2021 6:45:00 PM 25.49 77.882 0.246 7.74 3.97 6.71
7/12/2021 7:00:00 PM 25.48 77.864 0.245 7.74 3.66 6.68
7/12/2021 7:15:00 PM 25.47 77.846 0.246 7.73 3.8 6.57
7/12/2021 7:30:00 PM 25.47 77.846 0.246 7.74 3.81 6.57
7/12/2021 7:45:00 PM 25.46 77.828 0.246 7.73 3.58 6.54
7/12/2021 8:00:00 PM 25.45 77.81 0.246 7.72 3.59 6.53
7/12/2021 8:15:00 PM 25.44 77.792 0.246 7.74 3.61 6.48
7/12/2021 8:30:00 PM 25.44 77.792 0.246 7.74 3.4 6.44
7/12/2021 8:45:00 PM 25.43 77.774 0.246 7.74 3.65 6.41
7/12/2021 9:00:00 PM 25.42 77.756 0.246 7.7 3.42 6.38
7/12/2021 9:15:00 PM 25.42 77.756 0.246 7.74 3.56 6.43
7/12/2021 9:30:00 PM 25.41 77.738 0.246 7.74 3.45 6.39
7/12/2021 9:45:00 PM 25.4 77.72 0.246 7.74 3.43 6.39
7/12/2021 10:00:00 PM 25.4 77.72 0.246 7.72 3.34 6.32
7/12/2021 10:15:00 PM 25.39 77.702 0.246 7.73 3.24 6.29
7/12/2021 10:30:00 PM 25.38 77.684 0.246 7.73 3.39 6.31
7/12/2021 10:45:00 PM 25.37 77.666 0.246 7.73 3.18 6.26
7/12/2021 11:00:00 PM 25.37 77.666 0.246 7.73 3.23 6.23
7/12/2021 11:15:00 PM 25.36 77.648 0.246 7.73 3.22 6.21
7/12/2021 11:30:00 PM 25.35 77.63 0.246 7.73 3.09 6.21
7/12/2021 11:45:00 PM 25.35 77.63 0.246 7.7 3.01 6.18
7/13/2021 12:00:00 AM 25.34 77.612 0.246 7.72 3.11 6.12
7/13/2021 12:15:00 AM 25.33 77.594 0.246 7.73 3.06 6.11
7/13/2021 12:30:00 AM 25.33 77.594 0.246 7.72 2.91 6.08
7/13/2021 12:45:00 AM 25.32 77.576 0.246 7.71 3.01 6.05
7/13/2021 1:00:00 AM 25.32 77.576 0.246 7.72 2.9 6.07
7/13/2021 1:15:00 AM 25.31 77.558 0.246 7.72 2.9 6.04
7/13/2021 1:30:00 AM 25.3 77.54 0.246 7.72 2.81 6.02
7/13/2021 1:45:00 AM 25.29 77.522 0.246 7.72 2.81 5.99
7/13/2021 2:00:00 AM 25.29 77.522 0.246 7.72 2.87 5.96
7/13/2021 2:15:00 AM 25.28 77.504 0.246 7.71 2.77 5.93
7/13/2021 2:30:00 AM 25.28 77.504 0.246 7.72 2.9 5.91
7/13/2021 2:45:00 AM 25.27 77.486 0.246 7.72 2.73 5.91
7/13/2021 3:00:00 AM 25.26 77.468 0.246 7.71 2.72 5.86
7/13/2021 3:15:00 AM 25.26 77.468 0.246 7.7 2.69 5.87
7/13/2021 3:30:00 AM 25.25 77.45 0.246 7.72 2.7 5.83
7/13/2021 3:45:00 AM 25.25 77.45 0.246 7.72 2.71 5.82
7/13/2021 4:00:00 AM 25.24 77.432 0.246 7.72 2.55 5.81
7/13/2021 4:15:00 AM 25.23 77.414 0.246 7.71 2.67 5.77
7/13/2021 4:30:00 AM 25.23 77.414 0.246 7.71 2.57 5.74
7/13/2021 4:45:00 AM 25.22 77.396 0.246 7.7 2.66 5.71
7/13/2021 5:00:00 AM 25.22 77.396 0.246 7.72 2.57 5.66
7/13/2021 5:15:00 AM 25.2 77.36 0.246 7.72 2.48 5.64
7/13/2021 5:30:00 AM 25.12 77.216 0.246 7.7 2.56 5.64
7/13/2021 5:45:00 AM 25.01 77.018 0.246 7.71 2.62 5.62
7/13/2021 6:00:00 AM 24.91 76.838 0.246 7.7 2.42 5.6
7/13/2021 6:15:00 AM 24.82 76.676 0.246 7.7 2.61 5.55
7/13/2021 6:30:00 AM 24.75 76.55 0.245 7.71 2.61 5.6
7/13/2021 6:45:00 AM 24.69 76.442 0.245 7.7 2.8 5.54
7/13/2021 7:00:00 AM 24.65 76.37 0.244 7.71 2.97 5.6
7/13/2021 7:15:00 AM 24.61 76.298 0.244 7.72 3.44 5.68
7/13/2021 7:30:00 AM 24.58 76.244 0.243 7.72 3.56 5.71
7/13/2021 7:45:00 AM 24.55 76.19 0.244 7.72 2.92 5.64
7/13/2021 8:00:00 AM 24.54 76.172 0.243 7.71 3.03 5.64
7/13/2021 8:15:00 AM 24.53 76.154 0.243 7.72 2.88 5.61
7/13/2021 8:30:00 AM 24.53 76.154 0.243 7.73 2.82 5.53
7/13/2021 8:45:00 AM 24.53 76.154 0.244 7.72 2.72 5.37
7/13/2021 9:00:00 AM 24.54 76.172 0.244 7.72 2.76 5.34
7/13/2021 9:15:00 AM 24.54 76.172 0.244 7.72 3.11 5.28
7/13/2021 9:30:00 AM 24.54 76.172 0.243 7.7 2.76 5.3
7/13/2021 9:45:00 AM 24.54 76.172 0.243 7.7 2.65 5.24
7/13/2021 10:00:00 AM 24.54 76.172 0.243 7.71 3.02 5.24
7/13/2021 10:15:00 AM 24.54 76.172 0.243 7.72 2.81 5.25
7/13/2021 10:30:00 AM 24.55 76.19 0.243 7.7 2.59 5.14
7/13/2021 10:45:00 AM 24.55 76.19 0.243 7.69 2.52 5.09
7/13/2021 11:00:00 AM 24.56 76.208 0.242 7.7 2.86 5.05
7/13/2021 11:15:00 AM 24.58 76.244 0.241 7.69 3.17 5.22
7/13/2021 11:30:00 AM 24.61 76.298 0.239 7.7 3.5 5.48
7/13/2021 11:45:00 AM 24.63 76.334 0.237 7.73 4.68 6.08
7/13/2021 12:00:00 PM 24.65 76.37 0.236 7.73 5.24 6.09
7/13/2021 12:15:00 PM 24.68 76.424 0.235 7.75 4.79 6.2
7/13/2021 12:30:00 PM 24.7 76.46 0.236 7.74 4.55 6.22
7/13/2021 12:45:00 PM 24.72 76.496 0.235 7.76 4.77 6.2
7/13/2021 1:00:00 PM 24.75 76.55 0.235 7.76 5.52 6.29
7/13/2021 1:15:00 PM 24.77 76.586 0.235 7.75 4.65 6.29
7/13/2021 1:30:00 PM 24.81 76.658 0.235 7.76 4.75 6.25
7/13/2021 1:45:00 PM 24.85 76.73 0.235 7.77 5.65 6.31
7/13/2021 2:00:00 PM 24.91 76.838 0.234 7.75 5.18 6.32
7/13/2021 2:15:00 PM 24.97 76.946 0.234 7.76 5.45 6.39
7/13/2021 2:30:00 PM 25.03 77.054 0.232 7.78 6.34 6.76
7/13/2021 2:45:00 PM 25.05 77.09 0.232 7.77 5.9 6.64
7/13/2021 3:00:00 PM 25.08 77.144 0.231 7.78 5.74 6.74
7/13/2021 3:15:00 PM 25.1 77.18 0.231 7.79 5.84 6.82
7/13/2021 3:30:00 PM 25.1 77.18 0.231 7.79 5.83 6.77
7/13/2021 3:45:00 PM 25.1 77.18 0.232 7.78 5.35 6.79
7/13/2021 4:00:00 PM 25.11 77.198 0.232 7.78 5.25 6.66
7/13/2021 4:15:00 PM 25.11 77.198 0.232 7.78 5.32 6.67
7/13/2021 4:30:00 PM 25.1 77.18 0.231 7.78 5.2 6.72
7/13/2021 4:45:00 PM 25.1 77.18 0.231 7.78 5.34 6.74
7/13/2021 5:00:00 PM 25.1 77.18 0.231 7.8 5.24 6.8
7/13/2021 5:15:00 PM 25.09 77.162 0.23 7.8 5.37 6.83
7/13/2021 5:30:00 PM 25.09 77.162 0.23 7.8 5.11 6.81
7/13/2021 5:45:00 PM 25.08 77.144 0.23 7.79 5.5 6.82
7/13/2021 6:00:00 PM 25.08 77.144 0.23 7.79 5.1 6.79
7/13/2021 6:15:00 PM 25.07 77.126 0.23 7.79 5.27 6.83
7/13/2021 6:30:00 PM 25.07 77.126 0.23 7.79 5.1 6.85
7/13/2021 6:45:00 PM 25.06 77.108 0.23 7.78 4.95 6.81
7/13/2021 7:00:00 PM 25.05 77.09 0.23 7.77 4.93 6.77
7/13/2021 7:15:00 PM 25.05 77.09 0.23 7.78 4.73 6.79
7/13/2021 7:30:00 PM 25.04 77.07201 0.23 7.78 4.75 6.72
7/13/2021 7:45:00 PM 25.04 77.07201 0.23 7.77 4.75 6.72
7/13/2021 8:00:00 PM 25.03 77.054 0.23 7.77 4.92 6.71
7/13/2021 8:15:00 PM 25.02 77.036 0.23 7.77 4.68 6.7
7/13/2021 8:30:00 PM 25.02 77.036 0.23 7.78 4.58 6.65
7/13/2021 8:45:00 PM 25.01 77.018 0.23 7.76 4.76 6.61
7/13/2021 9:00:00 PM 25.01 77.018 0.23 7.77 4.74 6.61
7/13/2021 9:15:00 PM 25 77 0.23 7.75 4.66 6.59
7/13/2021 9:30:00 PM 25 77 0.23 7.76 4.64 6.56
7/13/2021 9:45:00 PM 24.99 76.982 0.23 7.75 4.61 6.52
7/13/2021 10:00:00 PM 24.98 76.964 0.23 7.76 4.55 6.51
7/13/2021 10:15:00 PM 24.98 76.964 0.23 7.75 4.36 6.48
7/13/2021 10:30:00 PM 24.97 76.946 0.23 7.75 4.31 6.45
7/13/2021 10:45:00 PM 24.97 76.946 0.23 7.76 4.31 6.45
7/13/2021 11:00:00 PM 24.96 76.92799 0.23 7.73 4.17 6.37
7/13/2021 11:15:00 PM 24.96 76.92799 0.23 7.73 4.26 6.36
7/13/2021 11:30:00 PM 24.95 76.91 0.23 7.75 4.17 6.36
7/13/2021 11:45:00 PM 24.95 76.91 0.23 7.74 4.45 6.33
7/14/2021 12:00:00 AM 24.94 76.892 0.23 7.73 4.15 6.28
7/14/2021 12:15:00 AM 24.94 76.892 0.23 7.73 4.2 6.3
7/14/2021 12:30:00 AM 24.93 76.874 0.23 7.73 4.41 6.28
7/14/2021 12:45:00 AM 24.93 76.874 0.23 7.73 3.97 6.27
7/14/2021 1:00:00 AM 24.92 76.856 0.23 7.73 3.92 6.26
7/14/2021 1:15:00 AM 24.92 76.856 0.23 7.73 3.83 6.25
7/14/2021 1:30:00 AM 24.91 76.838 0.23 7.73 3.95 6.21
7/14/2021 1:45:00 AM 24.91 76.838 0.23 7.73 3.84 6.2
7/14/2021 2:00:00 AM 24.9 76.82 0.23 7.72 4.06 6.18
7/14/2021 2:15:00 AM 24.89 76.802 0.23 7.72 3.86 6.19
7/14/2021 2:30:00 AM 24.89 76.802 0.23 7.72 3.84 6.17
7/14/2021 2:45:00 AM 24.88 76.784 0.23 7.71 4.09 6.22
7/14/2021 3:00:00 AM 24.85 76.73 0.23 7.67 4.29 6.05
7/14/2021 3:15:00 AM 24.84 76.712 0.229 7.7 4.83 6.4
7/14/2021 3:30:00 AM 24.84 76.712 0.229 7.72 4.67 6.46
7/14/2021 3:45:00 AM 24.84 76.712 0.229 7.73 4.62 6.43
7/14/2021 4:00:00 AM 24.84 76.712 0.229 7.71 4.72 6.43
7/14/2021 4:15:00 AM 24.83 76.694 0.229 7.7 4.46 6.36
7/14/2021 4:30:00 AM 24.83 76.694 0.229 7.7 4.54 6.31
7/14/2021 4:45:00 AM 24.82 76.676 0.229 7.7 4.19 6.3
7/14/2021 5:00:00 AM 24.83 76.694 0.229 7.69 4.1 6.24
7/14/2021 5:15:00 AM 24.82 76.676 0.23 7.7 4.22 6.2
7/14/2021 5:30:00 AM 24.78 76.604 0.229 7.7 4.21 6.22
7/14/2021 5:45:00 AM 24.61 76.298 0.229 7.69 4.36 6.2
7/14/2021 6:00:00 AM 24.21 75.578 0.229 7.69 4.56 6.2
7/14/2021 6:15:00 AM 23.53 74.354 0.229 7.69 4.55 6.19
7/14/2021 6:30:00 AM 23.11 73.598 0.229 7.68 4.43 6.17
7/14/2021 6:45:00 AM 22.82 73.076 0.228 7.68 4.44 6.17
7/14/2021 7:00:00 AM 22.63 72.734 0.228 7.69 4.46 6.16
7/14/2021 7:15:00 AM 22.5 72.5 0.228 7.69 4.32 6.15
7/14/2021 7:30:00 AM 22.4 72.32 0.227 7.69 4.4 6.14
7/14/2021 7:45:00 AM 22.32 72.176 0.227 7.69 4.42 6.14
7/14/2021 8:00:00 AM 22.26 72.068 0.227 7.69 4.63 6.12
7/14/2021 8:15:00 AM 22.21 71.978 0.226 7.69 4.42 6.11
7/14/2021 8:30:00 AM 22.17 71.906 0.227 7.7 4.71 6.1
7/14/2021 8:45:00 AM 22.15 71.87 0.226 7.7 4.86 6.08
7/14/2021 9:00:00 AM 22.12 71.816 0.225 7.69 4.85 6.06
7/14/2021 9:15:00 AM 22.1 71.78 0.223 7.69 5.26 6.05
7/14/2021 9:30:00 AM 22.09 71.762 0.224 7.69 5.66 6.02
7/14/2021 9:45:00 AM 22.08 71.744 0.224 7.69 5.24 6
7/14/2021 10:00:00 AM 22.07 71.726 0.223 7.69 5.33 5.98
7/14/2021 10:15:00 AM 22.07 71.726 0.224 7.69 5.1 5.92
7/14/2021 10:30:00 AM 22.08 71.744 0.224 7.7 5.23 5.92
7/14/2021 10:45:00 AM 22.09 71.762 0.224 7.7 4.83 5.9
7/14/2021 11:00:00 AM 22.09 71.762 0.224 7.69 5.92 5.97
7/14/2021 11:15:00 AM 22.1 71.78 0.223 7.68 5.88 5.92
7/14/2021 11:30:00 AM 22.12 71.816 0.222 7.68 5.28 5.89
7/14/2021 11:45:00 AM 22.13 71.834 0.223 7.68 5.36 5.87
7/14/2021 12:00:00 PM 22.15 71.87 0.221 7.68 5.14 5.88
7/14/2021 12:15:00 PM 22.17 71.906 0.223 7.68 5.55 5.84
7/14/2021 12:30:00 PM 22.19 71.942 0.221 7.68 5.52 5.83
7/14/2021 12:45:00 PM 22.21 71.978 0.221 7.67 5.78 5.79
7/14/2021 1:00:00 PM 22.22 71.996 0.222 7.68 6.58 5.76
7/14/2021 1:15:00 PM 22.25 72.05 0.221 7.68 6.18 5.79
7/14/2021 1:30:00 PM 22.28 72.104 0.22 7.68 7.28 5.79
7/14/2021 1:45:00 PM 22.3 72.14 0.22 7.68 6.69 5.75
7/14/2021 2:00:00 PM 22.33 72.194 0.22 7.68 6.25 5.73
7/14/2021 2:15:00 PM 22.36 72.248 0.219 7.68 8 5.76
7/14/2021 2:30:00 PM 22.37 72.266 0.219 7.67 6.71 5.79
7/14/2021 2:45:00 PM 22.39 72.302 0.219 7.67 7.05 5.75
7/14/2021 3:00:00 PM 22.41 72.338 0.219 7.67 6.98 5.72
7/14/2021 3:15:00 PM 22.42 72.356 0.219 7.67 6.95 5.71
7/14/2021 3:30:00 PM 22.43 72.374 0.219 7.68 6.83 5.71
7/14/2021 3:45:00 PM 22.43 72.374 0.219 7.68 7.27 5.71
7/14/2021 4:00:00 PM 22.44 72.392 0.219 7.68 6.81 5.69
7/14/2021 4:15:00 PM 22.44 72.392 0.219 7.68 6.9 5.67
7/14/2021 4:30:00 PM 22.44 72.392 0.219 7.68 6.68 5.66
7/14/2021 4:45:00 PM 22.44 72.392 0.219 7.68 6.7 5.64
7/14/2021 5:00:00 PM 22.45 72.41 0.219 7.69 6.59 5.64
7/14/2021 5:15:00 PM 22.45 72.41 0.219 7.68 6.69 5.61
7/14/2021 5:30:00 PM 22.45 72.41 0.219 7.67 6.69 5.61
7/14/2021 5:45:00 PM 22.45 72.41 0.219 7.67 6.7 5.61
7/14/2021 6:00:00 PM 22.45 72.41 0.219 7.68 6.66 5.59
7/14/2021 6:15:00 PM 22.45 72.41 0.219 7.68 6.74 5.57
7/14/2021 6:30:00 PM 22.45 72.41 0.219 7.68 6.6 5.55
7/14/2021 6:45:00 PM 22.45 72.41 0.219 7.69 6.64 5.54
7/14/2021 7:00:00 PM 22.45 72.41 0.219 7.69 6.52 5.51
7/14/2021 7:15:00 PM 22.45 72.41 0.219 7.68 6.68 5.51
7/14/2021 7:30:00 PM 22.45 72.41 0.219 7.67 6.62 5.5
7/14/2021 7:45:00 PM 22.45 72.41 0.219 7.67 6.55 5.47
7/14/2021 8:00:00 PM 22.45 72.41 0.219 7.67 6.55 5.44
7/14/2021 8:15:00 PM 22.45 72.41 0.219 7.67 6.75 5.44
7/14/2021 8:30:00 PM 22.45 72.41 0.219 7.68 6.34 5.43
7/14/2021 8:45:00 PM 22.45 72.41 0.219 7.67 6.55 5.42
7/14/2021 9:00:00 PM 22.46 72.42799 0.219 7.65 6.44 5.43
7/14/2021 9:15:00 PM 22.46 72.42799 0.219 7.67 6.63 5.4
7/14/2021 9:30:00 PM 22.46 72.42799 0.219 7.66 6.44 5.39
7/14/2021 9:45:00 PM 22.46 72.42799 0.219 7.67 6.59 5.35
7/14/2021 10:00:00 PM 22.46 72.42799 0.219 7.67 6.65 5.34
7/14/2021 10:15:00 PM 22.46 72.42799 0.219 7.68 6.47 5.33
7/14/2021 10:30:00 PM 22.46 72.42799 0.219 7.67 6.43 5.32
7/14/2021 10:45:00 PM 22.46 72.42799 0.219 7.67 6.47 5.33
7/14/2021 11:00:00 PM 22.46 72.42799 0.219 7.67 6.41 5.31
7/14/2021 11:15:00 PM 22.46 72.42799 0.219 7.67 6.62 5.28
7/14/2021 11:30:00 PM 22.46 72.42799 0.219 7.66 6.36 5.25
7/14/2021 11:45:00 PM 22.46 72.42799 0.219 7.66 6.48 5.23
7/15/2021 12:00:00 AM 22.47 72.446 0.219 7.66 6.38 5.2
7/15/2021 12:15:00 AM 22.47 72.446 0.219 7.67 6.5 5.19
7/15/2021 12:30:00 AM 22.46 72.42799 0.219 7.7 6.32 5.19
7/15/2021 12:45:00 AM 22.46 72.42799 0.219 7.68 6.35 5.16
7/15/2021 1:00:00 AM 22.46 72.42799 0.219 7.66 6.38 5.13
7/15/2021 1:15:00 AM 22.47 72.446 0.219 7.66 6.5 5.11
7/15/2021 1:30:00 AM 22.47 72.446 0.219 7.67 6.47 5.08
7/15/2021 1:45:00 AM 22.47 72.446 0.219 7.67 6.28 5.05
7/15/2021 2:00:00 AM 22.47 72.446 0.219 7.66 6.3 5.02
7/15/2021 2:15:00 AM 22.47 72.446 0.219 7.67 6.3 5.02
7/15/2021 2:30:00 AM 22.47 72.446 0.219 7.66 6.39 5.03
7/15/2021 2:45:00 AM 22.47 72.446 0.219 7.66 6.3 5.01
7/15/2021 3:00:00 AM 22.47 72.446 0.219 7.66 6.16 4.98
7/15/2021 3:15:00 AM 22.47 72.446 0.219 7.66 6.19 4.95
7/15/2021 3:30:00 AM 22.47 72.446 0.219 7.66 6.15 4.94
7/15/2021 3:45:00 AM 22.47 72.446 0.219 7.68 5.98 4.91
7/15/2021 4:00:00 AM 22.47 72.446 0.219 7.67 6.22 4.88
7/15/2021 4:15:00 AM 22.47 72.446 0.219 7.67 6.01 4.86
7/15/2021 4:30:00 AM 22.47 72.446 0.219 7.67 6.25 4.85
7/15/2021 4:45:00 AM 22.48 72.464 0.219 7.67 6.14 4.82
7/15/2021 5:00:00 AM 22.48 72.464 0.219 7.67 5.96 4.8
7/15/2021 5:15:00 AM 22.49 72.482 0.219 7.66 5.98 4.74
7/15/2021 5:30:00 AM 22.46 72.42799 0.219 7.66 6.53 4.77
7/15/2021 5:45:00 AM 22.42 72.356 0.217 7.65 6.68 4.89
7/15/2021 6:00:00 AM 22.37 72.266 0.218 7.65 6.58 4.81
7/15/2021 6:15:00 AM 22.34 72.212 0.218 7.65 6.28 4.8
7/15/2021 6:30:00 AM 22.33 72.194 0.218 7.65 6.33 4.8
7/15/2021 6:45:00 AM 22.32 72.176 0.219 7.65 6.39 4.8
7/15/2021 7:00:00 AM 22.31 72.158 0.218 7.65 6.91 4.85
7/15/2021 7:15:00 AM 22.31 72.158 0.217 7.66 7.42 4.84
7/15/2021 7:30:00 AM 22.32 72.176 0.216 7.66 6.78 4.84
7/15/2021 7:45:00 AM 22.32 72.176 0.217 7.66 6.79 4.81
7/15/2021 8:00:00 AM 22.33 72.194 0.217 7.66 6.27 4.8
7/15/2021 8:15:00 AM 22.34 72.212 0.218 7.66 6.19 4.72
7/15/2021 8:30:00 AM 22.36 72.248 0.215 7.65 6.71 4.7
7/15/2021 8:45:00 AM 22.37 72.266 0.216 7.65 6.52 4.77
7/15/2021 9:00:00 AM 22.39 72.302 0.215 7.65 7.07 4.8
7/15/2021 9:15:00 AM 22.41 72.338 0.215 7.64 6.24 4.8
7/15/2021 9:30:00 AM 22.44 72.392 0.215 7.64 6.85 4.84
7/15/2021 9:45:00 AM 22.47 72.446 0.214 7.64 7.51 4.91
7/15/2021 10:00:00 AM 22.5 72.5 0.212 7.64 7.31 4.94
7/15/2021 10:15:00 AM 22.53 72.554 0.21 7.64 8.19 5.05
7/15/2021 10:30:00 AM 22.56 72.608 0.206 7.63 9.04 5.11
7/15/2021 10:45:00 AM 22.59 72.662 0.206 7.63 10.21 5.16
7/15/2021 11:00:00 AM 22.62 72.716 0.205 7.63 9.2 5.22
7/15/2021 11:15:00 AM 22.67 72.806 0.196 7.63 10.51 5.43
7/15/2021 11:30:00 AM 22.72 72.896 0.198 7.63 12.09 5.48
7/15/2021 11:45:00 AM 22.76 72.968 0.194 7.64 11.49 5.61
7/15/2021 12:00:00 PM 22.79 73.022 0.195 7.64 11.28 5.63
7/15/2021 12:15:00 PM 22.81 73.058 0.194 7.64 11.26 5.66
7/15/2021 12:30:00 PM 22.84 73.112 0.193 7.62 11.9 5.75
7/15/2021 12:45:00 PM 22.88 73.184 0.185 7.64 13.71 6.08
7/15/2021 1:00:00 PM 22.91 73.238 0.186 7.63 17.99 6.07
7/15/2021 1:15:00 PM 22.95 73.31 0.18 7.64 13.78 6.14
7/15/2021 1:30:00 PM 22.98 73.364 0.18 7.64 14.9 6.14
7/15/2021 1:45:00 PM 23.01 73.418 0.185 7.64 15.85 6.22
7/15/2021 2:00:00 PM 23.03 73.454 0.184 7.64 15.34 6.34
7/15/2021 2:15:00 PM 23.05 73.49 0.183 7.64 15.12 6.35
7/15/2021 2:30:00 PM 23.06 73.508 0.182 7.64 14.34 6.44
7/15/2021 2:45:00 PM 23.06 73.508 0.184 7.65 14.13 6.38
7/15/2021 3:00:00 PM 23.06 73.508 0.181 7.64 14.07 6.35
7/15/2021 3:15:00 PM 23.06 73.508 0.18 7.65 16.66 6.52
7/15/2021 3:30:00 PM 23.06 73.508 0.177 7.64 16.55 6.49
7/15/2021 3:45:00 PM 23.06 73.508 0.18 7.64 14.14 6.43
7/15/2021 4:00:00 PM 23.06 73.508 0.181 7.64 13.41 6.39
7/15/2021 4:15:00 PM 23.06 73.508 0.179 7.64 12.99 6.44
7/15/2021 4:30:00 PM 23.06 73.508 0.182 7.64 13.16 6.36
7/15/2021 4:45:00 PM 23.06 73.508 0.181 7.64 13.06 6.36
7/15/2021 5:00:00 PM 23.06 73.508 0.183 7.63 12.61 6.35
7/15/2021 5:15:00 PM 23.06 73.508 0.183 7.64 12.16 6.29
7/15/2021 5:30:00 PM 23.06 73.508 0.183 7.63 11.86 6.24
7/15/2021 5:45:00 PM 23.06 73.508 0.181 7.64 11.91 6.26
7/15/2021 6:00:00 PM 23.06 73.508 0.182 7.64 11.69 6.22
7/15/2021 6:15:00 PM 23.05 73.49 0.18 7.63 11.76 6.24
7/15/2021 6:30:00 PM 23.05 73.49 0.18 7.64 12.08 6.23
7/15/2021 6:45:00 PM 23.05 73.49 0.179 7.64 12.06 6.24
7/15/2021 7:00:00 PM 23.05 73.49 0.179 7.62 11.99 6.26
7/15/2021 7:15:00 PM 23.05 73.49 0.179 7.62 11.85 6.2
7/15/2021 7:30:00 PM 23.05 73.49 0.178 7.63 11.73 6.21
7/15/2021 7:45:00 PM 23.05 73.49 0.179 7.64 11.72 6.18
7/15/2021 8:00:00 PM 23.05 73.49 0.178 7.62 11.42 6.16
7/15/2021 8:15:00 PM 23.04 73.472 0.179 7.62 11.4 6.16
7/15/2021 8:30:00 PM 23.04 73.472 0.179 7.62 11.51 6.14
7/15/2021 8:45:00 PM 23.04 73.472 0.179 7.63 11.21 6.14
7/15/2021 9:00:00 PM 23.04 73.472 0.179 7.61 11.07 6.11
7/15/2021 9:15:00 PM 23.04 73.472 0.178 7.62 11.22 6.09
7/15/2021 9:30:00 PM 23.04 73.472 0.179 7.61 10.92 6.08
7/15/2021 9:45:00 PM 23.03 73.454 0.178 7.61 10.87 6.07
7/15/2021 10:00:00 PM 23.03 73.454 0.177 7.61 11.19 6.08
7/15/2021 10:15:00 PM 23.03 73.454 0.177 7.61 10.8 6.04
7/15/2021 10:30:00 PM 23.03 73.454 0.177 7.6 10.76 6.04
7/15/2021 10:45:00 PM 23.03 73.454 0.178 7.61 10.77 6.01
7/15/2021 11:00:00 PM 23.02 73.436 0.179 7.6 10.74 6
7/15/2021 11:15:00 PM 23.02 73.436 0.176 7.61 11.01 5.98
7/15/2021 11:30:00 PM 23.02 73.436 0.178 7.6 10.88 5.95
7/15/2021 11:45:00 PM 23.02 73.436 0.178 7.6 10.41 5.93
7/16/2021 12:00:00 AM 23.02 73.436 0.176 7.6 10.53 5.9
7/16/2021 12:15:00 AM 23.01 73.418 0.176 7.6 10.54 5.88
7/16/2021 12:30:00 AM 23.01 73.418 0.177 7.59 10.38 5.86
7/16/2021 12:45:00 AM 23.01 73.418 0.176 7.58 10.31 5.85
7/16/2021 1:00:00 AM 23.01 73.418 0.177 7.6 10.27 5.84
7/16/2021 1:15:00 AM 23.01 73.418 0.177 7.59 10.1 5.83
7/16/2021 1:30:00 AM 23.01 73.418 0.177 7.59 10.33 5.81
7/16/2021 1:45:00 AM 23.01 73.418 0.177 7.59 10.25 5.78
7/16/2021 2:00:00 AM 23.01 73.418 0.177 7.59 10.22 5.77
7/16/2021 2:15:00 AM 23.01 73.418 0.177 7.59 10.4 5.76
7/16/2021 2:30:00 AM 23 73.4 0.177 7.59 9.94 5.76
7/16/2021 2:45:00 AM 23 73.4 0.177 7.58 10.06 5.75
7/16/2021 3:00:00 AM 23 73.4 0.176 7.57 10.22 5.71
7/16/2021 3:15:00 AM 23 73.4 0.176 7.58 10.05 5.71
7/16/2021 3:30:00 AM 23 73.4 0.176 7.57 9.89 5.69
7/16/2021 3:45:00 AM 23 73.4 0.176 7.58 9.89 5.68
7/16/2021 4:00:00 AM 22.99 73.382 0.177 7.57 10.18 5.66
7/16/2021 4:15:00 AM 22.99 73.382 0.176 7.57 10.03 5.65
7/16/2021 4:30:00 AM 22.99 73.382 0.175 7.58 9.82 5.64
7/16/2021 4:45:00 AM 22.99 73.382 0.176 7.58 9.92 5.61
7/16/2021 5:00:00 AM 23 73.4 0.178 7.58 9.68 5.52
7/16/2021 5:15:00 AM 23.01 73.418 0.18 7.59 9.48 5.54
7/16/2021 5:30:00 AM 22.96 73.328 0.177 7.57 10.37 5.63
7/16/2021 5:45:00 AM 22.88 73.184 0.176 7.57 10.56 5.66
7/16/2021 6:00:00 AM 22.82 73.076 0.177 7.59 10.45 5.64
7/16/2021 6:15:00 AM 22.76 72.968 0.177 7.58 10.16 5.67
7/16/2021 6:30:00 AM 22.72 72.896 0.177 7.57 10.28 5.69
7/16/2021 6:45:00 AM 22.69 72.842 0.176 7.58 10.36 5.71
7/16/2021 7:00:00 AM 22.67 72.806 0.177 7.59 10.04 5.73
7/16/2021 7:15:00 AM 22.65 72.77 0.176 7.59 9.84 5.79
7/16/2021 7:30:00 AM 22.64 72.752 0.176 7.59 9.4 5.78
7/16/2021 7:45:00 AM 22.63 72.734 0.174 7.6 9.54 5.81
7/16/2021 8:00:00 AM 22.64 72.752 0.174 7.59 9.68 5.8
7/16/2021 8:15:00 AM 22.65 72.77 0.177 7.59 9.17 5.7
7/16/2021 8:30:00 AM 22.67 72.806 0.173 7.59 9.33 5.75
7/16/2021 8:45:00 AM 22.7 72.86 0.172 7.59 9.44 5.92
7/16/2021 9:00:00 AM 22.72 72.896 0.172 7.58 9.49 5.92
7/16/2021 9:15:00 AM 22.75 72.95 0.173 7.59 10.01 5.84
7/16/2021 9:30:00 AM 22.78 73.004 0.174 7.59 9.48 5.84
7/16/2021 9:45:00 AM 22.81 73.058 0.174 7.59 9.47 5.82
7/16/2021 10:00:00 AM 22.85 73.13 0.173 7.59 9.47 5.88
7/16/2021 10:15:00 AM 22.9 73.22 0.171 7.59 9.38 5.93
7/16/2021 10:30:00 AM 22.96 73.328 0.168 7.61 10.6 6.34
7/16/2021 10:45:00 AM 23 73.4 0.169 7.6 10.11 6.29
7/16/2021 11:00:00 AM 23.03 73.454 0.168 7.6 12.19 6.29
7/16/2021 11:15:00 AM 23.08 73.544 0.166 7.61 10.38 6.43
7/16/2021 11:30:00 AM 23.12 73.616 0.165 7.6 10.54 6.35
7/16/2021 11:45:00 AM 23.15 73.67 0.166